<?xml version='1.0' encoding='UTF-8'?><gpx version="1.1" creator="JPX - https://github.com/jenetics/jpx" xmlns="http://www.topografix.com/GPX/1/1"><trk><trkseg><trkpt lat="45.995019" lon="11.7595865"><ele>636.0</ele><time>2026-04-18T15:04:57.918Z</time></trkpt><trkpt lat="45.9950482" lon="11.7596686"><ele>636.0</ele><time>2026-04-18T15:05:36.907Z</time></trkpt><trkpt lat="45.9949921" lon="11.7597239"><ele>636.0</ele><time>2026-04-18T15:05:53.932Z</time></trkpt><trkpt lat="45.9949362" lon="11.7596813"><ele>636.0</ele><time>2026-04-18T15:06:31.899Z</time></trkpt><trkpt lat="45.9949877" lon="11.7596287"><ele>636.0</ele><time>2026-04-18T15:06:49.997Z</time></trkpt><trkpt lat="45.9949977" lon="11.7597208"><ele>636.0</ele><time>2026-04-18T15:08:52.994Z</time></trkpt><trkpt lat="45.9949251" lon="11.7598369"><ele>636.0</ele><time>2026-04-18T15:09:19.937Z</time></trkpt><trkpt lat="45.9948405" lon="11.7596499"><ele>631.3333333333334</ele><time>2026-04-18T15:09:22.989Z</time></trkpt><trkpt lat="45.9948064" lon="11.7595424"><ele>626.6666666666666</ele><time>2026-04-18T15:09:23.973Z</time></trkpt><trkpt lat="45.9947681" lon="11.7594016"><ele>622.0</ele><time>2026-04-18T15:09:25.967Z</time></trkpt><trkpt lat="45.9947509" lon="11.7593019"><ele>617.3333333333333</ele><time>2026-04-18T15:09:29.959Z</time></trkpt><trkpt lat="45.9947318" lon="11.7592149"><ele>612.6666666666666</ele><time>2026-04-18T15:09:32.979Z</time></trkpt><trkpt lat="45.9947036" lon="11.7590926"><ele>608.0</ele><time>2026-04-18T15:09:34.98Z</time></trkpt><trkpt lat="45.9946597" lon="11.7589212"><ele>608.0</ele><time>2026-04-18T15:09:36.963Z</time></trkpt><trkpt lat="45.9946439" lon="11.7588295"><ele>608.0</ele><time>2026-04-18T15:09:37.978Z</time></trkpt><trkpt lat="45.9946269" lon="11.758735"><ele>608.0</ele><time>2026-04-18T15:09:38.954Z</time></trkpt><trkpt lat="45.9946054" lon="11.758637"><ele>608.0</ele><time>2026-04-18T15:09:39.985Z</time></trkpt><trkpt lat="45.9945849" lon="11.7585484"><ele>608.0</ele><time>2026-04-18T15:09:40.978Z</time></trkpt><trkpt lat="45.9945606" lon="11.7584621"><ele>608.0</ele><time>2026-04-18T15:09:41.985Z</time></trkpt><trkpt lat="45.9945352" lon="11.7583783"><ele>608.0</ele><time>2026-04-18T15:09:42.956Z</time></trkpt><trkpt lat="45.9945139" lon="11.7582836"><ele>609.4</ele><time>2026-04-18T15:09:43.951Z</time></trkpt><trkpt lat="45.9944722" lon="11.7581623"><ele>610.8</ele><time>2026-04-18T15:09:45.962Z</time></trkpt><trkpt lat="45.9944362" lon="11.7580782"><ele>612.2</ele><time>2026-04-18T15:09:47.979Z</time></trkpt><trkpt lat="45.9943862" lon="11.7579327"><ele>613.6</ele><time>2026-04-18T15:09:50.005Z</time></trkpt><trkpt lat="45.9943398" lon="11.7578136"><ele>615.0</ele><time>2026-04-18T15:09:51.983Z</time></trkpt><trkpt lat="45.9942807" lon="11.7576858"><ele>617.5</ele><time>2026-04-18T15:09:53.98Z</time></trkpt><trkpt lat="45.9942284" lon="11.7575198"><ele>620.0</ele><time>2026-04-18T15:09:55.993Z</time></trkpt><trkpt lat="45.9942056" lon="11.7574298"><ele>622.5</ele><time>2026-04-18T15:09:56.994Z</time></trkpt><trkpt lat="45.9941838" lon="11.7573338"><ele>625.0</ele><time>2026-04-18T15:09:58.007Z</time></trkpt><trkpt lat="45.9941646" lon="11.7572367"><ele>627.5</ele><time>2026-04-18T15:09:58.991Z</time></trkpt><trkpt lat="45.9941542" lon="11.7571383"><ele>630.0</ele><time>2026-04-18T15:09:59.995Z</time></trkpt><trkpt lat="45.9941498" lon="11.7570386"><ele>632.1666666666666</ele><time>2026-04-18T15:10:00.983Z</time></trkpt><trkpt lat="45.9941532" lon="11.756934"><ele>634.3333333333334</ele><time>2026-04-18T15:10:01.998Z</time></trkpt><trkpt lat="45.9941585" lon="11.7568336"><ele>636.5</ele><time>2026-04-18T15:10:02.99Z</time></trkpt><trkpt lat="45.9941624" lon="11.7567345"><ele>638.6666666666667</ele><time>2026-04-18T15:10:03.983Z</time></trkpt><trkpt lat="45.9941642" lon="11.7565425"><ele>640.8333333333334</ele><time>2026-04-18T15:10:06.007Z</time></trkpt><trkpt lat="45.9941729" lon="11.7564484"><ele>643.0</ele><time>2026-04-18T15:10:06.992Z</time></trkpt><trkpt lat="45.9941837" lon="11.7563489"><ele>643.0</ele><time>2026-04-18T15:10:08.007Z</time></trkpt><trkpt lat="45.9941961" lon="11.7562598"><ele>643.0</ele><time>2026-04-18T15:10:08.992Z</time></trkpt><trkpt lat="45.9942107" lon="11.7561674"><ele>643.0</ele><time>2026-04-18T15:10:09.994Z</time></trkpt><trkpt lat="45.9942359" lon="11.7560736"><ele>643.0</ele><time>2026-04-18T15:10:10.982Z</time></trkpt><trkpt lat="45.9942794" lon="11.7559101"><ele>643.0</ele><time>2026-04-18T15:10:13.003Z</time></trkpt><trkpt lat="45.9943159" lon="11.7557691"><ele>643.0</ele><time>2026-04-18T15:10:14.977Z</time></trkpt><trkpt lat="45.9943893" lon="11.7556496"><ele>642.8333333333334</ele><time>2026-04-18T15:10:16.992Z</time></trkpt><trkpt lat="45.994468" lon="11.7555357"><ele>642.6666666666667</ele><time>2026-04-18T15:10:18.951Z</time></trkpt><trkpt lat="45.9945022" lon="11.7553709"><ele>642.5</ele><time>2026-04-18T15:10:20.993Z</time></trkpt><trkpt lat="45.9944873" lon="11.7552745"><ele>642.3333333333334</ele><time>2026-04-18T15:10:21.988Z</time></trkpt><trkpt lat="45.9944773" lon="11.7551706"><ele>642.1666666666666</ele><time>2026-04-18T15:10:22.949Z</time></trkpt><trkpt lat="45.994476" lon="11.7550653"><ele>642.0</ele><time>2026-04-18T15:10:23.99Z</time></trkpt><trkpt lat="45.9944815" lon="11.7549692"><ele>641.8571428571428</ele><time>2026-04-18T15:10:24.974Z</time></trkpt><trkpt lat="45.9944848" lon="11.7548689"><ele>641.7142857142857</ele><time>2026-04-18T15:10:25.962Z</time></trkpt><trkpt lat="45.9944834" lon="11.7547676"><ele>641.5714285714286</ele><time>2026-04-18T15:10:26.972Z</time></trkpt><trkpt lat="45.9944722" lon="11.7546713"><ele>641.4285714285713</ele><time>2026-04-18T15:10:28Z</time></trkpt><trkpt lat="45.9944566" lon="11.7545813"><ele>641.2857142857142</ele><time>2026-04-18T15:10:28.989Z</time></trkpt><trkpt lat="45.9944395" lon="11.7544867"><ele>641.1428571428571</ele><time>2026-04-18T15:10:29.984Z</time></trkpt><trkpt lat="45.9944303" lon="11.7543828"><ele>641.0</ele><time>2026-04-18T15:10:30.999Z</time></trkpt><trkpt lat="45.9944317" lon="11.7542817"><ele>642.1666666666666</ele><time>2026-04-18T15:10:31.98Z</time></trkpt><trkpt lat="45.9944343" lon="11.7541717"><ele>643.3333333333333</ele><time>2026-04-18T15:10:32.999Z</time></trkpt><trkpt lat="45.9944352" lon="11.7540628"><ele>644.5</ele><time>2026-04-18T15:10:33.991Z</time></trkpt><trkpt lat="45.9944343" lon="11.7539545"><ele>645.6666666666666</ele><time>2026-04-18T15:10:34.981Z</time></trkpt><trkpt lat="45.99443" lon="11.7538396"><ele>646.8333333333334</ele><time>2026-04-18T15:10:35.988Z</time></trkpt><trkpt lat="45.9944243" lon="11.7537286"><ele>648.0</ele><time>2026-04-18T15:10:36.982Z</time></trkpt><trkpt lat="45.994422" lon="11.753622"><ele>649.8</ele><time>2026-04-18T15:10:37.991Z</time></trkpt><trkpt lat="45.9944211" lon="11.7534858"><ele>651.5999999999999</ele><time>2026-04-18T15:10:39.983Z</time></trkpt><trkpt lat="45.9944252" lon="11.7533776"><ele>653.4000000000001</ele><time>2026-04-18T15:10:42.962Z</time></trkpt><trkpt lat="45.9944289" lon="11.7532355"><ele>655.2</ele><time>2026-04-18T15:10:45Z</time></trkpt><trkpt lat="45.9944398" lon="11.7530561"><ele>657.0</ele><time>2026-04-18T15:10:46.998Z</time></trkpt><trkpt lat="45.9944508" lon="11.7529549"><ele>657.0</ele><time>2026-04-18T15:10:47.985Z</time></trkpt><trkpt lat="45.9944636" lon="11.7528487"><ele>657.0</ele><time>2026-04-18T15:10:48.984Z</time></trkpt><trkpt lat="45.9944763" lon="11.7527358"><ele>657.0</ele><time>2026-04-18T15:10:50.01Z</time></trkpt><trkpt lat="45.9944884" lon="11.7526295"><ele>657.0</ele><time>2026-04-18T15:10:50.948Z</time></trkpt><trkpt lat="45.9945053" lon="11.7525143"><ele>657.0</ele><time>2026-04-18T15:10:51.987Z</time></trkpt><trkpt lat="45.9945202" lon="11.7524036"><ele>657.0</ele><time>2026-04-18T15:10:52.991Z</time></trkpt><trkpt lat="45.9945337" lon="11.7522959"><ele>656.8571428571428</ele><time>2026-04-18T15:10:53.994Z</time></trkpt><trkpt lat="45.9945482" lon="11.7522069"><ele>656.7142857142858</ele><time>2026-04-18T15:10:54.992Z</time></trkpt><trkpt lat="45.9945652" lon="11.7521069"><ele>656.5714285714286</ele><time>2026-04-18T15:10:55.993Z</time></trkpt><trkpt lat="45.9945822" lon="11.7520067"><ele>656.4285714285713</ele><time>2026-04-18T15:10:56.979Z</time></trkpt><trkpt lat="45.9946058" lon="11.7519012"><ele>656.2857142857142</ele><time>2026-04-18T15:10:57.978Z</time></trkpt><trkpt lat="45.994631" lon="11.7517946"><ele>656.1428571428571</ele><time>2026-04-18T15:10:58.992Z</time></trkpt><trkpt lat="45.9946524" lon="11.7516909"><ele>656.0</ele><time>2026-04-18T15:10:59.981Z</time></trkpt><trkpt lat="45.9946766" lon="11.7515854"><ele>655.5</ele><time>2026-04-18T15:11:00.976Z</time></trkpt><trkpt lat="45.9947038" lon="11.7514834"><ele>655.0</ele><time>2026-04-18T15:11:01.989Z</time></trkpt><trkpt lat="45.9947274" lon="11.7513854"><ele>654.5</ele><time>2026-04-18T15:11:02.977Z</time></trkpt><trkpt lat="45.9947522" lon="11.7512871"><ele>654.0</ele><time>2026-04-18T15:11:03.992Z</time></trkpt><trkpt lat="45.994779" lon="11.7511836"><ele>653.5</ele><time>2026-04-18T15:11:04.997Z</time></trkpt><trkpt lat="45.994804" lon="11.7510801"><ele>653.0</ele><time>2026-04-18T15:11:05.98Z</time></trkpt><trkpt lat="45.9948374" lon="11.7509597"><ele>651.5</ele><time>2026-04-18T15:11:06.994Z</time></trkpt><trkpt lat="45.9948786" lon="11.7508403"><ele>650.0</ele><time>2026-04-18T15:11:07.969Z</time></trkpt><trkpt lat="45.9949294" lon="11.7507354"><ele>648.5</ele><time>2026-04-18T15:11:08.99Z</time></trkpt><trkpt lat="45.9949801" lon="11.7506415"><ele>647.0</ele><time>2026-04-18T15:11:09.993Z</time></trkpt><trkpt lat="45.9950265" lon="11.7505557"><ele>645.5</ele><time>2026-04-18T15:11:10.992Z</time></trkpt><trkpt lat="45.9950758" lon="11.7504586"><ele>644.0</ele><time>2026-04-18T15:11:11.999Z</time></trkpt><trkpt lat="45.9951032" lon="11.7503511"><ele>652.8333333333333</ele><time>2026-04-18T15:11:12.997Z</time></trkpt><trkpt lat="45.9951163" lon="11.7502462"><ele>661.6666666666666</ele><time>2026-04-18T15:11:13.979Z</time></trkpt><trkpt lat="45.9951263" lon="11.7501343"><ele>670.5</ele><time>2026-04-18T15:11:14.984Z</time></trkpt><trkpt lat="45.9951297" lon="11.7500185"><ele>679.3333333333334</ele><time>2026-04-18T15:11:15.99Z</time></trkpt><trkpt lat="45.9951335" lon="11.7499009"><ele>688.1666666666667</ele><time>2026-04-18T15:11:16.978Z</time></trkpt><trkpt lat="45.9951379" lon="11.7497847"><ele>697.0</ele><time>2026-04-18T15:11:17.933Z</time></trkpt><trkpt lat="45.9951409" lon="11.74967"><ele>697.0</ele><time>2026-04-18T15:11:18.956Z</time></trkpt><trkpt lat="45.9951444" lon="11.7495473"><ele>697.0</ele><time>2026-04-18T15:11:19.927Z</time></trkpt><trkpt lat="45.9951502" lon="11.7494277"><ele>697.0</ele><time>2026-04-18T15:11:20.95Z</time></trkpt><trkpt lat="45.9951543" lon="11.7493142"><ele>697.0</ele><time>2026-04-18T15:11:21.936Z</time></trkpt><trkpt lat="45.9951728" lon="11.749214"><ele>697.0</ele><time>2026-04-18T15:11:22.927Z</time></trkpt><trkpt lat="45.9951936" lon="11.7491127"><ele>697.0</ele><time>2026-04-18T15:11:23.902Z</time></trkpt><trkpt lat="45.9952257" lon="11.7490249"><ele>696.1666666666667</ele><time>2026-04-18T15:11:24.933Z</time></trkpt><trkpt lat="45.9952599" lon="11.7489269"><ele>695.3333333333334</ele><time>2026-04-18T15:11:25.92Z</time></trkpt><trkpt lat="45.9952977" lon="11.7488226"><ele>694.5</ele><time>2026-04-18T15:11:26.925Z</time></trkpt><trkpt lat="45.9953352" lon="11.7487237"><ele>693.6666666666666</ele><time>2026-04-18T15:11:27.901Z</time></trkpt><trkpt lat="45.995381" lon="11.748622"><ele>692.8333333333333</ele><time>2026-04-18T15:11:28.939Z</time></trkpt><trkpt lat="45.9954237" lon="11.748535"><ele>692.0</ele><time>2026-04-18T15:11:29.941Z</time></trkpt><trkpt lat="45.9954596" lon="11.7484416"><ele>689.0</ele><time>2026-04-18T15:11:30.938Z</time></trkpt><trkpt lat="45.9954949" lon="11.7483499"><ele>686.0</ele><time>2026-04-18T15:11:31.949Z</time></trkpt><trkpt lat="45.9955346" lon="11.7482542"><ele>683.0</ele><time>2026-04-18T15:11:32.942Z</time></trkpt><trkpt lat="45.9955753" lon="11.7481634"><ele>680.0</ele><time>2026-04-18T15:11:33.933Z</time></trkpt><trkpt lat="45.9956142" lon="11.748072"><ele>677.0</ele><time>2026-04-18T15:11:34.958Z</time></trkpt><trkpt lat="45.9956556" lon="11.7479799"><ele>674.0</ele><time>2026-04-18T15:11:35.936Z</time></trkpt><trkpt lat="45.9957052" lon="11.7478851"><ele>674.0</ele><time>2026-04-18T15:11:36.945Z</time></trkpt><trkpt lat="45.9957586" lon="11.7478028"><ele>674.0</ele><time>2026-04-18T15:11:37.946Z</time></trkpt><trkpt lat="45.9958195" lon="11.7477247"><ele>674.0</ele><time>2026-04-18T15:11:38.934Z</time></trkpt><trkpt lat="45.9958767" lon="11.747648"><ele>674.0</ele><time>2026-04-18T15:11:39.926Z</time></trkpt><trkpt lat="45.9959321" lon="11.7475686"><ele>674.0</ele><time>2026-04-18T15:11:40.943Z</time></trkpt><trkpt lat="45.9959858" lon="11.7474949"><ele>674.0</ele><time>2026-04-18T15:11:41.941Z</time></trkpt><trkpt lat="45.9960425" lon="11.7474179"><ele>674.0</ele><time>2026-04-18T15:11:42.929Z</time></trkpt><trkpt lat="45.996096" lon="11.7473385"><ele>674.0</ele><time>2026-04-18T15:11:43.896Z</time></trkpt><trkpt lat="45.9961536" lon="11.7472618"><ele>674.0</ele><time>2026-04-18T15:11:44.934Z</time></trkpt><trkpt lat="45.9962096" lon="11.7471876"><ele>674.0</ele><time>2026-04-18T15:11:45.92Z</time></trkpt><trkpt lat="45.9962688" lon="11.7471176"><ele>674.0</ele><time>2026-04-18T15:11:46.938Z</time></trkpt><trkpt lat="45.9963393" lon="11.7470716"><ele>674.0</ele><time>2026-04-18T15:11:47.943Z</time></trkpt><trkpt lat="45.9964175" lon="11.7470429"><ele>674.0</ele><time>2026-04-18T15:11:48.931Z</time></trkpt><trkpt lat="45.9964866" lon="11.7470011"><ele>674.0</ele><time>2026-04-18T15:11:49.934Z</time></trkpt><trkpt lat="45.9965579" lon="11.7469498"><ele>674.0</ele><time>2026-04-18T15:11:50.938Z</time></trkpt><trkpt lat="45.9966331" lon="11.7469195"><ele>674.0</ele><time>2026-04-18T15:11:51.938Z</time></trkpt><trkpt lat="45.9967195" lon="11.7469141"><ele>674.0</ele><time>2026-04-18T15:11:52.937Z</time></trkpt><trkpt lat="45.9967938" lon="11.7469293"><ele>674.0</ele><time>2026-04-18T15:11:53.943Z</time></trkpt><trkpt lat="45.9968585" lon="11.7469657"><ele>675.5</ele><time>2026-04-18T15:11:54.95Z</time></trkpt><trkpt lat="45.9969217" lon="11.7470281"><ele>677.0</ele><time>2026-04-18T15:11:55.939Z</time></trkpt><trkpt lat="45.9969847" lon="11.747093"><ele>678.5</ele><time>2026-04-18T15:11:56.93Z</time></trkpt><trkpt lat="45.9970362" lon="11.7471477"><ele>680.0</ele><time>2026-04-18T15:11:57.945Z</time></trkpt><trkpt lat="45.997095" lon="11.747234"><ele>681.5</ele><time>2026-04-18T15:11:59.899Z</time></trkpt><trkpt lat="45.9970346" lon="11.7471911"><ele>683.0</ele><time>2026-04-18T15:12:06.929Z</time></trkpt><trkpt lat="45.9971229" lon="11.7472252"><ele>683.0</ele><time>2026-04-18T15:12:27.932Z</time></trkpt><trkpt lat="45.9971698" lon="11.746987"><ele>683.0</ele><time>2026-04-18T15:12:33.936Z</time></trkpt><trkpt lat="45.9972228" lon="11.7467901"><ele>683.0</ele><time>2026-04-18T15:12:34.928Z</time></trkpt><trkpt lat="45.9972059" lon="11.7466994"><ele>683.0</ele><time>2026-04-18T15:12:35.942Z</time></trkpt><trkpt lat="45.9971486" lon="11.7466607"><ele>683.0</ele><time>2026-04-18T15:12:36.935Z</time></trkpt><trkpt lat="45.9971024" lon="11.7465872"><ele>679.5999999999999</ele><time>2026-04-18T15:12:37.944Z</time></trkpt><trkpt lat="45.9970544" lon="11.7465268"><ele>676.1999999999999</ele><time>2026-04-18T15:12:38.935Z</time></trkpt><trkpt lat="45.9969711" lon="11.7464498"><ele>672.8</ele><time>2026-04-18T15:12:40.893Z</time></trkpt><trkpt lat="45.9968898" lon="11.7464116"><ele>669.4</ele><time>2026-04-18T15:12:42.935Z</time></trkpt><trkpt lat="45.997017" lon="11.7462739"><ele>666.0</ele><time>2026-04-18T15:12:48.922Z</time></trkpt><trkpt lat="45.9970662" lon="11.7461999"><ele>666.0</ele><time>2026-04-18T15:12:49.954Z</time></trkpt><trkpt lat="45.9971401" lon="11.7460585"><ele>666.0</ele><time>2026-04-18T15:12:51.934Z</time></trkpt><trkpt lat="45.997168" lon="11.745952"><ele>666.0</ele><time>2026-04-18T15:12:53.919Z</time></trkpt><trkpt lat="45.9972135" lon="11.7458422"><ele>666.0</ele><time>2026-04-18T15:12:55.947Z</time></trkpt><trkpt lat="45.9972199" lon="11.7457119"><ele>666.0</ele><time>2026-04-18T15:12:57.937Z</time></trkpt><trkpt lat="45.9972061" lon="11.7455109"><ele>664.5999999999999</ele><time>2026-04-18T15:12:59.928Z</time></trkpt><trkpt lat="45.9971843" lon="11.7453832"><ele>663.2</ele><time>2026-04-18T15:13:00.933Z</time></trkpt><trkpt lat="45.9971609" lon="11.7452893"><ele>661.8</ele><time>2026-04-18T15:13:01.936Z</time></trkpt><trkpt lat="45.9971354" lon="11.7451398"><ele>660.4000000000001</ele><time>2026-04-18T15:13:03.925Z</time></trkpt><trkpt lat="45.9971255" lon="11.7449766"><ele>659.0</ele><time>2026-04-18T15:13:05.931Z</time></trkpt><trkpt lat="45.9971348" lon="11.7448619"><ele>658.0</ele><time>2026-04-18T15:13:06.937Z</time></trkpt><trkpt lat="45.9971614" lon="11.7447643"><ele>657.0</ele><time>2026-04-18T15:13:07.934Z</time></trkpt><trkpt lat="45.9971975" lon="11.7446449"><ele>656.0</ele><time>2026-04-18T15:13:09.931Z</time></trkpt><trkpt lat="45.9972701" lon="11.7445371"><ele>655.0</ele><time>2026-04-18T15:13:11.934Z</time></trkpt><trkpt lat="45.9973001" lon="11.7444491"><ele>654.0</ele><time>2026-04-18T15:13:12.938Z</time></trkpt><trkpt lat="45.9973246" lon="11.744354"><ele>653.0</ele><time>2026-04-18T15:13:13.94Z</time></trkpt><trkpt lat="45.9973785" lon="11.7442416"><ele>651.1666666666666</ele><time>2026-04-18T15:13:15.929Z</time></trkpt><trkpt lat="45.9973883" lon="11.7441107"><ele>649.3333333333333</ele><time>2026-04-18T15:13:17.937Z</time></trkpt><trkpt lat="45.9973704" lon="11.7440131"><ele>647.5</ele><time>2026-04-18T15:13:18.936Z</time></trkpt><trkpt lat="45.9973381" lon="11.7439186"><ele>645.6666666666666</ele><time>2026-04-18T15:13:20.976Z</time></trkpt><trkpt lat="45.9973158" lon="11.7438224"><ele>643.8333333333334</ele><time>2026-04-18T15:13:22.935Z</time></trkpt><trkpt lat="45.9973085" lon="11.7437066"><ele>642.0</ele><time>2026-04-18T15:13:23.927Z</time></trkpt><trkpt lat="45.9972744" lon="11.743628"><ele>642.8</ele><time>2026-04-18T15:13:24.941Z</time></trkpt><trkpt lat="45.9972404" lon="11.7435077"><ele>643.6</ele><time>2026-04-18T15:13:25.943Z</time></trkpt><trkpt lat="45.9971497" lon="11.7434239"><ele>644.4</ele><time>2026-04-18T15:13:27.927Z</time></trkpt><trkpt lat="45.9970785" lon="11.7432869"><ele>645.1999999999999</ele><time>2026-04-18T15:13:29.923Z</time></trkpt><trkpt lat="45.9970185" lon="11.7431994"><ele>646.0</ele><time>2026-04-18T15:13:31.927Z</time></trkpt><trkpt lat="45.996953" lon="11.7431951"><ele>646.0</ele><time>2026-04-18T15:13:34.954Z</time></trkpt><trkpt lat="45.9968866" lon="11.74324"><ele>646.0</ele><time>2026-04-18T15:13:37.946Z</time></trkpt><trkpt lat="45.9967963" lon="11.743265"><ele>646.0</ele><time>2026-04-18T15:13:39.941Z</time></trkpt><trkpt lat="45.9966837" lon="11.7433266"><ele>646.0</ele><time>2026-04-18T15:13:41.93Z</time></trkpt><trkpt lat="45.996724" lon="11.7434404"><ele>646.0</ele><time>2026-04-18T15:13:44.945Z</time></trkpt><trkpt lat="45.9967909" lon="11.7435381"><ele>645.1999999999999</ele><time>2026-04-18T15:13:46.944Z</time></trkpt><trkpt lat="45.9968589" lon="11.7435784"><ele>644.4</ele><time>2026-04-18T15:13:47.95Z</time></trkpt><trkpt lat="45.9969081" lon="11.7436601"><ele>643.6</ele><time>2026-04-18T15:13:48.947Z</time></trkpt><trkpt lat="45.9969533" lon="11.7437754"><ele>642.8</ele><time>2026-04-18T15:13:49.943Z</time></trkpt><trkpt lat="45.9969664" lon="11.7439504"><ele>642.0</ele><time>2026-04-18T15:13:51.911Z</time></trkpt><trkpt lat="45.9969862" lon="11.7440832"><ele>642.0</ele><time>2026-04-18T15:13:52.937Z</time></trkpt><trkpt lat="45.9970005" lon="11.7441811"><ele>642.0</ele><time>2026-04-18T15:13:53.936Z</time></trkpt><trkpt lat="45.996981" lon="11.7443382"><ele>642.0</ele><time>2026-04-18T15:13:55.936Z</time></trkpt><trkpt lat="45.996901" lon="11.744447"><ele>642.0</ele><time>2026-04-18T15:13:57.933Z</time></trkpt><trkpt lat="45.9968572" lon="11.7445206"><ele>642.0</ele><time>2026-04-18T15:13:58.945Z</time></trkpt><trkpt lat="45.9968184" lon="11.7446041"><ele>642.0</ele><time>2026-04-18T15:13:59.943Z</time></trkpt><trkpt lat="45.9967307" lon="11.7447212"><ele>643.8333333333334</ele><time>2026-04-18T15:14:01.938Z</time></trkpt><trkpt lat="45.9966848" lon="11.7447965"><ele>645.6666666666666</ele><time>2026-04-18T15:14:03.945Z</time></trkpt><trkpt lat="45.996737" lon="11.7449551"><ele>647.5</ele><time>2026-04-18T15:14:06.933Z</time></trkpt><trkpt lat="45.9967801" lon="11.7450486"><ele>649.3333333333333</ele><time>2026-04-18T15:14:07.934Z</time></trkpt><trkpt lat="45.996805" lon="11.745135"><ele>651.1666666666666</ele><time>2026-04-18T15:14:08.921Z</time></trkpt><trkpt lat="45.9968137" lon="11.7452411"><ele>653.0</ele><time>2026-04-18T15:14:09.935Z</time></trkpt><trkpt lat="45.9968056" lon="11.7453985"><ele>653.0</ele><time>2026-04-18T15:14:11.937Z</time></trkpt><trkpt lat="45.9967713" lon="11.7454879"><ele>653.0</ele><time>2026-04-18T15:14:13.938Z</time></trkpt><trkpt lat="45.9966388" lon="11.7451281"><ele>653.0</ele><time>2026-04-18T15:14:22.957Z</time></trkpt><trkpt lat="45.9966405" lon="11.7450301"><ele>653.0</ele><time>2026-04-18T15:14:24.927Z</time></trkpt><trkpt lat="45.9966752" lon="11.7449518"><ele>653.0</ele><time>2026-04-18T15:14:25.936Z</time></trkpt><trkpt lat="45.9967127" lon="11.744855"><ele>653.0</ele><time>2026-04-18T15:14:26.932Z</time></trkpt><trkpt lat="45.9967629" lon="11.7447652"><ele>653.0</ele><time>2026-04-18T15:14:27.94Z</time></trkpt><trkpt lat="45.9967939" lon="11.7446651"><ele>653.0</ele><time>2026-04-18T15:14:28.943Z</time></trkpt><trkpt lat="45.9968164" lon="11.7445501"><ele>653.0</ele><time>2026-04-18T15:14:29.904Z</time></trkpt><trkpt lat="45.9968296" lon="11.7444296"><ele>653.0</ele><time>2026-04-18T15:14:30.938Z</time></trkpt><trkpt lat="45.9968511" lon="11.7442797"><ele>651.1666666666666</ele><time>2026-04-18T15:14:31.958Z</time></trkpt><trkpt lat="45.996865" lon="11.7441758"><ele>649.3333333333333</ele><time>2026-04-18T15:14:32.907Z</time></trkpt><trkpt lat="45.9968596" lon="11.7440697"><ele>647.5</ele><time>2026-04-18T15:14:35.924Z</time></trkpt><trkpt lat="45.9968416" lon="11.7439683"><ele>645.6666666666666</ele><time>2026-04-18T15:14:39.905Z</time></trkpt><trkpt lat="45.9968271" lon="11.7438693"><ele>643.8333333333334</ele><time>2026-04-18T15:14:41.921Z</time></trkpt><trkpt lat="45.9968366" lon="11.7437552"><ele>642.0</ele><time>2026-04-18T15:14:43.98Z</time></trkpt><trkpt lat="45.9967218" lon="11.7437732"><ele>642.0</ele><time>2026-04-18T15:14:46.943Z</time></trkpt><trkpt lat="45.9966159" lon="11.7438023"><ele>642.0</ele><time>2026-04-18T15:14:47.935Z</time></trkpt><trkpt lat="45.9966684" lon="11.7438662"><ele>642.0</ele><time>2026-04-18T15:14:50.908Z</time></trkpt><trkpt lat="45.996719" lon="11.7437585"><ele>642.0</ele><time>2026-04-18T15:14:53.935Z</time></trkpt><trkpt lat="45.9967305" lon="11.7436419"><ele>642.0</ele><time>2026-04-18T15:14:54.938Z</time></trkpt><trkpt lat="45.9967316" lon="11.7435293"><ele>642.0</ele><time>2026-04-18T15:14:55.94Z</time></trkpt><trkpt lat="45.9966511" lon="11.7434772"><ele>638.8000000000001</ele><time>2026-04-18T15:14:59.94Z</time></trkpt><trkpt lat="45.9965281" lon="11.7434644"><ele>635.6</ele><time>2026-04-18T15:15:01.952Z</time></trkpt><trkpt lat="45.9964281" lon="11.7434198"><ele>632.4000000000001</ele><time>2026-04-18T15:15:02.942Z</time></trkpt><trkpt lat="45.9963544" lon="11.7433774"><ele>629.2</ele><time>2026-04-18T15:15:03.94Z</time></trkpt><trkpt lat="45.9962318" lon="11.7433559"><ele>626.0</ele><time>2026-04-18T15:15:04.902Z</time></trkpt><trkpt lat="45.9961591" lon="11.7433489"><ele>626.0</ele><time>2026-04-18T15:15:05.911Z</time></trkpt><trkpt lat="45.9960723" lon="11.7433115"><ele>626.0</ele><time>2026-04-18T15:15:07.96Z</time></trkpt><trkpt lat="45.9962104" lon="11.7432306"><ele>626.0</ele><time>2026-04-18T15:15:14.936Z</time></trkpt><trkpt lat="45.9963032" lon="11.7432008"><ele>626.0</ele><time>2026-04-18T15:15:16.978Z</time></trkpt><trkpt lat="45.9961855" lon="11.7429582"><ele>626.0</ele><time>2026-04-18T15:15:21.959Z</time></trkpt><trkpt lat="45.996125" lon="11.7429304"><ele>626.0</ele><time>2026-04-18T15:15:22.962Z</time></trkpt><trkpt lat="45.9961007" lon="11.74284"><ele>626.0</ele><time>2026-04-18T15:15:26.989Z</time></trkpt><trkpt lat="45.9960295" lon="11.7427624"><ele>626.0</ele><time>2026-04-18T15:15:31.006Z</time></trkpt><trkpt lat="45.9959759" lon="11.7427142"><ele>626.0</ele><time>2026-04-18T15:15:31.927Z</time></trkpt><trkpt lat="45.9958767" lon="11.7426401"><ele>626.0</ele><time>2026-04-18T15:15:33.948Z</time></trkpt><trkpt lat="45.995824" lon="11.7425833"><ele>621.6</ele><time>2026-04-18T15:15:34.952Z</time></trkpt><trkpt lat="45.9957187" lon="11.7425044"><ele>617.2</ele><time>2026-04-18T15:15:36.949Z</time></trkpt><trkpt lat="45.9956489" lon="11.7424727"><ele>612.8</ele><time>2026-04-18T15:15:37.932Z</time></trkpt><trkpt lat="45.9955862" lon="11.7424476"><ele>608.4</ele><time>2026-04-18T15:15:38.949Z</time></trkpt><trkpt lat="45.9954749" lon="11.7424533"><ele>604.0</ele><time>2026-04-18T15:15:40.944Z</time></trkpt><trkpt lat="45.9953525" lon="11.7424853"><ele>604.0</ele><time>2026-04-18T15:15:42.942Z</time></trkpt><trkpt lat="45.9952918" lon="11.7425099"><ele>604.0</ele><time>2026-04-18T15:15:43.912Z</time></trkpt><trkpt lat="45.9951731" lon="11.7425507"><ele>604.0</ele><time>2026-04-18T15:15:45.932Z</time></trkpt><trkpt lat="45.9951049" lon="11.742587"><ele>604.0</ele><time>2026-04-18T15:15:46.947Z</time></trkpt><trkpt lat="45.9950295" lon="11.7426228"><ele>604.0</ele><time>2026-04-18T15:15:47.94Z</time></trkpt><trkpt lat="45.9949504" lon="11.742664"><ele>604.0</ele><time>2026-04-18T15:15:48.972Z</time></trkpt><trkpt lat="45.9948395" lon="11.7427133"><ele>599.2</ele><time>2026-04-18T15:15:50.943Z</time></trkpt><trkpt lat="45.9947354" lon="11.7427463"><ele>594.4</ele><time>2026-04-18T15:15:52.936Z</time></trkpt><trkpt lat="45.9946305" lon="11.7427176"><ele>589.6</ele><time>2026-04-18T15:15:59.913Z</time></trkpt><trkpt lat="45.9945629" lon="11.742578"><ele>584.8</ele><time>2026-04-18T15:16:01.938Z</time></trkpt><trkpt lat="45.9945166" lon="11.7425131"><ele>580.0</ele><time>2026-04-18T15:16:02.939Z</time></trkpt><trkpt lat="45.9944797" lon="11.7424175"><ele>580.0</ele><time>2026-04-18T15:16:03.929Z</time></trkpt><trkpt lat="45.9944583" lon="11.7423262"><ele>580.0</ele><time>2026-04-18T15:16:04.939Z</time></trkpt><trkpt lat="45.9944556" lon="11.7421592"><ele>580.0</ele><time>2026-04-18T15:16:06.932Z</time></trkpt><trkpt lat="45.9944403" lon="11.7419983"><ele>580.0</ele><time>2026-04-18T15:16:08.955Z</time></trkpt><trkpt lat="45.994422" lon="11.7418661"><ele>580.0</ele><time>2026-04-18T15:16:10.947Z</time></trkpt><trkpt lat="45.9943941" lon="11.7417206"><ele>581.6666666666667</ele><time>2026-04-18T15:16:12.934Z</time></trkpt><trkpt lat="45.9943765" lon="11.7416285"><ele>583.3333333333334</ele><time>2026-04-18T15:16:14.935Z</time></trkpt><trkpt lat="45.9943474" lon="11.7415476"><ele>585.0</ele><time>2026-04-18T15:16:16.902Z</time></trkpt><trkpt lat="45.9943252" lon="11.7414175"><ele>586.6666666666666</ele><time>2026-04-18T15:16:18.939Z</time></trkpt><trkpt lat="45.9943105" lon="11.7413292"><ele>588.3333333333333</ele><time>2026-04-18T15:16:19.929Z</time></trkpt><trkpt lat="45.9942869" lon="11.741218"><ele>590.0</ele><time>2026-04-18T15:16:20.921Z</time></trkpt><trkpt lat="45.9942642" lon="11.7411008"><ele>592.5</ele><time>2026-04-18T15:16:21.928Z</time></trkpt><trkpt lat="45.9942498" lon="11.7409548"><ele>595.0</ele><time>2026-04-18T15:16:22.938Z</time></trkpt><trkpt lat="45.9942462" lon="11.7407969"><ele>597.5</ele><time>2026-04-18T15:16:23.932Z</time></trkpt><trkpt lat="45.9942424" lon="11.7406863"><ele>600.0</ele><time>2026-04-18T15:16:24.946Z</time></trkpt><trkpt lat="45.9942287" lon="11.7405843"><ele>602.5</ele><time>2026-04-18T15:16:25.944Z</time></trkpt><trkpt lat="45.9942088" lon="11.740489"><ele>605.0</ele><time>2026-04-18T15:16:26.948Z</time></trkpt><trkpt lat="45.9941859" lon="11.7403929"><ele>600.3333333333333</ele><time>2026-04-18T15:16:27.938Z</time></trkpt><trkpt lat="45.9941675" lon="11.7402721"><ele>595.6666666666666</ele><time>2026-04-18T15:16:28.94Z</time></trkpt><trkpt lat="45.9941458" lon="11.7401273"><ele>591.0</ele><time>2026-04-18T15:16:29.935Z</time></trkpt><trkpt lat="45.9941244" lon="11.7400143"><ele>586.3333333333334</ele><time>2026-04-18T15:16:30.929Z</time></trkpt><trkpt lat="45.9941048" lon="11.7399206"><ele>581.6666666666667</ele><time>2026-04-18T15:16:31.904Z</time></trkpt><trkpt lat="45.9940688" lon="11.7398185"><ele>577.0</ele><time>2026-04-18T15:16:33.939Z</time></trkpt><trkpt lat="45.9939791" lon="11.7398083"><ele>577.0</ele><time>2026-04-18T15:16:37.938Z</time></trkpt><trkpt lat="45.9938838" lon="11.7398048"><ele>577.0</ele><time>2026-04-18T15:16:39.92Z</time></trkpt><trkpt lat="45.9938165" lon="11.7398244"><ele>577.0</ele><time>2026-04-18T15:16:40.922Z</time></trkpt><trkpt lat="45.9937524" lon="11.7398678"><ele>577.0</ele><time>2026-04-18T15:16:41.948Z</time></trkpt><trkpt lat="45.9936877" lon="11.7399138"><ele>577.0</ele><time>2026-04-18T15:16:43.937Z</time></trkpt><trkpt lat="45.9936002" lon="11.7398827"><ele>577.0</ele><time>2026-04-18T15:16:46.914Z</time></trkpt><trkpt lat="45.9935322" lon="11.739726"><ele>577.0</ele><time>2026-04-18T15:16:48.943Z</time></trkpt><trkpt lat="45.9934886" lon="11.7396182"><ele>577.0</ele><time>2026-04-18T15:16:49.921Z</time></trkpt><trkpt lat="45.9934304" lon="11.7394746"><ele>577.0</ele><time>2026-04-18T15:16:50.947Z</time></trkpt><trkpt lat="45.9933764" lon="11.7393532"><ele>577.0</ele><time>2026-04-18T15:16:51.936Z</time></trkpt><trkpt lat="45.9933256" lon="11.7392436"><ele>577.0</ele><time>2026-04-18T15:16:52.959Z</time></trkpt><trkpt lat="45.9932962" lon="11.7391482"><ele>575.0</ele><time>2026-04-18T15:16:53.951Z</time></trkpt><trkpt lat="45.9932824" lon="11.739051"><ele>573.0</ele><time>2026-04-18T15:16:54.935Z</time></trkpt><trkpt lat="45.9932592" lon="11.7389202"><ele>571.0</ele><time>2026-04-18T15:16:55.934Z</time></trkpt><trkpt lat="45.9932324" lon="11.7388055"><ele>569.0</ele><time>2026-04-18T15:16:56.896Z</time></trkpt><trkpt lat="45.9932053" lon="11.7386978"><ele>567.0</ele><time>2026-04-18T15:16:57.914Z</time></trkpt><trkpt lat="45.9931843" lon="11.7385791"><ele>565.0</ele><time>2026-04-18T15:16:59.936Z</time></trkpt><trkpt lat="45.9932424" lon="11.7385094"><ele>565.0</ele><time>2026-04-18T15:17:05.941Z</time></trkpt><trkpt lat="45.9931777" lon="11.7383958"><ele>565.0</ele><time>2026-04-18T15:17:07.946Z</time></trkpt><trkpt lat="45.9931148" lon="11.7383033"><ele>565.0</ele><time>2026-04-18T15:17:08.941Z</time></trkpt><trkpt lat="45.9930465" lon="11.7381897"><ele>565.0</ele><time>2026-04-18T15:17:09.96Z</time></trkpt><trkpt lat="45.9929969" lon="11.7380343"><ele>565.0</ele><time>2026-04-18T15:17:10.922Z</time></trkpt><trkpt lat="45.9929476" lon="11.7378748"><ele>565.0</ele><time>2026-04-18T15:17:11.955Z</time></trkpt><trkpt lat="45.9929062" lon="11.7377491"><ele>565.0</ele><time>2026-04-18T15:17:12.947Z</time></trkpt><trkpt lat="45.9928719" lon="11.7376704"><ele>565.0</ele><time>2026-04-18T15:17:13.909Z</time></trkpt><trkpt lat="45.9928072" lon="11.7375365"><ele>565.0</ele><time>2026-04-18T15:17:15.939Z</time></trkpt><trkpt lat="45.9927577" lon="11.7374036"><ele>565.0</ele><time>2026-04-18T15:17:17.948Z</time></trkpt><trkpt lat="45.9926983" lon="11.7372626"><ele>566.3333333333334</ele><time>2026-04-18T15:17:19.935Z</time></trkpt><trkpt lat="45.9926437" lon="11.7371539"><ele>567.6666666666667</ele><time>2026-04-18T15:17:21.95Z</time></trkpt><trkpt lat="45.9925984" lon="11.7370482"><ele>569.0</ele><time>2026-04-18T15:17:23.902Z</time></trkpt><trkpt lat="45.9925739" lon="11.7369472"><ele>570.3333333333334</ele><time>2026-04-18T15:17:25.942Z</time></trkpt><trkpt lat="45.9925766" lon="11.7368206"><ele>571.6666666666666</ele><time>2026-04-18T15:17:29.938Z</time></trkpt><trkpt lat="45.9925532" lon="11.7367215"><ele>573.0</ele><time>2026-04-18T15:17:32.939Z</time></trkpt><trkpt lat="45.9924554" lon="11.7367999"><ele>566.4</ele><time>2026-04-18T15:17:35Z</time></trkpt><trkpt lat="45.992389" lon="11.7368895"><ele>559.8</ele><time>2026-04-18T15:17:37Z</time></trkpt><trkpt lat="45.9923667" lon="11.7370188"><ele>553.2</ele><time>2026-04-18T15:17:39Z</time></trkpt><trkpt lat="45.9923642" lon="11.7371137"><ele>546.6</ele><time>2026-04-18T15:17:40.007Z</time></trkpt><trkpt lat="45.9923538" lon="11.7372919"><ele>540.0</ele><time>2026-04-18T15:17:41.997Z</time></trkpt><trkpt lat="45.9923511" lon="11.7374077"><ele>540.0</ele><time>2026-04-18T15:17:43.004Z</time></trkpt><trkpt lat="45.9923456" lon="11.7375357"><ele>540.0</ele><time>2026-04-18T15:17:43.984Z</time></trkpt><trkpt lat="45.9923354" lon="11.7376607"><ele>540.0</ele><time>2026-04-18T15:17:44.986Z</time></trkpt><trkpt lat="45.9923111" lon="11.7377588"><ele>540.0</ele><time>2026-04-18T15:17:45.994Z</time></trkpt><trkpt lat="45.992286" lon="11.7378562"><ele>540.0</ele><time>2026-04-18T15:17:46.992Z</time></trkpt><trkpt lat="45.9922609" lon="11.7379535"><ele>540.0</ele><time>2026-04-18T15:17:48.005Z</time></trkpt><trkpt lat="45.9921998" lon="11.7380612"><ele>539.6666666666666</ele><time>2026-04-18T15:17:49.01Z</time></trkpt><trkpt lat="45.9921338" lon="11.7381506"><ele>539.3333333333334</ele><time>2026-04-18T15:17:50.007Z</time></trkpt><trkpt lat="45.9920802" lon="11.7382267"><ele>539.0</ele><time>2026-04-18T15:17:51.014Z</time></trkpt><trkpt lat="45.9920255" lon="11.73829"><ele>538.6666666666667</ele><time>2026-04-18T15:17:52Z</time></trkpt><trkpt lat="45.9919727" lon="11.7383508"><ele>538.3333333333334</ele><time>2026-04-18T15:17:53.005Z</time></trkpt><trkpt lat="45.9919236" lon="11.738411"><ele>538.0</ele><time>2026-04-18T15:17:54.014Z</time></trkpt><trkpt lat="45.9918115" lon="11.7384623"><ele>538.0</ele><time>2026-04-18T15:17:56.005Z</time></trkpt><trkpt lat="45.9917205" lon="11.7385029"><ele>538.0</ele><time>2026-04-18T15:17:58.008Z</time></trkpt><trkpt lat="45.9915945" lon="11.7385906"><ele>538.0</ele><time>2026-04-18T15:17:59.963Z</time></trkpt><trkpt lat="45.9915036" lon="11.7386727"><ele>538.0</ele><time>2026-04-18T15:18:00.993Z</time></trkpt><trkpt lat="45.9914211" lon="11.7387486"><ele>538.0</ele><time>2026-04-18T15:18:01.997Z</time></trkpt><trkpt lat="45.9913503" lon="11.7388534"><ele>536.0</ele><time>2026-04-18T15:18:03.001Z</time></trkpt><trkpt lat="45.9912856" lon="11.7389938"><ele>534.0</ele><time>2026-04-18T15:18:04.976Z</time></trkpt><trkpt lat="45.9912347" lon="11.7391434"><ele>532.0</ele><time>2026-04-18T15:18:06.993Z</time></trkpt><trkpt lat="45.9912074" lon="11.739298"><ele>530.0</ele><time>2026-04-18T15:18:09.002Z</time></trkpt><trkpt lat="45.9911868" lon="11.7394193"><ele>528.0</ele><time>2026-04-18T15:18:17.011Z</time></trkpt><trkpt lat="45.9911219" lon="11.7395746"><ele>526.5</ele><time>2026-04-18T15:18:19.004Z</time></trkpt><trkpt lat="45.9910753" lon="11.7397183"><ele>525.0</ele><time>2026-04-18T15:18:20.982Z</time></trkpt><trkpt lat="45.9910548" lon="11.7398291"><ele>523.5</ele><time>2026-04-18T15:18:22.998Z</time></trkpt><trkpt lat="45.9909621" lon="11.7399075"><ele>522.0</ele><time>2026-04-18T15:18:25.991Z</time></trkpt><trkpt lat="45.9908964" lon="11.7399564"><ele>520.5</ele><time>2026-04-18T15:18:26.991Z</time></trkpt><trkpt lat="45.9908372" lon="11.7399922"><ele>519.0</ele><time>2026-04-18T15:18:27.997Z</time></trkpt><trkpt lat="45.9907083" lon="11.7400857"><ele>515.25</ele><time>2026-04-18T15:18:30.002Z</time></trkpt><trkpt lat="45.9905733" lon="11.7402025"><ele>511.5</ele><time>2026-04-18T15:18:31.02Z</time></trkpt><trkpt lat="45.9904858" lon="11.7403079"><ele>507.75</ele><time>2026-04-18T15:18:31.988Z</time></trkpt><trkpt lat="45.9904256" lon="11.7404292"><ele>504.0</ele><time>2026-04-18T15:18:32.998Z</time></trkpt><trkpt lat="45.9903889" lon="11.7405726"><ele>504.0</ele><time>2026-04-18T15:18:33.987Z</time></trkpt><trkpt lat="45.9903677" lon="11.7407174"><ele>504.0</ele><time>2026-04-18T15:18:35Z</time></trkpt><trkpt lat="45.990363" lon="11.7408765"><ele>504.0</ele><time>2026-04-18T15:18:35.993Z</time></trkpt><trkpt lat="45.9903665" lon="11.7410423"><ele>504.0</ele><time>2026-04-18T15:18:36.97Z</time></trkpt><trkpt lat="45.9903677" lon="11.7412043"><ele>504.0</ele><time>2026-04-18T15:18:37.998Z</time></trkpt><trkpt lat="45.9903755" lon="11.7413786"><ele>503.0</ele><time>2026-04-18T15:18:38.996Z</time></trkpt><trkpt lat="45.9903907" lon="11.741597"><ele>502.0</ele><time>2026-04-18T15:18:39.996Z</time></trkpt><trkpt lat="45.990403" lon="11.7418001"><ele>501.0</ele><time>2026-04-18T15:18:41.004Z</time></trkpt><trkpt lat="45.9904017" lon="11.7419792"><ele>500.0</ele><time>2026-04-18T15:18:41.997Z</time></trkpt><trkpt lat="45.9904013" lon="11.7421292"><ele>499.3333333333333</ele><time>2026-04-18T15:18:42.991Z</time></trkpt><trkpt lat="45.9904016" lon="11.7422254"><ele>498.66666666666663</ele><time>2026-04-18T15:18:43.938Z</time></trkpt><trkpt lat="45.990404" lon="11.7423775"><ele>498.0</ele><time>2026-04-18T15:18:45.933Z</time></trkpt><trkpt lat="45.9903678" lon="11.7424556"><ele>497.33333333333337</ele><time>2026-04-18T15:18:47.944Z</time></trkpt><trkpt lat="45.9902875" lon="11.7424772"><ele>496.6666666666667</ele><time>2026-04-18T15:18:49.904Z</time></trkpt><trkpt lat="45.9902126" lon="11.7424796"><ele>496.0</ele><time>2026-04-18T15:18:50.936Z</time></trkpt><trkpt lat="45.9901218" lon="11.7424952"><ele>496.0</ele><time>2026-04-18T15:18:51.935Z</time></trkpt><trkpt lat="45.9900391" lon="11.7425083"><ele>496.0</ele><time>2026-04-18T15:18:52.933Z</time></trkpt><trkpt lat="45.9899446" lon="11.7425149"><ele>496.0</ele><time>2026-04-18T15:18:54.945Z</time></trkpt><trkpt lat="45.989827" lon="11.7425161"><ele>496.0</ele><time>2026-04-18T15:18:56.931Z</time></trkpt><trkpt lat="45.9897451" lon="11.7425337"><ele>496.0</ele><time>2026-04-18T15:18:58.945Z</time></trkpt><trkpt lat="45.9896583" lon="11.7426179"><ele>496.00000000000006</ele><time>2026-04-18T15:19:00.94Z</time></trkpt><trkpt lat="45.9896156" lon="11.7426948"><ele>496.0</ele><time>2026-04-18T15:19:01.929Z</time></trkpt><trkpt lat="45.9895824" lon="11.7427824"><ele>496.0</ele><time>2026-04-18T15:19:02.943Z</time></trkpt><trkpt lat="45.9895608" lon="11.742869"><ele>496.0</ele><time>2026-04-18T15:19:03.939Z</time></trkpt><trkpt lat="45.9895428" lon="11.7430438"><ele>496.00000000000006</ele><time>2026-04-18T15:19:05.942Z</time></trkpt><trkpt lat="45.9895431" lon="11.743151"><ele>496.0</ele><time>2026-04-18T15:19:06.937Z</time></trkpt><trkpt lat="45.9895522" lon="11.7432784"><ele>496.00000000000006</ele><time>2026-04-18T15:19:07.948Z</time></trkpt><trkpt lat="45.9895606" lon="11.7434043"><ele>496.0</ele><time>2026-04-18T15:19:08.9Z</time></trkpt><trkpt lat="45.9895643" lon="11.7435248"><ele>496.0</ele><time>2026-04-18T15:19:09.907Z</time></trkpt><trkpt lat="45.9895719" lon="11.7436523"><ele>496.0</ele><time>2026-04-18T15:19:10.933Z</time></trkpt><trkpt lat="45.9895781" lon="11.743769"><ele>496.00000000000006</ele><time>2026-04-18T15:19:11.961Z</time></trkpt><trkpt lat="45.989579" lon="11.7438848"><ele>496.0</ele><time>2026-04-18T15:19:12.928Z</time></trkpt><trkpt lat="45.9895873" lon="11.7440037"><ele>494.83333333333337</ele><time>2026-04-18T15:19:13.924Z</time></trkpt><trkpt lat="45.9895998" lon="11.7441159"><ele>493.6666666666667</ele><time>2026-04-18T15:19:14.908Z</time></trkpt><trkpt lat="45.9896113" lon="11.7442123"><ele>492.5</ele><time>2026-04-18T15:19:15.922Z</time></trkpt><trkpt lat="45.9896338" lon="11.7443324"><ele>491.33333333333337</ele><time>2026-04-18T15:19:16.94Z</time></trkpt><trkpt lat="45.9896552" lon="11.7444492"><ele>490.1666666666667</ele><time>2026-04-18T15:19:17.94Z</time></trkpt><trkpt lat="45.9896737" lon="11.744564"><ele>489.0</ele><time>2026-04-18T15:19:18.95Z</time></trkpt><trkpt lat="45.9896886" lon="11.744673"><ele>487.6666666666667</ele><time>2026-04-18T15:19:19.94Z</time></trkpt><trkpt lat="45.9897091" lon="11.7448013"><ele>486.33333333333337</ele><time>2026-04-18T15:19:20.947Z</time></trkpt><trkpt lat="45.9897226" lon="11.7449184"><ele>485.0</ele><time>2026-04-18T15:19:21.939Z</time></trkpt><trkpt lat="45.9897401" lon="11.7450304"><ele>483.6666666666667</ele><time>2026-04-18T15:19:22.935Z</time></trkpt><trkpt lat="45.9897578" lon="11.7451254"><ele>482.33333333333337</ele><time>2026-04-18T15:19:23.947Z</time></trkpt><trkpt lat="45.9897832" lon="11.745221"><ele>481.0</ele><time>2026-04-18T15:19:25.95Z</time></trkpt><trkpt lat="45.9898101" lon="11.7453222"><ele>480.0</ele><time>2026-04-18T15:19:27.944Z</time></trkpt><trkpt lat="45.9898575" lon="11.7454127"><ele>479.0</ele><time>2026-04-18T15:19:29.971Z</time></trkpt><trkpt lat="45.9899261" lon="11.7455762"><ele>478.0</ele><time>2026-04-18T15:19:30.911Z</time></trkpt><trkpt lat="45.9899613" lon="11.745704"><ele>477.0</ele><time>2026-04-18T15:19:31.944Z</time></trkpt><trkpt lat="45.9899615" lon="11.7458987"><ele>476.0</ele><time>2026-04-18T15:19:33.94Z</time></trkpt><trkpt lat="45.9899728" lon="11.7460547"><ele>474.8</ele><time>2026-04-18T15:19:34.932Z</time></trkpt><trkpt lat="45.9899849" lon="11.7462083"><ele>473.6</ele><time>2026-04-18T15:19:35.942Z</time></trkpt><trkpt lat="45.9899551" lon="11.7464032"><ele>472.4</ele><time>2026-04-18T15:19:37.989Z</time></trkpt><trkpt lat="45.989901" lon="11.7464898"><ele>471.2</ele><time>2026-04-18T15:19:39.002Z</time></trkpt><trkpt lat="45.9898452" lon="11.7465928"><ele>470.0</ele><time>2026-04-18T15:19:39.98Z</time></trkpt><trkpt lat="45.9897899" lon="11.7466712"><ele>469.99999999999994</ele><time>2026-04-18T15:19:40.98Z</time></trkpt><trkpt lat="45.989738" lon="11.7467371"><ele>470.0</ele><time>2026-04-18T15:19:41.962Z</time></trkpt><trkpt lat="45.9897117" lon="11.746875"><ele>470.0</ele><time>2026-04-18T15:19:43.979Z</time></trkpt><trkpt lat="45.9896627" lon="11.7470025"><ele>470.0</ele><time>2026-04-18T15:19:45.999Z</time></trkpt><trkpt lat="45.9895816" lon="11.7471012"><ele>469.99999999999994</ele><time>2026-04-18T15:19:47.988Z</time></trkpt><trkpt lat="45.9895281" lon="11.7471661"><ele>470.0</ele><time>2026-04-18T15:19:48.983Z</time></trkpt><trkpt lat="45.9894508" lon="11.7472252"><ele>469.99999999999994</ele><time>2026-04-18T15:19:49.99Z</time></trkpt><trkpt lat="45.9893601" lon="11.7472742"><ele>470.0</ele><time>2026-04-18T15:19:50.981Z</time></trkpt><trkpt lat="45.9892873" lon="11.747364"><ele>470.0</ele><time>2026-04-18T15:19:51.998Z</time></trkpt><trkpt lat="45.9892238" lon="11.7474085"><ele>470.0</ele><time>2026-04-18T15:19:53Z</time></trkpt><trkpt lat="45.9891553" lon="11.7474626"><ele>469.99999999999994</ele><time>2026-04-18T15:19:54.002Z</time></trkpt><trkpt lat="45.9890755" lon="11.7475277"><ele>470.0</ele><time>2026-04-18T15:19:55.016Z</time></trkpt><trkpt lat="45.9890019" lon="11.7475779"><ele>469.99999999999994</ele><time>2026-04-18T15:19:55.995Z</time></trkpt><trkpt lat="45.9889227" lon="11.7476169"><ele>470.0</ele><time>2026-04-18T15:19:56.984Z</time></trkpt><trkpt lat="45.9888404" lon="11.7476549"><ele>470.0</ele><time>2026-04-18T15:19:57.989Z</time></trkpt><trkpt lat="45.9887561" lon="11.7476945"><ele>470.0</ele><time>2026-04-18T15:19:58.986Z</time></trkpt><trkpt lat="45.9886807" lon="11.7477343"><ele>469.99999999999994</ele><time>2026-04-18T15:19:59.949Z</time></trkpt><trkpt lat="45.9885915" lon="11.7477885"><ele>470.0</ele><time>2026-04-18T15:20:00.994Z</time></trkpt><trkpt lat="45.9885059" lon="11.7478448"><ele>470.8</ele><time>2026-04-18T15:20:01.979Z</time></trkpt><trkpt lat="45.9884205" lon="11.7479102"><ele>471.6</ele><time>2026-04-18T15:20:02.984Z</time></trkpt><trkpt lat="45.9883338" lon="11.7479684"><ele>472.4</ele><time>2026-04-18T15:20:03.991Z</time></trkpt><trkpt lat="45.9882511" lon="11.7480384"><ele>473.2</ele><time>2026-04-18T15:20:04.974Z</time></trkpt><trkpt lat="45.9881655" lon="11.7481018"><ele>474.0</ele><time>2026-04-18T15:20:05.996Z</time></trkpt><trkpt lat="45.988105" lon="11.7481563"><ele>471.6</ele><time>2026-04-18T15:20:07.013Z</time></trkpt><trkpt lat="45.988009" lon="11.7482539"><ele>469.2</ele><time>2026-04-18T15:20:08.973Z</time></trkpt><trkpt lat="45.9878788" lon="11.7483611"><ele>466.80000000000007</ele><time>2026-04-18T15:20:10.997Z</time></trkpt><trkpt lat="45.9878193" lon="11.748428"><ele>464.40000000000003</ele><time>2026-04-18T15:20:11.99Z</time></trkpt><trkpt lat="45.9877683" lon="11.7485028"><ele>462.0</ele><time>2026-04-18T15:20:14.007Z</time></trkpt><trkpt lat="45.9877201" lon="11.7486427"><ele>460.0</ele><time>2026-04-18T15:20:15.988Z</time></trkpt><trkpt lat="45.9876974" lon="11.7487382"><ele>458.00000000000006</ele><time>2026-04-18T15:20:17Z</time></trkpt><trkpt lat="45.9876571" lon="11.7488355"><ele>456.00000000000006</ele><time>2026-04-18T15:20:17.999Z</time></trkpt><trkpt lat="45.9875872" lon="11.7489753"><ele>454.0</ele><time>2026-04-18T15:20:20.008Z</time></trkpt><trkpt lat="45.9875455" lon="11.74906"><ele>452.0</ele><time>2026-04-18T15:20:21.02Z</time></trkpt><trkpt lat="45.9874943" lon="11.7492115"><ele>450.49999999999994</ele><time>2026-04-18T15:20:22.964Z</time></trkpt><trkpt lat="45.9874405" lon="11.7493509"><ele>449.0</ele><time>2026-04-18T15:20:24.99Z</time></trkpt><trkpt lat="45.9874049" lon="11.7494526"><ele>447.5</ele><time>2026-04-18T15:20:31.987Z</time></trkpt><trkpt lat="45.9873407" lon="11.7495149"><ele>446.0</ele><time>2026-04-18T15:20:33.945Z</time></trkpt><trkpt lat="45.9872715" lon="11.7495381"><ele>444.49999999999994</ele><time>2026-04-18T15:20:35.942Z</time></trkpt><trkpt lat="45.9871783" lon="11.7495372"><ele>443.0</ele><time>2026-04-18T15:20:36.945Z</time></trkpt><trkpt lat="45.9870583" lon="11.7495343"><ele>440.59999999999997</ele><time>2026-04-18T15:20:37.952Z</time></trkpt><trkpt lat="45.9869442" lon="11.7495453"><ele>438.19999999999993</ele><time>2026-04-18T15:20:38.938Z</time></trkpt><trkpt lat="45.9868732" lon="11.7495469"><ele>435.8</ele><time>2026-04-18T15:20:39.929Z</time></trkpt><trkpt lat="45.9867842" lon="11.7495576"><ele>433.4</ele><time>2026-04-18T15:20:40.945Z</time></trkpt><trkpt lat="45.9866956" lon="11.7495391"><ele>431.0</ele><time>2026-04-18T15:20:41.938Z</time></trkpt><trkpt lat="45.9866095" lon="11.7495347"><ele>430.99999999999994</ele><time>2026-04-18T15:20:42.952Z</time></trkpt><trkpt lat="45.9865388" lon="11.749541"><ele>431.0</ele><time>2026-04-18T15:20:43.921Z</time></trkpt><trkpt lat="45.9864669" lon="11.7495661"><ele>431.0</ele><time>2026-04-18T15:20:44.904Z</time></trkpt><trkpt lat="45.9863943" lon="11.7496354"><ele>431.0</ele><time>2026-04-18T15:20:46.957Z</time></trkpt><trkpt lat="45.9863465" lon="11.749701"><ele>430.99999999999994</ele><time>2026-04-18T15:20:48.958Z</time></trkpt><trkpt lat="45.986298" lon="11.7497871"><ele>431.0</ele><time>2026-04-18T15:20:52.952Z</time></trkpt><trkpt lat="45.9862202" lon="11.7498478"><ele>430.99999999999994</ele><time>2026-04-18T15:20:58.941Z</time></trkpt><trkpt lat="45.9861553" lon="11.7498505"><ele>431.0</ele><time>2026-04-18T15:20:59.891Z</time></trkpt><trkpt lat="45.9860717" lon="11.749853"><ele>431.0</ele><time>2026-04-18T15:21:00.919Z</time></trkpt><trkpt lat="45.9859695" lon="11.7498564"><ele>431.0</ele><time>2026-04-18T15:21:01.931Z</time></trkpt><trkpt lat="45.9859015" lon="11.74986"><ele>430.99999999999994</ele><time>2026-04-18T15:21:02.935Z</time></trkpt><trkpt lat="45.9858148" lon="11.7498684"><ele>431.0</ele><time>2026-04-18T15:21:04.932Z</time></trkpt><trkpt lat="45.9857179" lon="11.749839"><ele>429.16666666666663</ele><time>2026-04-18T15:21:06.935Z</time></trkpt><trkpt lat="45.9856515" lon="11.7498054"><ele>427.3333333333333</ele><time>2026-04-18T15:21:07.902Z</time></trkpt><trkpt lat="45.9855709" lon="11.7497548"><ele>425.5</ele><time>2026-04-18T15:21:08.935Z</time></trkpt><trkpt lat="45.9855015" lon="11.7496985"><ele>423.66666666666663</ele><time>2026-04-18T15:21:09.894Z</time></trkpt><trkpt lat="45.9854395" lon="11.7496267"><ele>421.8333333333333</ele><time>2026-04-18T15:21:10.915Z</time></trkpt><trkpt lat="45.985383" lon="11.7495085"><ele>420.0</ele><time>2026-04-18T15:21:11.901Z</time></trkpt><trkpt lat="45.9853265" lon="11.7493914"><ele>420.4</ele><time>2026-04-18T15:21:12.941Z</time></trkpt><trkpt lat="45.9852874" lon="11.7492827"><ele>420.8</ele><time>2026-04-18T15:21:13.944Z</time></trkpt><trkpt lat="45.9852535" lon="11.7491759"><ele>421.20000000000005</ele><time>2026-04-18T15:21:14.939Z</time></trkpt><trkpt lat="45.9852602" lon="11.7490147"><ele>421.6</ele><time>2026-04-18T15:21:16.948Z</time></trkpt><trkpt lat="45.9852778" lon="11.7488563"><ele>422.0</ele><time>2026-04-18T15:21:18.953Z</time></trkpt><trkpt lat="45.9852293" lon="11.7487807"><ele>422.0</ele><time>2026-04-18T15:21:20.95Z</time></trkpt><trkpt lat="45.9851503" lon="11.7488048"><ele>422.0</ele><time>2026-04-18T15:21:22.941Z</time></trkpt><trkpt lat="45.9850543" lon="11.7488522"><ele>422.0</ele><time>2026-04-18T15:21:23.951Z</time></trkpt><trkpt lat="45.9849607" lon="11.7489145"><ele>422.0</ele><time>2026-04-18T15:21:24.925Z</time></trkpt><trkpt lat="45.9848672" lon="11.7489881"><ele>422.0</ele><time>2026-04-18T15:21:25.922Z</time></trkpt><trkpt lat="45.9847872" lon="11.7490789"><ele>417.40000000000003</ele><time>2026-04-18T15:21:26.946Z</time></trkpt><trkpt lat="45.9847211" lon="11.7491632"><ele>412.8</ele><time>2026-04-18T15:21:27.945Z</time></trkpt><trkpt lat="45.9846663" lon="11.7492372"><ele>408.2</ele><time>2026-04-18T15:21:28.941Z</time></trkpt><trkpt lat="45.9845779" lon="11.7493516"><ele>403.6</ele><time>2026-04-18T15:21:30.946Z</time></trkpt><trkpt lat="45.984519" lon="11.7494052"><ele>399.0</ele><time>2026-04-18T15:21:32.917Z</time></trkpt><trkpt lat="45.9844366" lon="11.7493182"><ele>399.0</ele><time>2026-04-18T15:21:35.939Z</time></trkpt><trkpt lat="45.9843502" lon="11.749207"><ele>399.0</ele><time>2026-04-18T15:21:37.913Z</time></trkpt><trkpt lat="45.9843017" lon="11.7490954"><ele>399.0</ele><time>2026-04-18T15:21:39.949Z</time></trkpt><trkpt lat="45.9842045" lon="11.7489388"><ele>399.0</ele><time>2026-04-18T15:21:41.939Z</time></trkpt><trkpt lat="45.9841433" lon="11.7489048"><ele>399.0</ele><time>2026-04-18T15:21:42.932Z</time></trkpt><trkpt lat="45.9840737" lon="11.7488895"><ele>395.1666666666667</ele><time>2026-04-18T15:21:43.937Z</time></trkpt><trkpt lat="45.9840019" lon="11.7488842"><ele>391.3333333333333</ele><time>2026-04-18T15:21:44.94Z</time></trkpt><trkpt lat="45.9839273" lon="11.7488904"><ele>387.5</ele><time>2026-04-18T15:21:45.939Z</time></trkpt><trkpt lat="45.9838456" lon="11.7489081"><ele>383.66666666666663</ele><time>2026-04-18T15:21:46.941Z</time></trkpt><trkpt lat="45.9837646" lon="11.7489366"><ele>379.8333333333333</ele><time>2026-04-18T15:21:47.936Z</time></trkpt><trkpt lat="45.9836799" lon="11.7489814"><ele>376.0</ele><time>2026-04-18T15:21:48.942Z</time></trkpt><trkpt lat="45.983598" lon="11.7490369"><ele>376.0</ele><time>2026-04-18T15:21:49.935Z</time></trkpt><trkpt lat="45.9835183" lon="11.7490865"><ele>376.0</ele><time>2026-04-18T15:21:50.907Z</time></trkpt><trkpt lat="45.9834439" lon="11.7491307"><ele>376.0</ele><time>2026-04-18T15:21:51.943Z</time></trkpt><trkpt lat="45.9833802" lon="11.7491753"><ele>376.0</ele><time>2026-04-18T15:21:52.95Z</time></trkpt><trkpt lat="45.9832902" lon="11.7493066"><ele>376.0</ele><time>2026-04-18T15:21:54.946Z</time></trkpt><trkpt lat="45.9832327" lon="11.7493804"><ele>376.0</ele><time>2026-04-18T15:21:55.945Z</time></trkpt><trkpt lat="45.98317" lon="11.7494491"><ele>373.8</ele><time>2026-04-18T15:21:56.958Z</time></trkpt><trkpt lat="45.9831108" lon="11.7494897"><ele>371.6</ele><time>2026-04-18T15:21:57.954Z</time></trkpt><trkpt lat="45.9830358" lon="11.7495404"><ele>369.4</ele><time>2026-04-18T15:21:58.937Z</time></trkpt><trkpt lat="45.9829214" lon="11.7495259"><ele>367.2</ele><time>2026-04-18T15:22:00.95Z</time></trkpt><trkpt lat="45.9828078" lon="11.7495003"><ele>365.0</ele><time>2026-04-18T15:22:02.93Z</time></trkpt><trkpt lat="45.9827384" lon="11.749473"><ele>365.0</ele><time>2026-04-18T15:22:04.92Z</time></trkpt><trkpt lat="45.9826647" lon="11.7494164"><ele>365.0</ele><time>2026-04-18T15:22:07.948Z</time></trkpt><trkpt lat="45.9826514" lon="11.7492996"><ele>365.0</ele><time>2026-04-18T15:22:10.942Z</time></trkpt><trkpt lat="45.9826716" lon="11.7491817"><ele>365.0</ele><time>2026-04-18T15:22:12.947Z</time></trkpt><trkpt lat="45.982704" lon="11.7490818"><ele>365.0</ele><time>2026-04-18T15:22:13.936Z</time></trkpt><trkpt lat="45.9827325" lon="11.7489783"><ele>365.0</ele><time>2026-04-18T15:22:15.941Z</time></trkpt><trkpt lat="45.9827319" lon="11.7488715"><ele>364.5</ele><time>2026-04-18T15:22:18.931Z</time></trkpt><trkpt lat="45.982695" lon="11.7487634"><ele>364.0</ele><time>2026-04-18T15:22:20.939Z</time></trkpt><trkpt lat="45.982626" lon="11.7487202"><ele>363.5</ele><time>2026-04-18T15:22:23.945Z</time></trkpt><trkpt lat="45.9825913" lon="11.7486263"><ele>363.0</ele><time>2026-04-18T15:22:25.94Z</time></trkpt><trkpt lat="45.9825747" lon="11.7485382"><ele>362.5</ele><time>2026-04-18T15:22:26.936Z</time></trkpt><trkpt lat="45.9825447" lon="11.7484145"><ele>362.0</ele><time>2026-04-18T15:22:27.944Z</time></trkpt><trkpt lat="45.9825127" lon="11.7482948"><ele>357.0</ele><time>2026-04-18T15:22:28.94Z</time></trkpt><trkpt lat="45.9824779" lon="11.7482115"><ele>352.0</ele><time>2026-04-18T15:22:29.905Z</time></trkpt><trkpt lat="45.9824389" lon="11.7481083"><ele>347.0</ele><time>2026-04-18T15:22:30.907Z</time></trkpt><trkpt lat="45.9824663" lon="11.7479539"><ele>342.0</ele><time>2026-04-18T15:22:33.944Z</time></trkpt><trkpt lat="45.9824767" lon="11.7478616"><ele>337.0</ele><time>2026-04-18T15:22:34.945Z</time></trkpt><trkpt lat="45.9825069" lon="11.7477014"><ele>332.0</ele><time>2026-04-18T15:22:36.939Z</time></trkpt><trkpt lat="45.9825232" lon="11.7475157"><ele>331.1428571428571</ele><time>2026-04-18T15:22:38.907Z</time></trkpt><trkpt lat="45.9825395" lon="11.7474103"><ele>330.28571428571433</ele><time>2026-04-18T15:22:39.946Z</time></trkpt><trkpt lat="45.9825539" lon="11.7473095"><ele>329.42857142857144</ele><time>2026-04-18T15:22:40.938Z</time></trkpt><trkpt lat="45.9825581" lon="11.7472069"><ele>328.57142857142856</ele><time>2026-04-18T15:22:41.942Z</time></trkpt><trkpt lat="45.982554" lon="11.7471095"><ele>327.71428571428567</ele><time>2026-04-18T15:22:42.941Z</time></trkpt><trkpt lat="45.9825495" lon="11.7469977"><ele>326.8571428571429</ele><time>2026-04-18T15:22:43.946Z</time></trkpt><trkpt lat="45.9825447" lon="11.7468842"><ele>326.0</ele><time>2026-04-18T15:22:44.947Z</time></trkpt><trkpt lat="45.9825353" lon="11.7467596"><ele>326.0</ele><time>2026-04-18T15:22:45.94Z</time></trkpt><trkpt lat="45.9825318" lon="11.7466345"><ele>326.0</ele><time>2026-04-18T15:22:46.956Z</time></trkpt><trkpt lat="45.9825341" lon="11.7465356"><ele>326.0</ele><time>2026-04-18T15:22:47.904Z</time></trkpt><trkpt lat="45.982542" lon="11.7464337"><ele>326.0</ele><time>2026-04-18T15:22:48.927Z</time></trkpt><trkpt lat="45.9825614" lon="11.746324"><ele>326.0</ele><time>2026-04-18T15:22:49.909Z</time></trkpt><trkpt lat="45.9825917" lon="11.7462064"><ele>326.0</ele><time>2026-04-18T15:22:50.932Z</time></trkpt><trkpt lat="45.9826183" lon="11.746081"><ele>326.33333333333337</ele><time>2026-04-18T15:22:51.94Z</time></trkpt><trkpt lat="45.9826488" lon="11.745975"><ele>326.6666666666667</ele><time>2026-04-18T15:22:52.929Z</time></trkpt><trkpt lat="45.9826925" lon="11.7458576"><ele>327.0</ele><time>2026-04-18T15:22:53.95Z</time></trkpt><trkpt lat="45.9827287" lon="11.7457398"><ele>327.3333333333333</ele><time>2026-04-18T15:22:54.94Z</time></trkpt><trkpt lat="45.9827666" lon="11.745628"><ele>327.66666666666663</ele><time>2026-04-18T15:22:55.95Z</time></trkpt><trkpt lat="45.9828006" lon="11.7455278"><ele>328.0</ele><time>2026-04-18T15:22:56.96Z</time></trkpt><trkpt lat="45.9828398" lon="11.7454332"><ele>328.0</ele><time>2026-04-18T15:22:57.96Z</time></trkpt><trkpt lat="45.9828846" lon="11.7453308"><ele>328.0</ele><time>2026-04-18T15:22:58.948Z</time></trkpt><trkpt lat="45.9829348" lon="11.7452273"><ele>328.0</ele><time>2026-04-18T15:22:59.946Z</time></trkpt><trkpt lat="45.9829836" lon="11.7451251"><ele>328.0</ele><time>2026-04-18T15:23:00.945Z</time></trkpt><trkpt lat="45.9830283" lon="11.7450339"><ele>328.0</ele><time>2026-04-18T15:23:01.933Z</time></trkpt><trkpt lat="45.9830903" lon="11.7448712"><ele>329.0</ele><time>2026-04-18T15:23:03.931Z</time></trkpt><trkpt lat="45.9831261" lon="11.7447203"><ele>330.0</ele><time>2026-04-18T15:23:05.955Z</time></trkpt><trkpt lat="45.9831616" lon="11.7446316"><ele>331.0</ele><time>2026-04-18T15:23:06.954Z</time></trkpt><trkpt lat="45.9831901" lon="11.7445315"><ele>332.0</ele><time>2026-04-18T15:23:07.958Z</time></trkpt><trkpt lat="45.983213" lon="11.7444251"><ele>333.0</ele><time>2026-04-18T15:23:08.957Z</time></trkpt><trkpt lat="45.9832281" lon="11.7443174"><ele>334.0</ele><time>2026-04-18T15:23:09.944Z</time></trkpt><trkpt lat="45.9832455" lon="11.744215"><ele>333.66666666666663</ele><time>2026-04-18T15:23:10.939Z</time></trkpt><trkpt lat="45.9832737" lon="11.7441077"><ele>333.3333333333333</ele><time>2026-04-18T15:23:11.941Z</time></trkpt><trkpt lat="45.9833122" lon="11.7439994"><ele>333.0</ele><time>2026-04-18T15:23:12.947Z</time></trkpt><trkpt lat="45.9833642" lon="11.7438819"><ele>332.6666666666667</ele><time>2026-04-18T15:23:13.936Z</time></trkpt><trkpt lat="45.9834151" lon="11.7437637"><ele>332.33333333333337</ele><time>2026-04-18T15:23:14.96Z</time></trkpt><trkpt lat="45.9834527" lon="11.7436801"><ele>332.0</ele><time>2026-04-18T15:23:15.955Z</time></trkpt><trkpt lat="45.98349" lon="11.7435867"><ele>333.5</ele><time>2026-04-18T15:23:16.956Z</time></trkpt><trkpt lat="45.9835226" lon="11.7434917"><ele>335.0</ele><time>2026-04-18T15:23:17.943Z</time></trkpt><trkpt lat="45.9835565" lon="11.7433923"><ele>336.5</ele><time>2026-04-18T15:23:18.962Z</time></trkpt><trkpt lat="45.9835848" lon="11.7432918"><ele>338.0</ele><time>2026-04-18T15:23:19.948Z</time></trkpt><trkpt lat="45.9836203" lon="11.7431861"><ele>339.5</ele><time>2026-04-18T15:23:20.962Z</time></trkpt><trkpt lat="45.9836532" lon="11.7430861"><ele>341.0</ele><time>2026-04-18T15:23:21.95Z</time></trkpt><trkpt lat="45.9836861" lon="11.7429696"><ele>341.0</ele><time>2026-04-18T15:23:22.94Z</time></trkpt><trkpt lat="45.9837099" lon="11.7428404"><ele>341.0</ele><time>2026-04-18T15:23:23.929Z</time></trkpt><trkpt lat="45.9837359" lon="11.7427025"><ele>341.0</ele><time>2026-04-18T15:23:24.949Z</time></trkpt><trkpt lat="45.9837639" lon="11.7425639"><ele>341.0</ele><time>2026-04-18T15:23:25.943Z</time></trkpt><trkpt lat="45.983794" lon="11.7424423"><ele>341.0</ele><time>2026-04-18T15:23:26.939Z</time></trkpt><trkpt lat="45.9838171" lon="11.7423097"><ele>342.83333333333337</ele><time>2026-04-18T15:23:27.942Z</time></trkpt><trkpt lat="45.9838254" lon="11.7421607"><ele>344.6666666666667</ele><time>2026-04-18T15:23:28.952Z</time></trkpt><trkpt lat="45.9838278" lon="11.7420191"><ele>346.5</ele><time>2026-04-18T15:23:29.958Z</time></trkpt><trkpt lat="45.9838364" lon="11.7418996"><ele>348.3333333333333</ele><time>2026-04-18T15:23:30.935Z</time></trkpt><trkpt lat="45.9838596" lon="11.7418151"><ele>350.16666666666663</ele><time>2026-04-18T15:23:31.948Z</time></trkpt><trkpt lat="45.9839055" lon="11.7417059"><ele>352.0</ele><time>2026-04-18T15:23:33.955Z</time></trkpt><trkpt lat="45.9839228" lon="11.7415821"><ele>354.6</ele><time>2026-04-18T15:23:35.906Z</time></trkpt><trkpt lat="45.9839249" lon="11.7414632"><ele>357.20000000000005</ele><time>2026-04-18T15:23:36.944Z</time></trkpt><trkpt lat="45.9839304" lon="11.7413223"><ele>359.8</ele><time>2026-04-18T15:23:37.922Z</time></trkpt><trkpt lat="45.983925" lon="11.7411701"><ele>362.4</ele><time>2026-04-18T15:23:38.943Z</time></trkpt><trkpt lat="45.9838913" lon="11.7410428"><ele>365.0</ele><time>2026-04-18T15:23:39.956Z</time></trkpt><trkpt lat="45.9837965" lon="11.740989"><ele>368.2</ele><time>2026-04-18T15:23:41.945Z</time></trkpt><trkpt lat="45.9836843" lon="11.7409487"><ele>371.4</ele><time>2026-04-18T15:23:43.911Z</time></trkpt><trkpt lat="45.9835766" lon="11.7409269"><ele>374.6</ele><time>2026-04-18T15:23:45.95Z</time></trkpt><trkpt lat="45.9836086" lon="11.7408167"><ele>377.8</ele><time>2026-04-18T15:23:50.939Z</time></trkpt><trkpt lat="45.9836598" lon="11.7407222"><ele>381.0</ele><time>2026-04-18T15:23:52.955Z</time></trkpt><trkpt lat="45.9836758" lon="11.7406126"><ele>381.0</ele><time>2026-04-18T15:23:54.951Z</time></trkpt><trkpt lat="45.9837057" lon="11.7404338"><ele>381.0</ele><time>2026-04-18T15:23:56.953Z</time></trkpt><trkpt lat="45.983728" lon="11.7403053"><ele>381.0</ele><time>2026-04-18T15:23:57.95Z</time></trkpt><trkpt lat="45.9837517" lon="11.7401275"><ele>381.0</ele><time>2026-04-18T15:23:58.95Z</time></trkpt><trkpt lat="45.9837601" lon="11.7399897"><ele>381.0</ele><time>2026-04-18T15:23:59.922Z</time></trkpt><trkpt lat="45.9837389" lon="11.7398455"><ele>383.4</ele><time>2026-04-18T15:24:01.947Z</time></trkpt><trkpt lat="45.9836779" lon="11.7397831"><ele>385.8</ele><time>2026-04-18T15:24:10.935Z</time></trkpt><trkpt lat="45.9836609" lon="11.7396708"><ele>388.2</ele><time>2026-04-18T15:24:13.944Z</time></trkpt><trkpt lat="45.9836284" lon="11.7395447"><ele>390.59999999999997</ele><time>2026-04-18T15:24:17.928Z</time></trkpt><trkpt lat="45.9835837" lon="11.7394564"><ele>393.0</ele><time>2026-04-18T15:24:20.946Z</time></trkpt><trkpt lat="45.983507" lon="11.7393106"><ele>396.59999999999997</ele><time>2026-04-18T15:24:22.944Z</time></trkpt><trkpt lat="45.9834233" lon="11.73916"><ele>400.2</ele><time>2026-04-18T15:24:23.939Z</time></trkpt><trkpt lat="45.9833635" lon="11.739071"><ele>403.8</ele><time>2026-04-18T15:24:24.943Z</time></trkpt><trkpt lat="45.9833131" lon="11.73899"><ele>407.4</ele><time>2026-04-18T15:24:25.936Z</time></trkpt><trkpt lat="45.9831947" lon="11.7389017"><ele>411.0</ele><time>2026-04-18T15:24:27.954Z</time></trkpt><trkpt lat="45.9831236" lon="11.7388123"><ele>416.4</ele><time>2026-04-18T15:24:29.945Z</time></trkpt><trkpt lat="45.9830089" lon="11.7388064"><ele>421.8</ele><time>2026-04-18T15:24:31.94Z</time></trkpt><trkpt lat="45.9828985" lon="11.7388049"><ele>427.19999999999993</ele><time>2026-04-18T15:24:33.941Z</time></trkpt><trkpt lat="45.9827814" lon="11.7387749"><ele>432.59999999999997</ele><time>2026-04-18T15:24:35.932Z</time></trkpt><trkpt lat="45.9827461" lon="11.7386892"><ele>438.0</ele><time>2026-04-18T15:24:37.945Z</time></trkpt><trkpt lat="45.982709" lon="11.7385819"><ele>439.1666666666667</ele><time>2026-04-18T15:24:39.953Z</time></trkpt><trkpt lat="45.982661" lon="11.7384276"><ele>440.33333333333337</ele><time>2026-04-18T15:24:41.974Z</time></trkpt><trkpt lat="45.9826579" lon="11.7383231"><ele>441.5</ele><time>2026-04-18T15:24:45.947Z</time></trkpt><trkpt lat="45.9826554" lon="11.7381917"><ele>442.6666666666667</ele><time>2026-04-18T15:24:48.939Z</time></trkpt><trkpt lat="45.9826721" lon="11.738078"><ele>443.83333333333337</ele><time>2026-04-18T15:24:50.933Z</time></trkpt><trkpt lat="45.9827199" lon="11.7380145"><ele>445.0</ele><time>2026-04-18T15:24:52.942Z</time></trkpt><trkpt lat="45.9827651" lon="11.7381097"><ele>445.0</ele><time>2026-04-18T15:24:54.916Z</time></trkpt><trkpt lat="45.9827725" lon="11.7382005"><ele>445.0</ele><time>2026-04-18T15:24:55.937Z</time></trkpt><trkpt lat="45.9827752" lon="11.7382951"><ele>445.0</ele><time>2026-04-18T15:24:56.942Z</time></trkpt><trkpt lat="45.9827758" lon="11.7383927"><ele>445.0</ele><time>2026-04-18T15:24:57.965Z</time></trkpt><trkpt lat="45.9827789" lon="11.7384838"><ele>445.0</ele><time>2026-04-18T15:24:58.946Z</time></trkpt><trkpt lat="45.9827745" lon="11.7386281"><ele>445.0</ele><time>2026-04-18T15:25:00.953Z</time></trkpt><trkpt lat="45.9827849" lon="11.7387183"><ele>445.0</ele><time>2026-04-18T15:25:06.936Z</time></trkpt><trkpt lat="45.9827977" lon="11.738543"><ele>445.00000000000006</ele><time>2026-04-18T15:25:51.938Z</time></trkpt><trkpt lat="45.9828064" lon="11.7384498"><ele>445.0</ele><time>2026-04-18T15:25:52.955Z</time></trkpt><trkpt lat="45.9828123" lon="11.738338"><ele>445.0</ele><time>2026-04-18T15:25:53.944Z</time></trkpt><trkpt lat="45.9828013" lon="11.7382133"><ele>445.0</ele><time>2026-04-18T15:25:54.937Z</time></trkpt><trkpt lat="45.9827732" lon="11.7381032"><ele>445.00000000000006</ele><time>2026-04-18T15:25:55.97Z</time></trkpt><trkpt lat="45.9827395" lon="11.7379678"><ele>445.0</ele><time>2026-04-18T15:25:57.95Z</time></trkpt><trkpt lat="45.9827367" lon="11.7378685"><ele>445.0</ele><time>2026-04-18T15:25:58.943Z</time></trkpt><trkpt lat="45.9827146" lon="11.7377519"><ele>445.0</ele><time>2026-04-18T15:26:00.94Z</time></trkpt><trkpt lat="45.9826682" lon="11.7376024"><ele>445.0</ele><time>2026-04-18T15:26:02.936Z</time></trkpt><trkpt lat="45.9826455" lon="11.7375116"><ele>445.0</ele><time>2026-04-18T15:26:03.939Z</time></trkpt><trkpt lat="45.982605" lon="11.7374027"><ele>445.0</ele><time>2026-04-18T15:26:05.934Z</time></trkpt><trkpt lat="45.9826437" lon="11.7372474"><ele>447.8</ele><time>2026-04-18T15:26:07.95Z</time></trkpt><trkpt lat="45.9826694" lon="11.7371621"><ele>450.6</ele><time>2026-04-18T15:26:08.945Z</time></trkpt><trkpt lat="45.9827113" lon="11.7369654"><ele>453.4</ele><time>2026-04-18T15:26:12.005Z</time></trkpt><trkpt lat="45.9827165" lon="11.7368503"><ele>456.2</ele><time>2026-04-18T15:26:13.999Z</time></trkpt><trkpt lat="45.9826863" lon="11.7367271"><ele>459.0</ele><time>2026-04-18T15:26:17.01Z</time></trkpt><trkpt lat="45.982705" lon="11.7366279"><ele>462.6</ele><time>2026-04-18T15:26:18.962Z</time></trkpt><trkpt lat="45.9826523" lon="11.7365775"><ele>466.2</ele><time>2026-04-18T15:26:20.999Z</time></trkpt><trkpt lat="45.9827096" lon="11.73646"><ele>469.80000000000007</ele><time>2026-04-18T15:26:26.008Z</time></trkpt><trkpt lat="45.9827791" lon="11.7363282"><ele>473.40000000000003</ele><time>2026-04-18T15:26:28.003Z</time></trkpt><trkpt lat="45.9828196" lon="11.7362322"><ele>477.0</ele><time>2026-04-18T15:26:29.99Z</time></trkpt><trkpt lat="45.9828719" lon="11.7361077"><ele>480.0</ele><time>2026-04-18T15:26:32.012Z</time></trkpt><trkpt lat="45.9829464" lon="11.7360021"><ele>483.00000000000006</ele><time>2026-04-18T15:26:33.992Z</time></trkpt><trkpt lat="45.9830476" lon="11.7359327"><ele>486.00000000000006</ele><time>2026-04-18T15:26:35.999Z</time></trkpt><trkpt lat="45.9831189" lon="11.7359082"><ele>489.0</ele><time>2026-04-18T15:26:38.004Z</time></trkpt><trkpt lat="45.9830745" lon="11.735824"><ele>492.0</ele><time>2026-04-18T15:26:42.002Z</time></trkpt><trkpt lat="45.9830995" lon="11.7356601"><ele>492.0</ele><time>2026-04-18T15:26:46.01Z</time></trkpt><trkpt lat="45.9831059" lon="11.7355219"><ele>492.0</ele><time>2026-04-18T15:26:47.998Z</time></trkpt><trkpt lat="45.9831403" lon="11.7354086"><ele>492.0</ele><time>2026-04-18T15:26:50.991Z</time></trkpt><trkpt lat="45.9831658" lon="11.7352821"><ele>492.0</ele><time>2026-04-18T15:26:53.001Z</time></trkpt><trkpt lat="45.98315" lon="11.7351695"><ele>492.0</ele><time>2026-04-18T15:26:54.995Z</time></trkpt><trkpt lat="45.9831819" lon="11.7350493"><ele>492.0</ele><time>2026-04-18T15:26:56.999Z</time></trkpt><trkpt lat="45.9831923" lon="11.7349005"><ele>494.3333333333333</ele><time>2026-04-18T15:26:59.017Z</time></trkpt><trkpt lat="45.9831966" lon="11.7347517"><ele>496.66666666666663</ele><time>2026-04-18T15:27:01.027Z</time></trkpt><trkpt lat="45.9831333" lon="11.7347236"><ele>499.0</ele><time>2026-04-18T15:27:03.02Z</time></trkpt><trkpt lat="45.9830709" lon="11.7347832"><ele>501.3333333333333</ele><time>2026-04-18T15:27:06.013Z</time></trkpt><trkpt lat="45.9830451" lon="11.7348741"><ele>503.66666666666663</ele><time>2026-04-18T15:27:08.993Z</time></trkpt><trkpt lat="45.9830717" lon="11.734968"><ele>506.0</ele><time>2026-04-18T15:27:11.02Z</time></trkpt><trkpt lat="45.9831195" lon="11.7348651"><ele>505.99999999999994</ele><time>2026-04-18T15:27:22.001Z</time></trkpt><trkpt lat="45.9831293" lon="11.7347678"><ele>506.0</ele><time>2026-04-18T15:27:22.992Z</time></trkpt><trkpt lat="45.9831611" lon="11.7346338"><ele>506.0</ele><time>2026-04-18T15:27:23.993Z</time></trkpt><trkpt lat="45.9831624" lon="11.7345136"><ele>506.0</ele><time>2026-04-18T15:27:24.991Z</time></trkpt><trkpt lat="45.9831689" lon="11.7343641"><ele>505.99999999999994</ele><time>2026-04-18T15:27:25.969Z</time></trkpt><trkpt lat="45.9831556" lon="11.7342494"><ele>506.0</ele><time>2026-04-18T15:27:27Z</time></trkpt><trkpt lat="45.9831522" lon="11.7341322"><ele>508.3333333333333</ele><time>2026-04-18T15:27:27.988Z</time></trkpt><trkpt lat="45.9831036" lon="11.7340498"><ele>510.66666666666663</ele><time>2026-04-18T15:27:28.989Z</time></trkpt><trkpt lat="45.9830553" lon="11.7339344"><ele>513.0</ele><time>2026-04-18T15:27:30.022Z</time></trkpt><trkpt lat="45.983" lon="11.7338466"><ele>515.3333333333334</ele><time>2026-04-18T15:27:30.991Z</time></trkpt><trkpt lat="45.9829549" lon="11.7337388"><ele>517.6666666666667</ele><time>2026-04-18T15:27:31.997Z</time></trkpt><trkpt lat="45.9829173" lon="11.7336354"><ele>520.0</ele><time>2026-04-18T15:27:33.002Z</time></trkpt><trkpt lat="45.9829052" lon="11.7334796"><ele>521.0</ele><time>2026-04-18T15:27:34.014Z</time></trkpt><trkpt lat="45.9829179" lon="11.7333438"><ele>522.0</ele><time>2026-04-18T15:27:34.984Z</time></trkpt><trkpt lat="45.9828954" lon="11.7332502"><ele>523.0</ele><time>2026-04-18T15:27:35.99Z</time></trkpt><trkpt lat="45.9828542" lon="11.7331551"><ele>524.0</ele><time>2026-04-18T15:27:36.981Z</time></trkpt><trkpt lat="45.9827993" lon="11.7331073"><ele>525.0</ele><time>2026-04-18T15:27:37.984Z</time></trkpt><trkpt lat="45.9827077" lon="11.733047"><ele>526.0</ele><time>2026-04-18T15:27:39.019Z</time></trkpt><trkpt lat="45.9826613" lon="11.732965"><ele>526.0</ele><time>2026-04-18T15:27:40.002Z</time></trkpt><trkpt lat="45.9825854" lon="11.7328016"><ele>526.0</ele><time>2026-04-18T15:27:42.001Z</time></trkpt><trkpt lat="45.9825538" lon="11.7326988"><ele>526.0</ele><time>2026-04-18T15:27:42.999Z</time></trkpt><trkpt lat="45.9825084" lon="11.7326307"><ele>526.0</ele><time>2026-04-18T15:27:44.014Z</time></trkpt><trkpt lat="45.9823502" lon="11.7326862"><ele>526.0</ele><time>2026-04-18T15:27:46.001Z</time></trkpt><trkpt lat="45.9822172" lon="11.7327647"><ele>530.5</ele><time>2026-04-18T15:27:46.994Z</time></trkpt><trkpt lat="45.9820895" lon="11.7328302"><ele>535.0</ele><time>2026-04-18T15:27:47.99Z</time></trkpt><trkpt lat="45.9819776" lon="11.732981"><ele>539.5</ele><time>2026-04-18T15:27:50.01Z</time></trkpt><trkpt lat="45.9820009" lon="11.7330773"><ele>544.0</ele><time>2026-04-18T15:28:00.994Z</time></trkpt><trkpt lat="45.98208" lon="11.7331408"><ele>544.0</ele><time>2026-04-18T15:28:08.012Z</time></trkpt><trkpt lat="45.9821214" lon="11.7330032"><ele>544.0</ele><time>2026-04-18T15:28:11.004Z</time></trkpt><trkpt lat="45.9821535" lon="11.7329186"><ele>544.0</ele><time>2026-04-18T15:28:11.99Z</time></trkpt><trkpt lat="45.9821826" lon="11.732815"><ele>544.0</ele><time>2026-04-18T15:28:13.001Z</time></trkpt><trkpt lat="45.9822123" lon="11.7326902"><ele>544.0</ele><time>2026-04-18T15:28:14.994Z</time></trkpt><trkpt lat="45.9822505" lon="11.7325751"><ele>544.0</ele><time>2026-04-18T15:28:15.99Z</time></trkpt><trkpt lat="45.9822987" lon="11.7324361"><ele>544.8333333333334</ele><time>2026-04-18T15:28:17.984Z</time></trkpt><trkpt lat="45.9822952" lon="11.7323094"><ele>545.6666666666667</ele><time>2026-04-18T15:28:19.999Z</time></trkpt><trkpt lat="45.9823015" lon="11.732189"><ele>546.5</ele><time>2026-04-18T15:28:21.957Z</time></trkpt><trkpt lat="45.9822746" lon="11.732104"><ele>547.3333333333334</ele><time>2026-04-18T15:28:22.977Z</time></trkpt><trkpt lat="45.9822589" lon="11.7319911"><ele>548.1666666666666</ele><time>2026-04-18T15:28:24.97Z</time></trkpt><trkpt lat="45.9822681" lon="11.7318887"><ele>549.0</ele><time>2026-04-18T15:28:26.011Z</time></trkpt><trkpt lat="45.98228" lon="11.7317476"><ele>549.5</ele><time>2026-04-18T15:28:27.973Z</time></trkpt><trkpt lat="45.9822799" lon="11.7316568"><ele>550.0</ele><time>2026-04-18T15:28:29.994Z</time></trkpt><trkpt lat="45.9823559" lon="11.7316294"><ele>550.5</ele><time>2026-04-18T15:28:45.982Z</time></trkpt><trkpt lat="45.9824132" lon="11.7314957"><ele>551.0</ele><time>2026-04-18T15:28:47.991Z</time></trkpt><trkpt lat="45.9824737" lon="11.7314361"><ele>551.5</ele><time>2026-04-18T15:28:50.006Z</time></trkpt><trkpt lat="45.9825148" lon="11.7313311"><ele>552.0</ele><time>2026-04-18T15:28:51.015Z</time></trkpt><trkpt lat="45.9826102" lon="11.7312682"><ele>547.3333333333334</ele><time>2026-04-18T15:28:53.001Z</time></trkpt><trkpt lat="45.982669" lon="11.7312187"><ele>542.6666666666666</ele><time>2026-04-18T15:28:54.999Z</time></trkpt><trkpt lat="45.982772" lon="11.7312713"><ele>538.0</ele><time>2026-04-18T15:29:00.003Z</time></trkpt><trkpt lat="45.9828002" lon="11.7311776"><ele>533.3333333333333</ele><time>2026-04-18T15:29:04.001Z</time></trkpt><trkpt lat="45.9827803" lon="11.7310909"><ele>528.6666666666666</ele><time>2026-04-18T15:29:05.997Z</time></trkpt><trkpt lat="45.9827937" lon="11.7309811"><ele>524.0</ele><time>2026-04-18T15:29:07.962Z</time></trkpt><trkpt lat="45.9828151" lon="11.730889"><ele>521.6666666666666</ele><time>2026-04-18T15:29:10.005Z</time></trkpt><trkpt lat="45.9828508" lon="11.7307591"><ele>519.3333333333333</ele><time>2026-04-18T15:29:12.012Z</time></trkpt><trkpt lat="45.9828607" lon="11.7306594"><ele>517.0</ele><time>2026-04-18T15:29:13.001Z</time></trkpt><trkpt lat="45.9828533" lon="11.7305462"><ele>514.6666666666666</ele><time>2026-04-18T15:29:15.004Z</time></trkpt><trkpt lat="45.9828368" lon="11.7304329"><ele>512.3333333333334</ele><time>2026-04-18T15:29:17.006Z</time></trkpt><trkpt lat="45.9828343" lon="11.7302783"><ele>510.0</ele><time>2026-04-18T15:29:19.027Z</time></trkpt><trkpt lat="45.9827856" lon="11.730148"><ele>507.0</ele><time>2026-04-18T15:29:21.006Z</time></trkpt><trkpt lat="45.9827302" lon="11.7300828"><ele>504.0</ele><time>2026-04-18T15:29:22.006Z</time></trkpt><trkpt lat="45.9826593" lon="11.7300187"><ele>501.0</ele><time>2026-04-18T15:29:22.974Z</time></trkpt><trkpt lat="45.9825566" lon="11.7299221"><ele>498.0</ele><time>2026-04-18T15:29:24.005Z</time></trkpt><trkpt lat="45.9824381" lon="11.7298142"><ele>495.0</ele><time>2026-04-18T15:29:24.99Z</time></trkpt><trkpt lat="45.9823338" lon="11.7297259"><ele>502.6</ele><time>2026-04-18T15:29:25.99Z</time></trkpt><trkpt lat="45.982264" lon="11.7296674"><ele>510.2</ele><time>2026-04-18T15:29:26.997Z</time></trkpt><trkpt lat="45.9822189" lon="11.7295691"><ele>517.8</ele><time>2026-04-18T15:29:29.004Z</time></trkpt><trkpt lat="45.9821424" lon="11.7295439"><ele>525.4</ele><time>2026-04-18T15:29:32.01Z</time></trkpt><trkpt lat="45.981958" lon="11.7294595"><ele>533.0</ele><time>2026-04-18T15:29:38.005Z</time></trkpt><trkpt lat="45.9818269" lon="11.7294165"><ele>535.1666666666666</ele><time>2026-04-18T15:29:39.975Z</time></trkpt><trkpt lat="45.981737" lon="11.7293555"><ele>537.3333333333333</ele><time>2026-04-18T15:29:41.002Z</time></trkpt><trkpt lat="45.9816823" lon="11.7292795"><ele>539.5</ele><time>2026-04-18T15:29:42.009Z</time></trkpt><trkpt lat="45.9816106" lon="11.7292098"><ele>541.6666666666666</ele><time>2026-04-18T15:29:43.004Z</time></trkpt><trkpt lat="45.9815147" lon="11.7292086"><ele>543.8333333333334</ele><time>2026-04-18T15:29:44.997Z</time></trkpt><trkpt lat="45.9814484" lon="11.7291982"><ele>546.0</ele><time>2026-04-18T15:29:45.997Z</time></trkpt><trkpt lat="45.981381" lon="11.7291088"><ele>546.0</ele><time>2026-04-18T15:29:48.012Z</time></trkpt><trkpt lat="45.9813008" lon="11.7290611"><ele>546.0</ele><time>2026-04-18T15:29:49.005Z</time></trkpt><trkpt lat="45.9812063" lon="11.7290001"><ele>546.0</ele><time>2026-04-18T15:29:50.017Z</time></trkpt><trkpt lat="45.9811062" lon="11.7289112"><ele>546.0</ele><time>2026-04-18T15:29:50.958Z</time></trkpt><trkpt lat="45.9810249" lon="11.72887"><ele>546.0</ele><time>2026-04-18T15:29:51.971Z</time></trkpt><trkpt lat="45.9809638" lon="11.7288161"><ele>546.0</ele><time>2026-04-18T15:29:53.008Z</time></trkpt><trkpt lat="45.9809199" lon="11.7287412"><ele>546.0</ele><time>2026-04-18T15:29:54.001Z</time></trkpt><trkpt lat="45.9808373" lon="11.7287142"><ele>546.0</ele><time>2026-04-18T15:29:54.999Z</time></trkpt><trkpt lat="45.9807696" lon="11.7286959"><ele>546.0</ele><time>2026-04-18T15:29:55.976Z</time></trkpt><trkpt lat="45.9806671" lon="11.7287229"><ele>546.0</ele><time>2026-04-18T15:30:00.975Z</time></trkpt><trkpt lat="45.9805872" lon="11.7286781"><ele>546.0</ele><time>2026-04-18T15:30:01.98Z</time></trkpt><trkpt lat="45.9805139" lon="11.7285838"><ele>546.6666666666666</ele><time>2026-04-18T15:30:03.997Z</time></trkpt><trkpt lat="45.9804399" lon="11.7286035"><ele>547.3333333333334</ele><time>2026-04-18T15:30:08.01Z</time></trkpt><trkpt lat="45.9803724" lon="11.7285457"><ele>548.0</ele><time>2026-04-18T15:30:10.971Z</time></trkpt><trkpt lat="45.9803811" lon="11.7284372"><ele>548.6666666666667</ele><time>2026-04-18T15:30:22.985Z</time></trkpt><trkpt lat="45.9803104" lon="11.7284052"><ele>549.3333333333334</ele><time>2026-04-18T15:30:25.975Z</time></trkpt><trkpt lat="45.9802413" lon="11.7284101"><ele>550.0</ele><time>2026-04-18T15:30:29Z</time></trkpt><trkpt lat="45.980141" lon="11.7284484"><ele>550.0</ele><time>2026-04-18T15:30:31.989Z</time></trkpt><trkpt lat="45.9800681" lon="11.728425"><ele>550.0</ele><time>2026-04-18T15:30:45.989Z</time></trkpt><trkpt lat="45.9800258" lon="11.7284969"><ele>550.0</ele><time>2026-04-18T15:31:03.015Z</time></trkpt><trkpt lat="45.9800824" lon="11.7284566"><ele>550.0</ele><time>2026-04-18T15:31:19.006Z</time></trkpt><trkpt lat="45.9800314" lon="11.7283917"><ele>550.0</ele><time>2026-04-18T15:31:29.992Z</time></trkpt><trkpt lat="45.9800136" lon="11.7284796"><ele>550.0</ele><time>2026-04-18T15:31:52.999Z</time></trkpt><trkpt lat="45.9800856" lon="11.7284358"><ele>550.0</ele><time>2026-04-18T15:32:12.004Z</time></trkpt><trkpt lat="45.980157" lon="11.7284709"><ele>550.0</ele><time>2026-04-18T15:32:14.965Z</time></trkpt><trkpt lat="45.9802136" lon="11.7285328"><ele>550.0</ele><time>2026-04-18T15:32:31.975Z</time></trkpt><trkpt lat="45.9802759" lon="11.7285031"><ele>550.0</ele><time>2026-04-18T15:32:43.974Z</time></trkpt><trkpt lat="45.9803189" lon="11.7283889"><ele>550.0</ele><time>2026-04-18T15:32:53.991Z</time></trkpt><trkpt lat="45.9802918" lon="11.7282555"><ele>550.0</ele><time>2026-04-18T15:32:57.009Z</time></trkpt><trkpt lat="45.9802254" lon="11.7282178"><ele>550.0</ele><time>2026-04-18T15:33:00.004Z</time></trkpt><trkpt lat="45.9801549" lon="11.7282191"><ele>550.0</ele><time>2026-04-18T15:33:02.995Z</time></trkpt><trkpt lat="45.9800879" lon="11.728205"><ele>550.0</ele><time>2026-04-18T15:33:05.004Z</time></trkpt><trkpt lat="45.9800032" lon="11.7282167"><ele>550.0</ele><time>2026-04-18T15:33:07.003Z</time></trkpt><trkpt lat="45.9799061" lon="11.7282338"><ele>550.0</ele><time>2026-04-18T15:33:08.985Z</time></trkpt><trkpt lat="45.9798451" lon="11.7283013"><ele>550.0</ele><time>2026-04-18T15:33:11.974Z</time></trkpt><trkpt lat="45.979778" lon="11.7284396"><ele>550.0</ele><time>2026-04-18T15:33:14.006Z</time></trkpt><trkpt lat="45.9797711" lon="11.7285756"><ele>556.4</ele><time>2026-04-18T15:33:15.004Z</time></trkpt><trkpt lat="45.9797188" lon="11.7287295"><ele>562.8</ele><time>2026-04-18T15:33:17.008Z</time></trkpt><trkpt lat="45.9796708" lon="11.7288512"><ele>569.2</ele><time>2026-04-18T15:33:19.007Z</time></trkpt><trkpt lat="45.9796684" lon="11.7289928"><ele>575.6</ele><time>2026-04-18T15:33:20.964Z</time></trkpt><trkpt lat="45.979686" lon="11.7291409"><ele>582.0</ele><time>2026-04-18T15:33:23Z</time></trkpt><trkpt lat="45.9797181" lon="11.7292378"><ele>582.0</ele><time>2026-04-18T15:33:25.005Z</time></trkpt><trkpt lat="45.9797492" lon="11.7293326"><ele>582.0</ele><time>2026-04-18T15:33:26.993Z</time></trkpt><trkpt lat="45.9797626" lon="11.7294567"><ele>582.0</ele><time>2026-04-18T15:33:29.989Z</time></trkpt><trkpt lat="45.9797733" lon="11.7295618"><ele>582.0</ele><time>2026-04-18T15:33:32.008Z</time></trkpt><trkpt lat="45.9798084" lon="11.72973"><ele>582.0</ele><time>2026-04-18T15:33:34.003Z</time></trkpt><trkpt lat="45.9798498" lon="11.7299072"><ele>584.6666666666666</ele><time>2026-04-18T15:33:36.005Z</time></trkpt><trkpt lat="45.9798669" lon="11.7300082"><ele>587.3333333333334</ele><time>2026-04-18T15:33:37.001Z</time></trkpt><trkpt lat="45.9798809" lon="11.7301077"><ele>590.0</ele><time>2026-04-18T15:33:37.989Z</time></trkpt><trkpt lat="45.9799033" lon="11.730284"><ele>592.6666666666667</ele><time>2026-04-18T15:33:39.994Z</time></trkpt><trkpt lat="45.9799136" lon="11.7303753"><ele>595.3333333333334</ele><time>2026-04-18T15:33:41.008Z</time></trkpt><trkpt lat="45.9799029" lon="11.7304694"><ele>598.0</ele><time>2026-04-18T15:33:42.967Z</time></trkpt><trkpt lat="45.9798952" lon="11.7305828"><ele>601.0</ele><time>2026-04-18T15:33:44.979Z</time></trkpt><trkpt lat="45.9799007" lon="11.7306854"><ele>604.0</ele><time>2026-04-18T15:33:47.989Z</time></trkpt><trkpt lat="45.9799043" lon="11.7308467"><ele>607.0</ele><time>2026-04-18T15:33:50.008Z</time></trkpt><trkpt lat="45.9798086" lon="11.7308222"><ele>610.0</ele><time>2026-04-18T15:33:56.991Z</time></trkpt><trkpt lat="45.9797259" lon="11.7307615"><ele>613.0</ele><time>2026-04-18T15:33:58.997Z</time></trkpt><trkpt lat="45.9796497" lon="11.7307256"><ele>613.0</ele><time>2026-04-18T15:34:01.993Z</time></trkpt><trkpt lat="45.9795614" lon="11.730676"><ele>613.0</ele><time>2026-04-18T15:34:05.999Z</time></trkpt><trkpt lat="45.9794493" lon="11.7305738"><ele>613.0</ele><time>2026-04-18T15:34:07.967Z</time></trkpt><trkpt lat="45.9793863" lon="11.7305103"><ele>613.0</ele><time>2026-04-18T15:34:09.011Z</time></trkpt><trkpt lat="45.9793109" lon="11.730449"><ele>613.0</ele><time>2026-04-18T15:34:10.003Z</time></trkpt><trkpt lat="45.9792505" lon="11.7303813"><ele>613.0</ele><time>2026-04-18T15:34:11.001Z</time></trkpt><trkpt lat="45.9791939" lon="11.7303181"><ele>613.0</ele><time>2026-04-18T15:34:12.007Z</time></trkpt><trkpt lat="45.9791331" lon="11.7302524"><ele>613.0</ele><time>2026-04-18T15:34:13.006Z</time></trkpt><trkpt lat="45.9790591" lon="11.7301814"><ele>613.0</ele><time>2026-04-18T15:34:14.009Z</time></trkpt><trkpt lat="45.9789909" lon="11.7301107"><ele>613.0</ele><time>2026-04-18T15:34:14.999Z</time></trkpt><trkpt lat="45.9789066" lon="11.730047"><ele>613.0</ele><time>2026-04-18T15:34:15.984Z</time></trkpt><trkpt lat="45.978837" lon="11.7299904"><ele>613.6</ele><time>2026-04-18T15:34:16.996Z</time></trkpt><trkpt lat="45.9787562" lon="11.7299438"><ele>614.1999999999999</ele><time>2026-04-18T15:34:18.016Z</time></trkpt><trkpt lat="45.9786092" lon="11.7299462"><ele>614.8</ele><time>2026-04-18T15:34:18.986Z</time></trkpt><trkpt lat="45.9785288" lon="11.7299562"><ele>615.4</ele><time>2026-04-18T15:34:19.998Z</time></trkpt><trkpt lat="45.9784288" lon="11.7300281"><ele>616.0</ele><time>2026-04-18T15:34:22.002Z</time></trkpt><trkpt lat="45.9784027" lon="11.7301216"><ele>616.0</ele><time>2026-04-18T15:34:22.997Z</time></trkpt><trkpt lat="45.9783556" lon="11.730216"><ele>616.0</ele><time>2026-04-18T15:34:24Z</time></trkpt><trkpt lat="45.9783008" lon="11.7302975"><ele>616.0</ele><time>2026-04-18T15:34:25.007Z</time></trkpt><trkpt lat="45.9782456" lon="11.7303818"><ele>616.0</ele><time>2026-04-18T15:34:26.004Z</time></trkpt><trkpt lat="45.978202" lon="11.7304779"><ele>616.0</ele><time>2026-04-18T15:34:27.005Z</time></trkpt><trkpt lat="45.9781735" lon="11.7305722"><ele>616.0</ele><time>2026-04-18T15:34:28.004Z</time></trkpt><trkpt lat="45.9781626" lon="11.7307144"><ele>618.6666666666667</ele><time>2026-04-18T15:34:29.003Z</time></trkpt><trkpt lat="45.9781466" lon="11.7308313"><ele>621.3333333333334</ele><time>2026-04-18T15:34:29.988Z</time></trkpt><trkpt lat="45.9781239" lon="11.7309666"><ele>624.0</ele><time>2026-04-18T15:34:30.976Z</time></trkpt><trkpt lat="45.9781108" lon="11.7310812"><ele>626.6666666666666</ele><time>2026-04-18T15:34:32.009Z</time></trkpt><trkpt lat="45.9781032" lon="11.731178"><ele>629.3333333333333</ele><time>2026-04-18T15:34:32.999Z</time></trkpt><trkpt lat="45.9780442" lon="11.731319"><ele>632.0</ele><time>2026-04-18T15:34:35.004Z</time></trkpt><trkpt lat="45.9779835" lon="11.7313536"><ele>633.2</ele><time>2026-04-18T15:34:36.008Z</time></trkpt><trkpt lat="45.9779165" lon="11.7313957"><ele>634.4000000000001</ele><time>2026-04-18T15:34:36.988Z</time></trkpt><trkpt lat="45.9777923" lon="11.7314412"><ele>635.5999999999999</ele><time>2026-04-18T15:34:37.999Z</time></trkpt><trkpt lat="45.9776936" lon="11.7315104"><ele>636.8</ele><time>2026-04-18T15:34:39.003Z</time></trkpt><trkpt lat="45.9776194" lon="11.731548"><ele>638.0</ele><time>2026-04-18T15:34:40.005Z</time></trkpt><trkpt lat="45.977518" lon="11.7315837"><ele>639.25</ele><time>2026-04-18T15:34:41.997Z</time></trkpt><trkpt lat="45.977355" lon="11.731696"><ele>640.5</ele><time>2026-04-18T15:34:43.007Z</time></trkpt><trkpt lat="45.9772119" lon="11.7318089"><ele>641.75</ele><time>2026-04-18T15:34:44.015Z</time></trkpt><trkpt lat="45.9771339" lon="11.7318668"><ele>643.0</ele><time>2026-04-18T15:34:45.018Z</time></trkpt><trkpt lat="45.9770804" lon="11.7319252"><ele>643.0</ele><time>2026-04-18T15:34:47.013Z</time></trkpt><trkpt lat="45.977048" lon="11.7318437"><ele>643.0</ele><time>2026-04-18T15:34:57.979Z</time></trkpt><trkpt lat="45.9772931" lon="11.7317976"><ele>643.0</ele><time>2026-04-18T15:35:09.958Z</time></trkpt><trkpt lat="45.9773577" lon="11.7318311"><ele>643.0</ele><time>2026-04-18T15:35:11.962Z</time></trkpt><trkpt lat="45.9774506" lon="11.7318994"><ele>642.8</ele><time>2026-04-18T15:35:13.996Z</time></trkpt><trkpt lat="45.9775391" lon="11.7319625"><ele>642.5999999999999</ele><time>2026-04-18T15:35:16Z</time></trkpt><trkpt lat="45.9776485" lon="11.7320521"><ele>642.4000000000001</ele><time>2026-04-18T15:35:17.966Z</time></trkpt><trkpt lat="45.977717" lon="11.7321265"><ele>642.2</ele><time>2026-04-18T15:35:20.004Z</time></trkpt><trkpt lat="45.9778088" lon="11.7321822"><ele>642.0</ele><time>2026-04-18T15:35:22.005Z</time></trkpt><trkpt lat="45.9779127" lon="11.7322624"><ele>642.0</ele><time>2026-04-18T15:35:24.009Z</time></trkpt><trkpt lat="45.9779849" lon="11.7323003"><ele>642.0</ele><time>2026-04-18T15:35:26.019Z</time></trkpt><trkpt lat="45.9780869" lon="11.7323653"><ele>642.0</ele><time>2026-04-18T15:35:28.014Z</time></trkpt><trkpt lat="45.978164" lon="11.7324317"><ele>642.0</ele><time>2026-04-18T15:35:29.994Z</time></trkpt><trkpt lat="45.9782323" lon="11.7325189"><ele>642.0</ele><time>2026-04-18T15:35:32.005Z</time></trkpt><trkpt lat="45.9782886" lon="11.732598"><ele>642.0</ele><time>2026-04-18T15:35:34.021Z</time></trkpt><trkpt lat="45.9783566" lon="11.7326928"><ele>640.2</ele><time>2026-04-18T15:35:35.991Z</time></trkpt><trkpt lat="45.9784377" lon="11.7327808"><ele>638.4000000000001</ele><time>2026-04-18T15:35:38.007Z</time></trkpt><trkpt lat="45.9784988" lon="11.7328652"><ele>636.5999999999999</ele><time>2026-04-18T15:35:41.016Z</time></trkpt><trkpt lat="45.9785484" lon="11.7329566"><ele>634.8</ele><time>2026-04-18T15:35:44.004Z</time></trkpt><trkpt lat="45.9785706" lon="11.7330513"><ele>633.0</ele><time>2026-04-18T15:35:46.998Z</time></trkpt><trkpt lat="45.9785286" lon="11.7332081"><ele>633.0</ele><time>2026-04-18T15:35:48.982Z</time></trkpt><trkpt lat="45.9784666" lon="11.7333505"><ele>633.0</ele><time>2026-04-18T15:35:51.011Z</time></trkpt><trkpt lat="45.9784304" lon="11.7334504"><ele>633.0</ele><time>2026-04-18T15:35:53.984Z</time></trkpt><trkpt lat="45.9784387" lon="11.7335624"><ele>633.0</ele><time>2026-04-18T15:35:59Z</time></trkpt><trkpt lat="45.9784671" lon="11.7336587"><ele>633.0</ele><time>2026-04-18T15:36:02.039Z</time></trkpt><trkpt lat="45.9785077" lon="11.7337495"><ele>633.0</ele><time>2026-04-18T15:36:04.013Z</time></trkpt><trkpt lat="45.9785588" lon="11.7338401"><ele>631.6666666666666</ele><time>2026-04-18T15:36:06.002Z</time></trkpt><trkpt lat="45.9786038" lon="11.7339175"><ele>630.3333333333334</ele><time>2026-04-18T15:36:08.026Z</time></trkpt><trkpt lat="45.9786437" lon="11.7339896"><ele>629.0</ele><time>2026-04-18T15:36:09.991Z</time></trkpt><trkpt lat="45.9787027" lon="11.7340878"><ele>627.6666666666667</ele><time>2026-04-18T15:36:12.002Z</time></trkpt><trkpt lat="45.9787336" lon="11.7342129"><ele>626.3333333333334</ele><time>2026-04-18T15:36:15.001Z</time></trkpt><trkpt lat="45.9787807" lon="11.7342969"><ele>625.0</ele><time>2026-04-18T15:36:17.01Z</time></trkpt><trkpt lat="45.9788167" lon="11.7343888"><ele>622.2</ele><time>2026-04-18T15:36:19.009Z</time></trkpt><trkpt lat="45.9788874" lon="11.7345186"><ele>619.4</ele><time>2026-04-18T15:36:21.007Z</time></trkpt><trkpt lat="45.9789518" lon="11.7346157"><ele>616.6</ele><time>2026-04-18T15:36:23.013Z</time></trkpt><trkpt lat="45.9790183" lon="11.7347361"><ele>613.8</ele><time>2026-04-18T15:36:26.001Z</time></trkpt><trkpt lat="45.9790689" lon="11.734841"><ele>611.0</ele><time>2026-04-18T15:36:27.998Z</time></trkpt><trkpt lat="45.9791147" lon="11.7349555"><ele>611.0</ele><time>2026-04-18T15:36:30.02Z</time></trkpt><trkpt lat="45.9791833" lon="11.7350738"><ele>611.0</ele><time>2026-04-18T15:36:32.005Z</time></trkpt><trkpt lat="45.9792721" lon="11.7351641"><ele>611.0</ele><time>2026-04-18T15:36:34.012Z</time></trkpt><trkpt lat="45.979306" lon="11.7352458"><ele>611.0</ele><time>2026-04-18T15:36:37.015Z</time></trkpt><trkpt lat="45.9793278" lon="11.7353361"><ele>611.0</ele><time>2026-04-18T15:36:37.979Z</time></trkpt><trkpt lat="45.9793593" lon="11.7354478"><ele>611.0</ele><time>2026-04-18T15:36:39.006Z</time></trkpt><trkpt lat="45.9793912" lon="11.7355365"><ele>608.5</ele><time>2026-04-18T15:36:40Z</time></trkpt><trkpt lat="45.9794402" lon="11.7356291"><ele>606.0</ele><time>2026-04-18T15:36:41.009Z</time></trkpt><trkpt lat="45.9794864" lon="11.7357027"><ele>603.5</ele><time>2026-04-18T15:36:41.976Z</time></trkpt><trkpt lat="45.9795453" lon="11.7358224"><ele>601.0</ele><time>2026-04-18T15:36:43.98Z</time></trkpt><trkpt lat="45.9795557" lon="11.735986"><ele>598.5</ele><time>2026-04-18T15:36:45.996Z</time></trkpt><trkpt lat="45.9795344" lon="11.7360936"><ele>596.0</ele><time>2026-04-18T15:36:46.976Z</time></trkpt><trkpt lat="45.9795218" lon="11.7362838"><ele>594.75</ele><time>2026-04-18T15:36:47.995Z</time></trkpt><trkpt lat="45.9795192" lon="11.7364799"><ele>593.5</ele><time>2026-04-18T15:36:49.012Z</time></trkpt><trkpt lat="45.9795199" lon="11.7366918"><ele>592.25</ele><time>2026-04-18T15:36:49.989Z</time></trkpt><trkpt lat="45.9795217" lon="11.7368893"><ele>591.0</ele><time>2026-04-18T15:36:50.986Z</time></trkpt><trkpt lat="45.9795218" lon="11.7369926"><ele>590.0</ele><time>2026-04-18T15:36:52Z</time></trkpt><trkpt lat="45.9794294" lon="11.7370278"><ele>589.0</ele><time>2026-04-18T15:36:55.993Z</time></trkpt><trkpt lat="45.9793546" lon="11.7371228"><ele>588.0</ele><time>2026-04-18T15:36:58.008Z</time></trkpt><trkpt lat="45.9793061" lon="11.7372436"><ele>587.0</ele><time>2026-04-18T15:37:00.001Z</time></trkpt><trkpt lat="45.9792285" lon="11.7373117"><ele>586.0</ele><time>2026-04-18T15:37:03.012Z</time></trkpt><trkpt lat="45.9791341" lon="11.7373503"><ele>590.0</ele><time>2026-04-18T15:37:05.01Z</time></trkpt><trkpt lat="45.9790728" lon="11.7373715"><ele>594.0</ele><time>2026-04-18T15:37:06.013Z</time></trkpt><trkpt lat="45.9789802" lon="11.7374123"><ele>598.0</ele><time>2026-04-18T15:37:08.018Z</time></trkpt><trkpt lat="45.978861" lon="11.7374889"><ele>602.0</ele><time>2026-04-18T15:37:09.995Z</time></trkpt><trkpt lat="45.9787852" lon="11.7375415"><ele>606.0</ele><time>2026-04-18T15:37:11.012Z</time></trkpt><trkpt lat="45.9786919" lon="11.7375943"><ele>606.0</ele><time>2026-04-18T15:37:13.008Z</time></trkpt><trkpt lat="45.9785994" lon="11.737667"><ele>606.0</ele><time>2026-04-18T15:37:15.012Z</time></trkpt><trkpt lat="45.9785186" lon="11.7377312"><ele>606.0</ele><time>2026-04-18T15:37:17.01Z</time></trkpt><trkpt lat="45.9784599" lon="11.7377829"><ele>606.0</ele><time>2026-04-18T15:37:19.017Z</time></trkpt><trkpt lat="45.9783521" lon="11.7378343"><ele>606.0</ele><time>2026-04-18T15:37:22.026Z</time></trkpt><trkpt lat="45.9782713" lon="11.7379072"><ele>604.3333333333334</ele><time>2026-04-18T15:37:24.009Z</time></trkpt><trkpt lat="45.9782158" lon="11.7379604"><ele>602.6666666666666</ele><time>2026-04-18T15:37:25.016Z</time></trkpt><trkpt lat="45.9781602" lon="11.7380133"><ele>601.0</ele><time>2026-04-18T15:37:26.022Z</time></trkpt><trkpt lat="45.9781054" lon="11.7380586"><ele>599.3333333333333</ele><time>2026-04-18T15:37:26.994Z</time></trkpt><trkpt lat="45.9780105" lon="11.7381386"><ele>597.6666666666666</ele><time>2026-04-18T15:37:29.014Z</time></trkpt><trkpt lat="45.978004" lon="11.7383109"><ele>596.0</ele><time>2026-04-18T15:37:32.011Z</time></trkpt><trkpt lat="45.9780236" lon="11.7384598"><ele>595.4</ele><time>2026-04-18T15:37:33.017Z</time></trkpt><trkpt lat="45.9780584" lon="11.7386052"><ele>594.8</ele><time>2026-04-18T15:37:34.006Z</time></trkpt><trkpt lat="45.9780956" lon="11.7387578"><ele>594.1999999999999</ele><time>2026-04-18T15:37:35.008Z</time></trkpt><trkpt lat="45.9781308" lon="11.7388832"><ele>593.6</ele><time>2026-04-18T15:37:36.023Z</time></trkpt><trkpt lat="45.978164" lon="11.738983"><ele>593.0</ele><time>2026-04-18T15:37:37.013Z</time></trkpt><trkpt lat="45.9782045" lon="11.7390767"><ele>593.0</ele><time>2026-04-18T15:37:38.005Z</time></trkpt><trkpt lat="45.9782535" lon="11.7391819"><ele>593.0</ele><time>2026-04-18T15:37:39.014Z</time></trkpt><trkpt lat="45.9782896" lon="11.7392744"><ele>593.0</ele><time>2026-04-18T15:37:40.027Z</time></trkpt><trkpt lat="45.9783111" lon="11.7394015"><ele>593.0</ele><time>2026-04-18T15:37:42.02Z</time></trkpt><trkpt lat="45.9783168" lon="11.739608"><ele>593.0</ele><time>2026-04-18T15:37:44.014Z</time></trkpt><trkpt lat="45.9783096" lon="11.7397596"><ele>591.6</ele><time>2026-04-18T15:37:46.019Z</time></trkpt><trkpt lat="45.9782038" lon="11.7398888"><ele>590.1999999999999</ele><time>2026-04-18T15:37:48.012Z</time></trkpt><trkpt lat="45.9781215" lon="11.7399456"><ele>588.8</ele><time>2026-04-18T15:37:49.008Z</time></trkpt><trkpt lat="45.9780304" lon="11.7400093"><ele>587.4</ele><time>2026-04-18T15:37:50.008Z</time></trkpt><trkpt lat="45.9779289" lon="11.7400536"><ele>586.0</ele><time>2026-04-18T15:37:50.98Z</time></trkpt><trkpt lat="45.9778313" lon="11.7401048"><ele>586.0</ele><time>2026-04-18T15:37:51.987Z</time></trkpt><trkpt lat="45.9777436" lon="11.7401689"><ele>586.0</ele><time>2026-04-18T15:37:53.013Z</time></trkpt><trkpt lat="45.9776721" lon="11.7402611"><ele>586.0</ele><time>2026-04-18T15:37:54.023Z</time></trkpt><trkpt lat="45.9776101" lon="11.7403261"><ele>586.0</ele><time>2026-04-18T15:37:54.984Z</time></trkpt><trkpt lat="45.9775243" lon="11.7404182"><ele>586.0</ele><time>2026-04-18T15:37:57.011Z</time></trkpt><trkpt lat="45.97745" lon="11.7404948"><ele>585.6</ele><time>2026-04-18T15:38:01.006Z</time></trkpt><trkpt lat="45.9773833" lon="11.7405095"><ele>585.2</ele><time>2026-04-18T15:38:03.015Z</time></trkpt><trkpt lat="45.9773313" lon="11.7403792"><ele>584.8</ele><time>2026-04-18T15:38:06.001Z</time></trkpt><trkpt lat="45.9773295" lon="11.7402482"><ele>584.4</ele><time>2026-04-18T15:38:07.008Z</time></trkpt><trkpt lat="45.9773264" lon="11.7400355"><ele>584.0</ele><time>2026-04-18T15:38:08.022Z</time></trkpt><trkpt lat="45.9772835" lon="11.7398405"><ele>585.5</ele><time>2026-04-18T15:38:09.018Z</time></trkpt><trkpt lat="45.9772106" lon="11.7396611"><ele>587.0</ele><time>2026-04-18T15:38:10.02Z</time></trkpt><trkpt lat="45.9771363" lon="11.7394767"><ele>588.5</ele><time>2026-04-18T15:38:11.003Z</time></trkpt><trkpt lat="45.9770396" lon="11.7393164"><ele>590.0</ele><time>2026-04-18T15:38:12.013Z</time></trkpt><trkpt lat="45.976948" lon="11.7391597"><ele>592.0</ele><time>2026-04-18T15:38:13.021Z</time></trkpt><trkpt lat="45.9768769" lon="11.739016"><ele>594.0</ele><time>2026-04-18T15:38:14.013Z</time></trkpt><trkpt lat="45.9767709" lon="11.7388712"><ele>596.0</ele><time>2026-04-18T15:38:15.005Z</time></trkpt><trkpt lat="45.9766687" lon="11.7387426"><ele>598.0</ele><time>2026-04-18T15:38:16.004Z</time></trkpt><trkpt lat="45.9765817" lon="11.738642"><ele>601.25</ele><time>2026-04-18T15:38:17.016Z</time></trkpt><trkpt lat="45.9764853" lon="11.7385642"><ele>604.5</ele><time>2026-04-18T15:38:17.991Z</time></trkpt><trkpt lat="45.9763872" lon="11.7384879"><ele>607.75</ele><time>2026-04-18T15:38:19.028Z</time></trkpt><trkpt lat="45.9762752" lon="11.7384242"><ele>611.0</ele><time>2026-04-18T15:38:20Z</time></trkpt><trkpt lat="45.9761321" lon="11.7383666"><ele>611.75</ele><time>2026-04-18T15:38:21.037Z</time></trkpt><trkpt lat="45.9759841" lon="11.7383125"><ele>612.5</ele><time>2026-04-18T15:38:22.014Z</time></trkpt><trkpt lat="45.9758518" lon="11.7382482"><ele>613.25</ele><time>2026-04-18T15:38:22.997Z</time></trkpt><trkpt lat="45.9757547" lon="11.7381905"><ele>614.0</ele><time>2026-04-18T15:38:24.008Z</time></trkpt><trkpt lat="45.9756627" lon="11.7381642"><ele>616.4</ele><time>2026-04-18T15:38:25.026Z</time></trkpt><trkpt lat="45.9755872" lon="11.7381495"><ele>618.8</ele><time>2026-04-18T15:38:26.01Z</time></trkpt><trkpt lat="45.9754886" lon="11.7381218"><ele>621.2</ele><time>2026-04-18T15:38:27.014Z</time></trkpt><trkpt lat="45.9753768" lon="11.7380795"><ele>623.6</ele><time>2026-04-18T15:38:28.009Z</time></trkpt><trkpt lat="45.9752772" lon="11.7380163"><ele>626.0</ele><time>2026-04-18T15:38:29.006Z</time></trkpt><trkpt lat="45.9751694" lon="11.7379507"><ele>626.0</ele><time>2026-04-18T15:38:30.016Z</time></trkpt><trkpt lat="45.9750385" lon="11.7378979"><ele>626.0</ele><time>2026-04-18T15:38:31.015Z</time></trkpt><trkpt lat="45.974937" lon="11.7378571"><ele>626.0</ele><time>2026-04-18T15:38:31.993Z</time></trkpt><trkpt lat="45.9748406" lon="11.7378186"><ele>626.0</ele><time>2026-04-18T15:38:33.003Z</time></trkpt><trkpt lat="45.9747602" lon="11.7377714"><ele>626.0</ele><time>2026-04-18T15:38:34.008Z</time></trkpt><trkpt lat="45.9746803" lon="11.7377487"><ele>629.25</ele><time>2026-04-18T15:38:35.009Z</time></trkpt><trkpt lat="45.9745798" lon="11.7376734"><ele>632.5</ele><time>2026-04-18T15:38:35.978Z</time></trkpt><trkpt lat="45.9744561" lon="11.7376059"><ele>635.75</ele><time>2026-04-18T15:38:37.012Z</time></trkpt><trkpt lat="45.9743525" lon="11.7375408"><ele>639.0</ele><time>2026-04-18T15:38:38.012Z</time></trkpt><trkpt lat="45.9742365" lon="11.7374543"><ele>639.5</ele><time>2026-04-18T15:38:39.023Z</time></trkpt><trkpt lat="45.974174" lon="11.7373639"><ele>640.0</ele><time>2026-04-18T15:38:40.012Z</time></trkpt><trkpt lat="45.9741278" lon="11.7372647"><ele>640.5</ele><time>2026-04-18T15:38:41.024Z</time></trkpt><trkpt lat="45.9740733" lon="11.7371386"><ele>641.0</ele><time>2026-04-18T15:38:42.989Z</time></trkpt><trkpt lat="45.974054" lon="11.7369968"><ele>641.5</ele><time>2026-04-18T15:38:44.995Z</time></trkpt><trkpt lat="45.9740398" lon="11.736892"><ele>642.0</ele><time>2026-04-18T15:38:46.027Z</time></trkpt><trkpt lat="45.9740292" lon="11.7367994"><ele>643.0</ele><time>2026-04-18T15:38:46.984Z</time></trkpt><trkpt lat="45.9740148" lon="11.7367001"><ele>644.0</ele><time>2026-04-18T15:38:48.006Z</time></trkpt><trkpt lat="45.9739975" lon="11.7365997"><ele>645.0</ele><time>2026-04-18T15:38:49.005Z</time></trkpt><trkpt lat="45.9739799" lon="11.7364939"><ele>646.0</ele><time>2026-04-18T15:38:50.014Z</time></trkpt><trkpt lat="45.9739542" lon="11.7363761"><ele>647.0</ele><time>2026-04-18T15:38:51.02Z</time></trkpt><trkpt lat="45.9739194" lon="11.736262"><ele>648.0</ele><time>2026-04-18T15:38:52.005Z</time></trkpt><trkpt lat="45.9738737" lon="11.7361458"><ele>649.5</ele><time>2026-04-18T15:38:53.02Z</time></trkpt><trkpt lat="45.9738136" lon="11.7360284"><ele>651.0</ele><time>2026-04-18T15:38:54.15Z</time></trkpt><trkpt lat="45.9737116" lon="11.7358275"><ele>652.5</ele><time>2026-04-18T15:38:56.034Z</time></trkpt><trkpt lat="45.9736634" lon="11.7357137"><ele>654.0</ele><time>2026-04-18T15:38:57.027Z</time></trkpt><trkpt lat="45.9736253" lon="11.7356008"><ele>654.0</ele><time>2026-04-18T15:38:58.023Z</time></trkpt><trkpt lat="45.9735793" lon="11.7354972"><ele>654.0</ele><time>2026-04-18T15:38:58.992Z</time></trkpt><trkpt lat="45.9735319" lon="11.7354151"><ele>654.0</ele><time>2026-04-18T15:39:00.018Z</time></trkpt><trkpt lat="45.9734711" lon="11.7353266"><ele>654.0</ele><time>2026-04-18T15:39:01.016Z</time></trkpt><trkpt lat="45.9734024" lon="11.7352398"><ele>654.0</ele><time>2026-04-18T15:39:02.016Z</time></trkpt><trkpt lat="45.9733336" lon="11.7351814"><ele>654.0</ele><time>2026-04-18T15:39:03.002Z</time></trkpt><trkpt lat="45.9732801" lon="11.7351238"><ele>656.4000000000001</ele><time>2026-04-18T15:39:04.021Z</time></trkpt><trkpt lat="45.9731851" lon="11.7350758"><ele>658.8</ele><time>2026-04-18T15:39:05Z</time></trkpt><trkpt lat="45.9730968" lon="11.735019"><ele>661.2</ele><time>2026-04-18T15:39:05.981Z</time></trkpt><trkpt lat="45.9730088" lon="11.7349644"><ele>663.5999999999999</ele><time>2026-04-18T15:39:07.007Z</time></trkpt><trkpt lat="45.9729329" lon="11.7349108"><ele>666.0</ele><time>2026-04-18T15:39:08.004Z</time></trkpt><trkpt lat="45.9728509" lon="11.7348471"><ele>666.0</ele><time>2026-04-18T15:39:09.004Z</time></trkpt><trkpt lat="45.972761" lon="11.7347709"><ele>666.0</ele><time>2026-04-18T15:39:10.007Z</time></trkpt><trkpt lat="45.9726668" lon="11.7347"><ele>666.0</ele><time>2026-04-18T15:39:11.019Z</time></trkpt><trkpt lat="45.9725722" lon="11.7346419"><ele>666.0</ele><time>2026-04-18T15:39:12.012Z</time></trkpt><trkpt lat="45.9724692" lon="11.7345926"><ele>666.0</ele><time>2026-04-18T15:39:12.993Z</time></trkpt><trkpt lat="45.9723595" lon="11.7345412"><ele>667.0</ele><time>2026-04-18T15:39:14.015Z</time></trkpt><trkpt lat="45.9722567" lon="11.7344884"><ele>668.0</ele><time>2026-04-18T15:39:15Z</time></trkpt><trkpt lat="45.9721537" lon="11.7344271"><ele>669.0</ele><time>2026-04-18T15:39:16.015Z</time></trkpt><trkpt lat="45.9720589" lon="11.7343526"><ele>670.0</ele><time>2026-04-18T15:39:17.013Z</time></trkpt><trkpt lat="45.9719682" lon="11.7342745"><ele>671.0</ele><time>2026-04-18T15:39:17.974Z</time></trkpt><trkpt lat="45.9718811" lon="11.7341826"><ele>673.0</ele><time>2026-04-18T15:39:18.977Z</time></trkpt><trkpt lat="45.9718184" lon="11.7340347"><ele>675.0</ele><time>2026-04-18T15:39:19.998Z</time></trkpt><trkpt lat="45.9717544" lon="11.7339138"><ele>677.0</ele><time>2026-04-18T15:39:20.98Z</time></trkpt><trkpt lat="45.9716842" lon="11.7337861"><ele>679.0</ele><time>2026-04-18T15:39:22.034Z</time></trkpt><trkpt lat="45.9716176" lon="11.7336724"><ele>681.0</ele><time>2026-04-18T15:39:23.017Z</time></trkpt><trkpt lat="45.971543" lon="11.7335681"><ele>682.1999999999999</ele><time>2026-04-18T15:39:24.011Z</time></trkpt><trkpt lat="45.971468" lon="11.7334715"><ele>683.4</ele><time>2026-04-18T15:39:25.021Z</time></trkpt><trkpt lat="45.9713908" lon="11.7333973"><ele>684.6</ele><time>2026-04-18T15:39:26.012Z</time></trkpt><trkpt lat="45.9713228" lon="11.733346"><ele>685.8</ele><time>2026-04-18T15:39:27.032Z</time></trkpt><trkpt lat="45.9712158" lon="11.7332905"><ele>687.0</ele><time>2026-04-18T15:39:28.983Z</time></trkpt><trkpt lat="45.9711047" lon="11.7332783"><ele>687.0</ele><time>2026-04-18T15:39:31.013Z</time></trkpt><trkpt lat="45.9709501" lon="11.7333379"><ele>687.0</ele><time>2026-04-18T15:39:32.994Z</time></trkpt><trkpt lat="45.9708415" lon="11.733403"><ele>687.0</ele><time>2026-04-18T15:39:34.03Z</time></trkpt><trkpt lat="45.9707247" lon="11.7333883"><ele>687.0</ele><time>2026-04-18T15:39:34.988Z</time></trkpt><trkpt lat="45.9705998" lon="11.7333553"><ele>687.75</ele><time>2026-04-18T15:39:36.008Z</time></trkpt><trkpt lat="45.9704743" lon="11.7333123"><ele>688.5</ele><time>2026-04-18T15:39:37.016Z</time></trkpt><trkpt lat="45.9703645" lon="11.7332496"><ele>689.25</ele><time>2026-04-18T15:39:38.015Z</time></trkpt><trkpt lat="45.9702846" lon="11.7331728"><ele>690.0</ele><time>2026-04-18T15:39:39.009Z</time></trkpt><trkpt lat="45.9701837" lon="11.7331161"><ele>690.0</ele><time>2026-04-18T15:39:40.017Z</time></trkpt><trkpt lat="45.9700829" lon="11.7330647"><ele>690.0</ele><time>2026-04-18T15:39:41.009Z</time></trkpt><trkpt lat="45.9699794" lon="11.7330086"><ele>690.0</ele><time>2026-04-18T15:39:42.01Z</time></trkpt><trkpt lat="45.9698708" lon="11.7329395"><ele>690.0</ele><time>2026-04-18T15:39:43.002Z</time></trkpt><trkpt lat="45.9697664" lon="11.7328686"><ele>690.25</ele><time>2026-04-18T15:39:44.011Z</time></trkpt><trkpt lat="45.9696554" lon="11.7328004"><ele>690.5</ele><time>2026-04-18T15:39:45.016Z</time></trkpt><trkpt lat="45.969546" lon="11.7327499"><ele>690.75</ele><time>2026-04-18T15:39:46.01Z</time></trkpt><trkpt lat="45.969429" lon="11.732703"><ele>691.0</ele><time>2026-04-18T15:39:47.01Z</time></trkpt><trkpt lat="45.9693292" lon="11.7326692"><ele>693.4</ele><time>2026-04-18T15:39:47.984Z</time></trkpt><trkpt lat="45.9692293" lon="11.7326424"><ele>695.8</ele><time>2026-04-18T15:39:48.997Z</time></trkpt><trkpt lat="45.9691276" lon="11.7326183"><ele>698.1999999999999</ele><time>2026-04-18T15:39:49.996Z</time></trkpt><trkpt lat="45.9690338" lon="11.7325941"><ele>700.5999999999999</ele><time>2026-04-18T15:39:51.01Z</time></trkpt><trkpt lat="45.9689234" lon="11.7325854"><ele>703.0</ele><time>2026-04-18T15:39:52.016Z</time></trkpt><trkpt lat="45.9688159" lon="11.7325672"><ele>703.0</ele><time>2026-04-18T15:39:53.012Z</time></trkpt><trkpt lat="45.9687305" lon="11.7325599"><ele>703.0</ele><time>2026-04-18T15:39:54.024Z</time></trkpt><trkpt lat="45.9686559" lon="11.7325516"><ele>703.0</ele><time>2026-04-18T15:39:55.012Z</time></trkpt><trkpt lat="45.9685908" lon="11.7325209"><ele>703.0</ele><time>2026-04-18T15:39:56.024Z</time></trkpt><trkpt lat="45.9684968" lon="11.7324421"><ele>703.0</ele><time>2026-04-18T15:39:58.013Z</time></trkpt><trkpt lat="45.968433" lon="11.732392"><ele>703.0</ele><time>2026-04-18T15:39:59.013Z</time></trkpt><trkpt lat="45.9683681" lon="11.7323408"><ele>702.4</ele><time>2026-04-18T15:40:00.016Z</time></trkpt><trkpt lat="45.9682923" lon="11.7322972"><ele>701.8</ele><time>2026-04-18T15:40:01.027Z</time></trkpt><trkpt lat="45.9682104" lon="11.7322734"><ele>701.2</ele><time>2026-04-18T15:40:02.015Z</time></trkpt><trkpt lat="45.9681146" lon="11.7322738"><ele>700.6</ele><time>2026-04-18T15:40:03.008Z</time></trkpt><trkpt lat="45.968016" lon="11.7322945"><ele>700.0</ele><time>2026-04-18T15:40:04.015Z</time></trkpt><trkpt lat="45.9679294" lon="11.732333"><ele>700.0</ele><time>2026-04-18T15:40:05.012Z</time></trkpt><trkpt lat="45.9678559" lon="11.732379"><ele>700.0</ele><time>2026-04-18T15:40:06.025Z</time></trkpt><trkpt lat="45.9677863" lon="11.7324226"><ele>700.0</ele><time>2026-04-18T15:40:07.015Z</time></trkpt><trkpt lat="45.9677154" lon="11.7324627"><ele>700.0</ele><time>2026-04-18T15:40:08.011Z</time></trkpt><trkpt lat="45.9676507" lon="11.732498"><ele>700.0</ele><time>2026-04-18T15:40:09.009Z</time></trkpt><trkpt lat="45.9675823" lon="11.7325269"><ele>700.0</ele><time>2026-04-18T15:40:10.023Z</time></trkpt><trkpt lat="45.9674337" lon="11.7325094"><ele>700.1666666666667</ele><time>2026-04-18T15:40:12.015Z</time></trkpt><trkpt lat="45.9673624" lon="11.7324838"><ele>700.3333333333334</ele><time>2026-04-18T15:40:12.982Z</time></trkpt><trkpt lat="45.9672872" lon="11.7324542"><ele>700.5</ele><time>2026-04-18T15:40:14.009Z</time></trkpt><trkpt lat="45.9672101" lon="11.7324285"><ele>700.6666666666666</ele><time>2026-04-18T15:40:15.031Z</time></trkpt><trkpt lat="45.9671344" lon="11.7324037"><ele>700.8333333333333</ele><time>2026-04-18T15:40:16.01Z</time></trkpt><trkpt lat="45.9670619" lon="11.7323821"><ele>701.0</ele><time>2026-04-18T15:40:17.019Z</time></trkpt><trkpt lat="45.9669863" lon="11.732359"><ele>701.0</ele><time>2026-04-18T15:40:18.025Z</time></trkpt><trkpt lat="45.966904" lon="11.7323414"><ele>701.0</ele><time>2026-04-18T15:40:19.008Z</time></trkpt><trkpt lat="45.9668361" lon="11.7323271"><ele>701.0</ele><time>2026-04-18T15:40:20.013Z</time></trkpt><trkpt lat="45.9667672" lon="11.7323036"><ele>701.0</ele><time>2026-04-18T15:40:21.021Z</time></trkpt><trkpt lat="45.9666812" lon="11.7322265"><ele>701.0</ele><time>2026-04-18T15:40:23.031Z</time></trkpt><trkpt lat="45.9666273" lon="11.7321071"><ele>701.0</ele><time>2026-04-18T15:40:25.023Z</time></trkpt><trkpt lat="45.9665863" lon="11.73195"><ele>698.3333333333333</ele><time>2026-04-18T15:40:27.013Z</time></trkpt><trkpt lat="45.9665686" lon="11.7318486"><ele>695.6666666666666</ele><time>2026-04-18T15:40:28.008Z</time></trkpt><trkpt lat="45.9665482" lon="11.7317373"><ele>693.0</ele><time>2026-04-18T15:40:28.993Z</time></trkpt><trkpt lat="45.9665319" lon="11.7316342"><ele>690.3333333333334</ele><time>2026-04-18T15:40:29.974Z</time></trkpt><trkpt lat="45.9665141" lon="11.7315098"><ele>687.6666666666667</ele><time>2026-04-18T15:40:31.007Z</time></trkpt><trkpt lat="45.9664902" lon="11.731391"><ele>685.0</ele><time>2026-04-18T15:40:32.017Z</time></trkpt><trkpt lat="45.9664527" lon="11.7312913"><ele>685.0</ele><time>2026-04-18T15:40:33.012Z</time></trkpt><trkpt lat="45.9664246" lon="11.7312066"><ele>685.0</ele><time>2026-04-18T15:40:34.025Z</time></trkpt><trkpt lat="45.9664067" lon="11.7311186"><ele>685.0</ele><time>2026-04-18T15:40:34.997Z</time></trkpt><trkpt lat="45.9663956" lon="11.7310233"><ele>685.0</ele><time>2026-04-18T15:40:36.006Z</time></trkpt><trkpt lat="45.9664321" lon="11.7308691"><ele>685.0</ele><time>2026-04-18T15:40:38.014Z</time></trkpt><trkpt lat="45.9665173" lon="11.7307086"><ele>683.6</ele><time>2026-04-18T15:40:40.045Z</time></trkpt><trkpt lat="45.9665537" lon="11.7306237"><ele>682.2</ele><time>2026-04-18T15:40:41.024Z</time></trkpt><trkpt lat="45.9665855" lon="11.7304502"><ele>680.8</ele><time>2026-04-18T15:40:43.025Z</time></trkpt><trkpt lat="45.9665446" lon="11.7303096"><ele>679.4</ele><time>2026-04-18T15:40:45.02Z</time></trkpt><trkpt lat="45.9664254" lon="11.7302479"><ele>678.0</ele><time>2026-04-18T15:40:47Z</time></trkpt><trkpt lat="45.9663525" lon="11.7302525"><ele>678.0</ele><time>2026-04-18T15:40:48.011Z</time></trkpt><trkpt lat="45.966274" lon="11.7302684"><ele>678.0</ele><time>2026-04-18T15:40:49.03Z</time></trkpt><trkpt lat="45.9661984" lon="11.7302879"><ele>678.0</ele><time>2026-04-18T15:40:49.992Z</time></trkpt><trkpt lat="45.9661263" lon="11.7303133"><ele>678.0</ele><time>2026-04-18T15:40:51.008Z</time></trkpt><trkpt lat="45.9660646" lon="11.7303438"><ele>678.0</ele><time>2026-04-18T15:40:51.997Z</time></trkpt><trkpt lat="45.9660581" lon="11.7302514"><ele>678.0</ele><time>2026-04-18T15:40:56.012Z</time></trkpt><trkpt lat="45.9661096" lon="11.7301278"><ele>677.0</ele><time>2026-04-18T15:40:57.997Z</time></trkpt><trkpt lat="45.9660369" lon="11.7301671"><ele>676.0</ele><time>2026-04-18T15:41:03.023Z</time></trkpt><trkpt lat="45.9660378" lon="11.7300333"><ele>675.0</ele><time>2026-04-18T15:41:08.019Z</time></trkpt><trkpt lat="45.9661023" lon="11.7300099"><ele>674.0</ele><time>2026-04-18T15:41:10.018Z</time></trkpt><trkpt lat="45.9661861" lon="11.7299136"><ele>673.0</ele><time>2026-04-18T15:41:12.027Z</time></trkpt><trkpt lat="45.9652565" lon="11.7306066"><ele>675.5</ele><time>2026-04-18T15:41:15.024Z</time></trkpt><trkpt lat="45.9651681" lon="11.7306462"><ele>678.0</ele><time>2026-04-18T15:41:29.999Z</time></trkpt><trkpt lat="45.9651267" lon="11.7307617"><ele>680.5</ele><time>2026-04-18T15:41:32.022Z</time></trkpt><trkpt lat="45.9651063" lon="11.7308514"><ele>683.0</ele><time>2026-04-18T15:41:34.014Z</time></trkpt><trkpt lat="45.9650574" lon="11.7309513"><ele>685.5</ele><time>2026-04-18T15:41:39.031Z</time></trkpt><trkpt lat="45.9650203" lon="11.7310677"><ele>688.0</ele><time>2026-04-18T15:41:40.995Z</time></trkpt><trkpt lat="45.9649578" lon="11.7311358"><ele>692.1666666666667</ele><time>2026-04-18T15:41:43.008Z</time></trkpt><trkpt lat="45.964913" lon="11.7312541"><ele>696.3333333333334</ele><time>2026-04-18T15:41:45.015Z</time></trkpt><trkpt lat="45.9648553" lon="11.7313152"><ele>700.5</ele><time>2026-04-18T15:41:46.978Z</time></trkpt><trkpt lat="45.9648079" lon="11.7314049"><ele>704.6666666666666</ele><time>2026-04-18T15:41:49.027Z</time></trkpt><trkpt lat="45.9647414" lon="11.731495"><ele>708.8333333333333</ele><time>2026-04-18T15:41:50.978Z</time></trkpt><trkpt lat="45.9647166" lon="11.7315815"><ele>713.0</ele><time>2026-04-18T15:41:53.01Z</time></trkpt><trkpt lat="45.964712" lon="11.73173"><ele>713.0</ele><time>2026-04-18T15:41:56.037Z</time></trkpt><trkpt lat="45.9646846" lon="11.7318319"><ele>713.0</ele><time>2026-04-18T15:41:59.03Z</time></trkpt><trkpt lat="45.9646369" lon="11.7319006"><ele>713.0</ele><time>2026-04-18T15:42:08.038Z</time></trkpt><trkpt lat="45.9645726" lon="11.7318574"><ele>713.0</ele><time>2026-04-18T15:42:26.023Z</time></trkpt><trkpt lat="45.9645163" lon="11.7319066"><ele>713.0</ele><time>2026-04-18T15:42:33.032Z</time></trkpt><trkpt lat="45.9644491" lon="11.7319552"><ele>713.0</ele><time>2026-04-18T15:42:34.982Z</time></trkpt><trkpt lat="45.9643762" lon="11.7320822"><ele>711.2857142857142</ele><time>2026-04-18T15:42:37.025Z</time></trkpt><trkpt lat="45.964329" lon="11.732185"><ele>709.5714285714287</ele><time>2026-04-18T15:42:38.025Z</time></trkpt><trkpt lat="45.9642786" lon="11.7322664"><ele>707.8571428571429</ele><time>2026-04-18T15:42:39.011Z</time></trkpt><trkpt lat="45.9642324" lon="11.7323501"><ele>706.1428571428571</ele><time>2026-04-18T15:42:39.995Z</time></trkpt><trkpt lat="45.9641962" lon="11.7324322"><ele>704.4285714285713</ele><time>2026-04-18T15:42:41.042Z</time></trkpt><trkpt lat="45.9641578" lon="11.7325047"><ele>702.7142857142858</ele><time>2026-04-18T15:42:42.001Z</time></trkpt><trkpt lat="45.9641276" lon="11.7325861"><ele>701.0</ele><time>2026-04-18T15:42:43.013Z</time></trkpt><trkpt lat="45.9641017" lon="11.7326827"><ele>705.8333333333333</ele><time>2026-04-18T15:42:44.014Z</time></trkpt><trkpt lat="45.9640711" lon="11.7327832"><ele>710.6666666666666</ele><time>2026-04-18T15:42:45.036Z</time></trkpt><trkpt lat="45.9640397" lon="11.7328853"><ele>715.5</ele><time>2026-04-18T15:42:46.028Z</time></trkpt><trkpt lat="45.9640072" lon="11.7329898"><ele>720.3333333333334</ele><time>2026-04-18T15:42:47.022Z</time></trkpt><trkpt lat="45.9639673" lon="11.7330916"><ele>725.1666666666667</ele><time>2026-04-18T15:42:48.024Z</time></trkpt><trkpt lat="45.9639312" lon="11.7331928"><ele>730.0</ele><time>2026-04-18T15:42:48.972Z</time></trkpt><trkpt lat="45.9638951" lon="11.7333014"><ele>730.0000000000001</ele><time>2026-04-18T15:42:49.992Z</time></trkpt><trkpt lat="45.9638554" lon="11.7334"><ele>730.0</ele><time>2026-04-18T15:42:50.99Z</time></trkpt><trkpt lat="45.963809" lon="11.7334916"><ele>730.0</ele><time>2026-04-18T15:42:52.011Z</time></trkpt><trkpt lat="45.9637559" lon="11.7335715"><ele>730.0</ele><time>2026-04-18T15:42:53.024Z</time></trkpt><trkpt lat="45.9636967" lon="11.7336283"><ele>730.0</ele><time>2026-04-18T15:42:54.017Z</time></trkpt><trkpt lat="45.9636361" lon="11.7336647"><ele>730.0000000000001</ele><time>2026-04-18T15:42:55.024Z</time></trkpt><trkpt lat="45.9635707" lon="11.7337047"><ele>730.0</ele><time>2026-04-18T15:42:57.013Z</time></trkpt><trkpt lat="45.963517" lon="11.7337953"><ele>730.1666666666667</ele><time>2026-04-18T15:43:01.02Z</time></trkpt><trkpt lat="45.9634988" lon="11.7339024"><ele>730.3333333333334</ele><time>2026-04-18T15:43:04.988Z</time></trkpt><trkpt lat="45.9634306" lon="11.7339804"><ele>730.5</ele><time>2026-04-18T15:43:08.019Z</time></trkpt><trkpt lat="45.963391" lon="11.7340877"><ele>730.6666666666666</ele><time>2026-04-18T15:43:09.97Z</time></trkpt><trkpt lat="45.9633231" lon="11.73416"><ele>730.8333333333333</ele><time>2026-04-18T15:43:13.014Z</time></trkpt><trkpt lat="45.9632284" lon="11.7342519"><ele>731.0</ele><time>2026-04-18T15:43:15.012Z</time></trkpt><trkpt lat="45.963182" lon="11.7343218"><ele>726.4</ele><time>2026-04-18T15:43:16.014Z</time></trkpt><trkpt lat="45.9631247" lon="11.7344153"><ele>721.8</ele><time>2026-04-18T15:43:17.016Z</time></trkpt><trkpt lat="45.963065" lon="11.7345026"><ele>717.1999999999999</ele><time>2026-04-18T15:43:18.023Z</time></trkpt><trkpt lat="45.9629966" lon="11.7345915"><ele>712.5999999999999</ele><time>2026-04-18T15:43:19.008Z</time></trkpt><trkpt lat="45.9629337" lon="11.7346881"><ele>708.0</ele><time>2026-04-18T15:43:20.022Z</time></trkpt><trkpt lat="45.962861" lon="11.7348051"><ele>708.0</ele><time>2026-04-18T15:43:22.019Z</time></trkpt><trkpt lat="45.9627871" lon="11.7348402"><ele>708.0</ele><time>2026-04-18T15:43:27.018Z</time></trkpt><trkpt lat="45.9627313" lon="11.7349133"><ele>708.0</ele><time>2026-04-18T15:43:30.98Z</time></trkpt><trkpt lat="45.962676" lon="11.734965"><ele>708.0</ele><time>2026-04-18T15:43:34.024Z</time></trkpt><trkpt lat="45.9626139" lon="11.734899"><ele>708.0</ele><time>2026-04-18T15:43:41.01Z</time></trkpt><trkpt lat="45.9625912" lon="11.7348102"><ele>708.0</ele><time>2026-04-18T15:43:43.014Z</time></trkpt><trkpt lat="45.9625753" lon="11.7347115"><ele>708.0</ele><time>2026-04-18T15:43:45.99Z</time></trkpt><trkpt lat="45.9625305" lon="11.7346425"><ele>710.0</ele><time>2026-04-18T15:44:01.027Z</time></trkpt><trkpt lat="45.9624585" lon="11.7345925"><ele>712.0</ele><time>2026-04-18T15:44:03.003Z</time></trkpt><trkpt lat="45.9624054" lon="11.7345353"><ele>714.0</ele><time>2026-04-18T15:44:19.007Z</time></trkpt><trkpt lat="45.9623083" lon="11.734516"><ele>716.0</ele><time>2026-04-18T15:44:25.015Z</time></trkpt><trkpt lat="45.9622148" lon="11.7345225"><ele>718.0</ele><time>2026-04-18T15:44:26.994Z</time></trkpt><trkpt lat="45.9621469" lon="11.7345232"><ele>720.0</ele><time>2026-04-18T15:44:29.021Z</time></trkpt><trkpt lat="45.9620749" lon="11.7345295"><ele>720.0</ele><time>2026-04-18T15:44:31.023Z</time></trkpt><trkpt lat="45.9620216" lon="11.7345984"><ele>720.0</ele><time>2026-04-18T15:44:34.99Z</time></trkpt><trkpt lat="45.9619449" lon="11.7346222"><ele>720.0</ele><time>2026-04-18T15:44:39.018Z</time></trkpt><trkpt lat="45.9618863" lon="11.7345806"><ele>720.0</ele><time>2026-04-18T15:44:42.025Z</time></trkpt><trkpt lat="45.9618195" lon="11.7345537"><ele>720.0</ele><time>2026-04-18T15:44:44.022Z</time></trkpt><trkpt lat="45.9617535" lon="11.7345794"><ele>720.0</ele><time>2026-04-18T15:44:46.021Z</time></trkpt><trkpt lat="45.9616862" lon="11.7346121"><ele>720.0</ele><time>2026-04-18T15:44:47.022Z</time></trkpt><trkpt lat="45.9615883" lon="11.7346677"><ele>720.0</ele><time>2026-04-18T15:44:48.013Z</time></trkpt><trkpt lat="45.9616947" lon="11.7346574"><ele>720.0</ele><time>2026-04-18T15:44:53.977Z</time></trkpt><trkpt lat="45.9617694" lon="11.7347033"><ele>720.0</ele><time>2026-04-18T15:44:56.018Z</time></trkpt><trkpt lat="45.9618327" lon="11.7347605"><ele>720.0</ele><time>2026-04-18T15:44:57.017Z</time></trkpt><trkpt lat="45.9618937" lon="11.7347992"><ele>720.0</ele><time>2026-04-18T15:44:58.012Z</time></trkpt><trkpt lat="45.9619716" lon="11.7347934"><ele>720.0</ele><time>2026-04-18T15:44:59.031Z</time></trkpt><trkpt lat="45.9620968" lon="11.7347317"><ele>720.0</ele><time>2026-04-18T15:45:01.009Z</time></trkpt><trkpt lat="45.9621863" lon="11.7347281"><ele>720.0</ele><time>2026-04-18T15:45:03.016Z</time></trkpt><trkpt lat="45.962307" lon="11.7346927"><ele>720.0</ele><time>2026-04-18T15:45:04.992Z</time></trkpt><trkpt lat="45.9624041" lon="11.7346624"><ele>720.0</ele><time>2026-04-18T15:45:05.997Z</time></trkpt><trkpt lat="45.9624767" lon="11.7346558"><ele>720.0</ele><time>2026-04-18T15:45:07.016Z</time></trkpt><trkpt lat="45.9625735" lon="11.7346642"><ele>717.6</ele><time>2026-04-18T15:45:09.025Z</time></trkpt><trkpt lat="45.9626451" lon="11.7346911"><ele>715.2</ele><time>2026-04-18T15:45:11.027Z</time></trkpt><trkpt lat="45.9626839" lon="11.7347753"><ele>712.8</ele><time>2026-04-18T15:45:12.018Z</time></trkpt><trkpt lat="45.9626853" lon="11.7349274"><ele>710.4</ele><time>2026-04-18T15:45:15.014Z</time></trkpt><trkpt lat="45.9626366" lon="11.7350558"><ele>708.0</ele><time>2026-04-18T15:45:17.023Z</time></trkpt><trkpt lat="45.9625754" lon="11.7351803"><ele>706.2</ele><time>2026-04-18T15:45:19.024Z</time></trkpt><trkpt lat="45.9625117" lon="11.7352757"><ele>704.4</ele><time>2026-04-18T15:45:20.007Z</time></trkpt><trkpt lat="45.962463" lon="11.735354"><ele>702.6</ele><time>2026-04-18T15:45:21.024Z</time></trkpt><trkpt lat="45.9623431" lon="11.7353902"><ele>700.8000000000001</ele><time>2026-04-18T15:45:25.979Z</time></trkpt><trkpt lat="45.9622651" lon="11.7354053"><ele>699.0</ele><time>2026-04-18T15:45:27.008Z</time></trkpt><trkpt lat="45.9621725" lon="11.7354339"><ele>699.0</ele><time>2026-04-18T15:45:27.984Z</time></trkpt><trkpt lat="45.9620718" lon="11.735477"><ele>699.0</ele><time>2026-04-18T15:45:29.022Z</time></trkpt><trkpt lat="45.9620109" lon="11.7355704"><ele>699.0</ele><time>2026-04-18T15:45:31.015Z</time></trkpt><trkpt lat="45.9619833" lon="11.7356743"><ele>699.0</ele><time>2026-04-18T15:45:33.977Z</time></trkpt><trkpt lat="45.9619662" lon="11.7358144"><ele>699.0</ele><time>2026-04-18T15:45:36.022Z</time></trkpt><trkpt lat="45.9619505" lon="11.7359048"><ele>699.0</ele><time>2026-04-18T15:45:38.017Z</time></trkpt><trkpt lat="45.9618977" lon="11.7359856"><ele>694.5714285714286</ele><time>2026-04-18T15:45:40.033Z</time></trkpt><trkpt lat="45.9618817" lon="11.7360811"><ele>690.1428571428572</ele><time>2026-04-18T15:45:43.022Z</time></trkpt><trkpt lat="45.9618776" lon="11.7361924"><ele>685.7142857142858</ele><time>2026-04-18T15:45:45.02Z</time></trkpt><trkpt lat="45.9619007" lon="11.7362962"><ele>681.2857142857142</ele><time>2026-04-18T15:45:47.009Z</time></trkpt><trkpt lat="45.9619702" lon="11.7363706"><ele>676.8571428571429</ele><time>2026-04-18T15:45:58.028Z</time></trkpt><trkpt lat="45.96203" lon="11.7363995"><ele>672.4285714285714</ele><time>2026-04-18T15:46:01.009Z</time></trkpt><trkpt lat="45.9621075" lon="11.7364099"><ele>668.0</ele><time>2026-04-18T15:46:05.018Z</time></trkpt><trkpt lat="45.9621839" lon="11.7364212"><ele>668.0</ele><time>2026-04-18T15:46:07.014Z</time></trkpt><trkpt lat="45.9622249" lon="11.7365025"><ele>668.0</ele><time>2026-04-18T15:46:11.01Z</time></trkpt><trkpt lat="45.9621913" lon="11.7366254"><ele>668.0</ele><time>2026-04-18T15:46:15.008Z</time></trkpt><trkpt lat="45.9621344" lon="11.7367786"><ele>668.0</ele><time>2026-04-18T15:46:17.019Z</time></trkpt><trkpt lat="45.962107" lon="11.736925"><ele>668.0</ele><time>2026-04-18T15:46:19.012Z</time></trkpt><trkpt lat="45.962086" lon="11.7370839"><ele>661.6</ele><time>2026-04-18T15:46:21.025Z</time></trkpt><trkpt lat="45.9620594" lon="11.7372337"><ele>655.1999999999999</ele><time>2026-04-18T15:46:23.017Z</time></trkpt><trkpt lat="45.962036" lon="11.7373202"><ele>648.8</ele><time>2026-04-18T15:46:25.014Z</time></trkpt><trkpt lat="45.9619941" lon="11.7374601"><ele>642.4</ele><time>2026-04-18T15:46:26.981Z</time></trkpt><trkpt lat="45.9619724" lon="11.7375523"><ele>636.0</ele><time>2026-04-18T15:46:28.01Z</time></trkpt><trkpt lat="45.9619316" lon="11.7376939"><ele>632.8333333333334</ele><time>2026-04-18T15:46:30.013Z</time></trkpt><trkpt lat="45.9619058" lon="11.7378527"><ele>629.6666666666666</ele><time>2026-04-18T15:46:32.028Z</time></trkpt><trkpt lat="45.9618897" lon="11.7379675"><ele>626.5</ele><time>2026-04-18T15:46:34.017Z</time></trkpt><trkpt lat="45.9618684" lon="11.7380733"><ele>623.3333333333333</ele><time>2026-04-18T15:46:36.019Z</time></trkpt><trkpt lat="45.9618604" lon="11.7381662"><ele>620.1666666666666</ele><time>2026-04-18T15:46:38.021Z</time></trkpt><trkpt lat="45.961913" lon="11.7382763"><ele>617.0</ele><time>2026-04-18T15:46:42.016Z</time></trkpt><trkpt lat="45.9619921" lon="11.7383469"><ele>617.0</ele><time>2026-04-18T15:46:43.992Z</time></trkpt><trkpt lat="45.9620408" lon="11.7384611"><ele>617.0</ele><time>2026-04-18T15:46:48.016Z</time></trkpt><trkpt lat="45.9620876" lon="11.7385407"><ele>617.0</ele><time>2026-04-18T15:46:52Z</time></trkpt><trkpt lat="45.9621667" lon="11.7386206"><ele>617.0</ele><time>2026-04-18T15:46:55.994Z</time></trkpt><trkpt lat="45.9622248" lon="11.7386935"><ele>617.0</ele><time>2026-04-18T15:47:00.019Z</time></trkpt><trkpt lat="45.9622831" lon="11.7387703"><ele>617.0</ele><time>2026-04-18T15:47:03.024Z</time></trkpt><trkpt lat="45.9623319" lon="11.7387047"><ele>615.8333333333333</ele><time>2026-04-18T15:47:08.011Z</time></trkpt><trkpt lat="45.9624117" lon="11.7387067"><ele>614.6666666666666</ele><time>2026-04-18T15:47:09.978Z</time></trkpt><trkpt lat="45.962491" lon="11.7387042"><ele>613.5</ele><time>2026-04-18T15:47:11.986Z</time></trkpt><trkpt lat="45.9625542" lon="11.7387523"><ele>612.3333333333334</ele><time>2026-04-18T15:47:14.023Z</time></trkpt><trkpt lat="45.9625578" lon="11.7388675"><ele>611.1666666666667</ele><time>2026-04-18T15:47:16.017Z</time></trkpt><trkpt lat="45.9625123" lon="11.7389503"><ele>610.0</ele><time>2026-04-18T15:47:18.007Z</time></trkpt><trkpt lat="45.9625392" lon="11.7390408"><ele>610.0</ele><time>2026-04-18T15:47:25.019Z</time></trkpt><trkpt lat="45.9624746" lon="11.7391411"><ele>610.0</ele><time>2026-04-18T15:47:28.014Z</time></trkpt><trkpt lat="45.9624197" lon="11.7392364"><ele>610.0</ele><time>2026-04-18T15:47:30.983Z</time></trkpt><trkpt lat="45.9623489" lon="11.7393447"><ele>610.0</ele><time>2026-04-18T15:47:33.015Z</time></trkpt><trkpt lat="45.9622944" lon="11.739417"><ele>610.0</ele><time>2026-04-18T15:47:35.017Z</time></trkpt><trkpt lat="45.9622202" lon="11.7394748"><ele>610.0</ele><time>2026-04-18T15:47:37.016Z</time></trkpt><trkpt lat="45.962185" lon="11.7396132"><ele>612.0</ele><time>2026-04-18T15:47:40Z</time></trkpt><trkpt lat="45.9621411" lon="11.7396932"><ele>614.0</ele><time>2026-04-18T15:47:41.009Z</time></trkpt><trkpt lat="45.9620738" lon="11.7397793"><ele>616.0</ele><time>2026-04-18T15:47:42.027Z</time></trkpt><trkpt lat="45.9620019" lon="11.7398893"><ele>618.0</ele><time>2026-04-18T15:47:43.013Z</time></trkpt><trkpt lat="45.9619468" lon="11.7399918"><ele>620.0</ele><time>2026-04-18T15:47:44.023Z</time></trkpt><trkpt lat="45.9618881" lon="11.740114"><ele>620.0</ele><time>2026-04-18T15:47:45.022Z</time></trkpt><trkpt lat="45.9618183" lon="11.7402083"><ele>620.0</ele><time>2026-04-18T15:47:46.026Z</time></trkpt><trkpt lat="45.9617626" lon="11.7402707"><ele>620.0</ele><time>2026-04-18T15:47:47.025Z</time></trkpt><trkpt lat="45.9616893" lon="11.7403848"><ele>620.0</ele><time>2026-04-18T15:47:48.012Z</time></trkpt><trkpt lat="45.961586" lon="11.7405159"><ele>620.0</ele><time>2026-04-18T15:47:48.999Z</time></trkpt><trkpt lat="45.9614471" lon="11.7406878"><ele>612.4</ele><time>2026-04-18T15:47:50.012Z</time></trkpt><trkpt lat="45.961321" lon="11.7408239"><ele>604.8</ele><time>2026-04-18T15:47:51.021Z</time></trkpt><trkpt lat="45.9612117" lon="11.7409517"><ele>597.2</ele><time>2026-04-18T15:47:52.03Z</time></trkpt><trkpt lat="45.9611606" lon="11.7410258"><ele>589.6</ele><time>2026-04-18T15:47:52.992Z</time></trkpt><trkpt lat="45.9611145" lon="11.7411011"><ele>582.0</ele><time>2026-04-18T15:47:54.006Z</time></trkpt><trkpt lat="45.9610338" lon="11.7411785"><ele>582.0</ele><time>2026-04-18T15:47:55.983Z</time></trkpt><trkpt lat="45.9609712" lon="11.7413038"><ele>582.0</ele><time>2026-04-18T15:47:58.04Z</time></trkpt><trkpt lat="45.9609211" lon="11.7414223"><ele>582.0</ele><time>2026-04-18T15:48:00.021Z</time></trkpt><trkpt lat="45.9608697" lon="11.7415186"><ele>582.0</ele><time>2026-04-18T15:48:02.025Z</time></trkpt><trkpt lat="45.9607738" lon="11.7416293"><ele>582.0</ele><time>2026-04-18T15:48:04.023Z</time></trkpt><trkpt lat="45.9607167" lon="11.7416908"><ele>579.6666666666666</ele><time>2026-04-18T15:48:05.011Z</time></trkpt><trkpt lat="45.9606671" lon="11.7417563"><ele>577.3333333333334</ele><time>2026-04-18T15:48:06Z</time></trkpt><trkpt lat="45.9605933" lon="11.7418462"><ele>575.0</ele><time>2026-04-18T15:48:07.013Z</time></trkpt><trkpt lat="45.9605275" lon="11.7419449"><ele>572.6666666666667</ele><time>2026-04-18T15:48:08.026Z</time></trkpt><trkpt lat="45.9604823" lon="11.7420441"><ele>570.3333333333334</ele><time>2026-04-18T15:48:09.03Z</time></trkpt><trkpt lat="45.960459" lon="11.742138"><ele>568.0</ele><time>2026-04-18T15:48:09.997Z</time></trkpt><trkpt lat="45.9604083" lon="11.7422307"><ele>566.0</ele><time>2026-04-18T15:48:11.977Z</time></trkpt><trkpt lat="45.9603618" lon="11.7423036"><ele>564.0</ele><time>2026-04-18T15:48:12.99Z</time></trkpt><trkpt lat="45.9603722" lon="11.7424061"><ele>562.0</ele><time>2026-04-18T15:48:15Z</time></trkpt><trkpt lat="45.9604125" lon="11.7425103"><ele>560.0</ele><time>2026-04-18T15:48:17.021Z</time></trkpt><trkpt lat="45.9604541" lon="11.742596"><ele>558.0</ele><time>2026-04-18T15:48:20.001Z</time></trkpt><trkpt lat="45.960522" lon="11.7425294"><ele>556.0</ele><time>2026-04-18T15:48:27.023Z</time></trkpt><trkpt lat="45.9605915" lon="11.7424719"><ele>556.0</ele><time>2026-04-18T15:48:29.01Z</time></trkpt><trkpt lat="45.9606649" lon="11.742441"><ele>556.0</ele><time>2026-04-18T15:48:32.018Z</time></trkpt><trkpt lat="45.9607547" lon="11.7424275"><ele>556.0</ele><time>2026-04-18T15:48:36.005Z</time></trkpt><trkpt lat="45.9608382" lon="11.7423718"><ele>556.0</ele><time>2026-04-18T15:48:37.991Z</time></trkpt><trkpt lat="45.9609021" lon="11.7423705"><ele>556.0</ele><time>2026-04-18T15:48:39.985Z</time></trkpt><trkpt lat="45.9609748" lon="11.7423619"><ele>556.0</ele><time>2026-04-18T15:48:42.993Z</time></trkpt><trkpt lat="45.9610694" lon="11.7423884"><ele>559.2</ele><time>2026-04-18T15:48:46.993Z</time></trkpt><trkpt lat="45.9611515" lon="11.7423738"><ele>562.4000000000001</ele><time>2026-04-18T15:48:50.011Z</time></trkpt><trkpt lat="45.9612321" lon="11.7424043"><ele>565.6</ele><time>2026-04-18T15:48:55.013Z</time></trkpt><trkpt lat="45.9613156" lon="11.7425417"><ele>568.8000000000001</ele><time>2026-04-18T15:48:57.155Z</time></trkpt><trkpt lat="45.9614033" lon="11.7426748"><ele>572.0</ele><time>2026-04-18T15:48:58.996Z</time></trkpt><trkpt lat="45.9614558" lon="11.7427562"><ele>571.9999999999999</ele><time>2026-04-18T15:49:00.992Z</time></trkpt><trkpt lat="45.9615157" lon="11.7428522"><ele>572.0</ele><time>2026-04-18T15:49:04.018Z</time></trkpt><trkpt lat="45.9615666" lon="11.7429121"><ele>572.0</ele><time>2026-04-18T15:49:05.024Z</time></trkpt><trkpt lat="45.9616086" lon="11.7429892"><ele>572.0</ele><time>2026-04-18T15:49:06.016Z</time></trkpt><trkpt lat="45.9616387" lon="11.743069"><ele>572.0</ele><time>2026-04-18T15:49:07.023Z</time></trkpt><trkpt lat="45.9616694" lon="11.7431533"><ele>571.9999999999999</ele><time>2026-04-18T15:49:08.022Z</time></trkpt><trkpt lat="45.9616682" lon="11.743254"><ele>572.0</ele><time>2026-04-18T15:49:09.978Z</time></trkpt><trkpt lat="45.9615885" lon="11.7433269"><ele>572.0</ele><time>2026-04-18T15:49:10.987Z</time></trkpt><trkpt lat="45.9615469" lon="11.7434522"><ele>572.0</ele><time>2026-04-18T15:49:13.019Z</time></trkpt><trkpt lat="45.9614485" lon="11.7435288"><ele>572.0</ele><time>2026-04-18T15:49:14.025Z</time></trkpt><trkpt lat="45.9613738" lon="11.7435731"><ele>572.0</ele><time>2026-04-18T15:49:15.027Z</time></trkpt><trkpt lat="45.9613203" lon="11.7436371"><ele>572.0</ele><time>2026-04-18T15:49:16.02Z</time></trkpt><trkpt lat="45.9612747" lon="11.7437756"><ele>570.5</ele><time>2026-04-18T15:49:18.027Z</time></trkpt><trkpt lat="45.9611854" lon="11.7438922"><ele>569.0</ele><time>2026-04-18T15:49:20.026Z</time></trkpt><trkpt lat="45.9611205" lon="11.7440703"><ele>567.5</ele><time>2026-04-18T15:49:22.016Z</time></trkpt><trkpt lat="45.9611104" lon="11.744206"><ele>566.0</ele><time>2026-04-18T15:49:23.021Z</time></trkpt><trkpt lat="45.9611107" lon="11.7443755"><ele>565.2857142857143</ele><time>2026-04-18T15:49:24.991Z</time></trkpt><trkpt lat="45.9611089" lon="11.7444709"><ele>564.5714285714287</ele><time>2026-04-18T15:49:26.018Z</time></trkpt><trkpt lat="45.9611074" lon="11.7445747"><ele>563.8571428571429</ele><time>2026-04-18T15:49:27.026Z</time></trkpt><trkpt lat="45.9610977" lon="11.7446824"><ele>563.1428571428571</ele><time>2026-04-18T15:49:28.021Z</time></trkpt><trkpt lat="45.9610954" lon="11.7447729"><ele>562.4285714285713</ele><time>2026-04-18T15:49:28.975Z</time></trkpt><trkpt lat="45.9610849" lon="11.7448869"><ele>561.7142857142857</ele><time>2026-04-18T15:49:29.995Z</time></trkpt><trkpt lat="45.9611501" lon="11.744974"><ele>561.0</ele><time>2026-04-18T15:49:32.014Z</time></trkpt><trkpt lat="45.9611488" lon="11.7450951"><ele>561.0</ele><time>2026-04-18T15:49:34.019Z</time></trkpt><trkpt lat="45.9610859" lon="11.7451939"><ele>561.0</ele><time>2026-04-18T15:49:36.025Z</time></trkpt><trkpt lat="45.9610006" lon="11.7452619"><ele>561.0</ele><time>2026-04-18T15:49:37.999Z</time></trkpt><trkpt lat="45.9609543" lon="11.745413"><ele>561.0</ele><time>2026-04-18T15:49:40.017Z</time></trkpt><trkpt lat="45.9609078" lon="11.7455757"><ele>561.0</ele><time>2026-04-18T15:49:42.02Z</time></trkpt><trkpt lat="45.9608541" lon="11.7457278"><ele>552.8333333333334</ele><time>2026-04-18T15:49:44.019Z</time></trkpt><trkpt lat="45.9608273" lon="11.7458927"><ele>544.6666666666666</ele><time>2026-04-18T15:49:46.014Z</time></trkpt><trkpt lat="45.9608042" lon="11.7459797"><ele>536.5</ele><time>2026-04-18T15:49:48.018Z</time></trkpt><trkpt lat="45.9608133" lon="11.746104"><ele>528.3333333333333</ele><time>2026-04-18T15:49:51.025Z</time></trkpt><trkpt lat="45.9607782" lon="11.7461868"><ele>520.1666666666666</ele><time>2026-04-18T15:49:52.019Z</time></trkpt><trkpt lat="45.9607449" lon="11.7463408"><ele>512.0</ele><time>2026-04-18T15:49:54.004Z</time></trkpt><trkpt lat="45.9607403" lon="11.7464782"><ele>512.0</ele><time>2026-04-18T15:49:56.024Z</time></trkpt><trkpt lat="45.9608441" lon="11.7465976"><ele>512.0</ele><time>2026-04-18T15:49:58.011Z</time></trkpt><trkpt lat="45.9609088" lon="11.7466633"><ele>512.0</ele><time>2026-04-18T15:49:59.021Z</time></trkpt><trkpt lat="45.960957" lon="11.7467748"><ele>512.0</ele><time>2026-04-18T15:50:01.029Z</time></trkpt><trkpt lat="45.9609851" lon="11.7469593"><ele>512.0</ele><time>2026-04-18T15:50:03.011Z</time></trkpt><trkpt lat="45.9609889" lon="11.7470938"><ele>523.6</ele><time>2026-04-18T15:50:05.018Z</time></trkpt><trkpt lat="45.9609997" lon="11.747237"><ele>535.2</ele><time>2026-04-18T15:50:07.007Z</time></trkpt><trkpt lat="45.9610044" lon="11.7473982"><ele>546.8</ele><time>2026-04-18T15:50:09.021Z</time></trkpt><trkpt lat="45.9609916" lon="11.7475519"><ele>558.4</ele><time>2026-04-18T15:50:11.028Z</time></trkpt><trkpt lat="45.9609841" lon="11.7476452"><ele>570.0</ele><time>2026-04-18T15:50:12.012Z</time></trkpt><trkpt lat="45.9609605" lon="11.7477385"><ele>570.0</ele><time>2026-04-18T15:50:13.016Z</time></trkpt><trkpt lat="45.9609326" lon="11.7478287"><ele>570.0</ele><time>2026-04-18T15:50:14.013Z</time></trkpt><trkpt lat="45.9608964" lon="11.747967"><ele>570.0</ele><time>2026-04-18T15:50:16.006Z</time></trkpt><trkpt lat="45.9608823" lon="11.7481309"><ele>570.0</ele><time>2026-04-18T15:50:18.021Z</time></trkpt><trkpt lat="45.9608681" lon="11.7482202"><ele>570.0</ele><time>2026-04-18T15:50:19.034Z</time></trkpt><trkpt lat="45.9608543" lon="11.7483242"><ele>570.0</ele><time>2026-04-18T15:50:20.022Z</time></trkpt><trkpt lat="45.9608458" lon="11.7484341"><ele>559.0</ele><time>2026-04-18T15:50:21.003Z</time></trkpt><trkpt lat="45.9608281" lon="11.748545"><ele>548.0</ele><time>2026-04-18T15:50:22.017Z</time></trkpt><trkpt lat="45.9608096" lon="11.7486473"><ele>537.0</ele><time>2026-04-18T15:50:23.024Z</time></trkpt><trkpt lat="45.960804" lon="11.7487457"><ele>526.0</ele><time>2026-04-18T15:50:24.018Z</time></trkpt><trkpt lat="45.9607935" lon="11.7488872"><ele>515.0</ele><time>2026-04-18T15:50:26.005Z</time></trkpt><trkpt lat="45.960814" lon="11.7490282"><ele>504.0</ele><time>2026-04-18T15:50:28.018Z</time></trkpt><trkpt lat="45.9608026" lon="11.7491403"><ele>504.0</ele><time>2026-04-18T15:50:30.022Z</time></trkpt><trkpt lat="45.960792" lon="11.7492831"><ele>504.0</ele><time>2026-04-18T15:50:31.971Z</time></trkpt><trkpt lat="45.9607952" lon="11.7493831"><ele>504.0</ele><time>2026-04-18T15:50:34.013Z</time></trkpt><trkpt lat="45.9607899" lon="11.749513"><ele>504.0</ele><time>2026-04-18T15:50:36.037Z</time></trkpt><trkpt lat="45.9607988" lon="11.7496035"><ele>504.0</ele><time>2026-04-18T15:50:36.994Z</time></trkpt><trkpt lat="45.9607936" lon="11.7497424"><ele>504.0</ele><time>2026-04-18T15:50:39.012Z</time></trkpt><trkpt lat="45.9607659" lon="11.7498579"><ele>503.3333333333333</ele><time>2026-04-18T15:50:41.019Z</time></trkpt><trkpt lat="45.9606992" lon="11.74993"><ele>502.66666666666663</ele><time>2026-04-18T15:50:43.023Z</time></trkpt><trkpt lat="45.9606628" lon="11.7500061"><ele>502.0</ele><time>2026-04-18T15:50:46.018Z</time></trkpt><trkpt lat="45.9606649" lon="11.7501863"><ele>501.3333333333333</ele><time>2026-04-18T15:50:48.009Z</time></trkpt><trkpt lat="45.9606723" lon="11.7502822"><ele>500.66666666666663</ele><time>2026-04-18T15:50:49.016Z</time></trkpt><trkpt lat="45.9606804" lon="11.750376"><ele>500.0</ele><time>2026-04-18T15:50:50.007Z</time></trkpt><trkpt lat="45.9606799" lon="11.7505395"><ele>495.6</ele><time>2026-04-18T15:50:52.032Z</time></trkpt><trkpt lat="45.9606921" lon="11.7506815"><ele>491.2</ele><time>2026-04-18T15:50:54.025Z</time></trkpt><trkpt lat="45.9607184" lon="11.7508491"><ele>486.79999999999995</ele><time>2026-04-18T15:50:56.025Z</time></trkpt><trkpt lat="45.9607437" lon="11.7509347"><ele>482.4</ele><time>2026-04-18T15:50:57.011Z</time></trkpt><trkpt lat="45.9607913" lon="11.7510843"><ele>478.0</ele><time>2026-04-18T15:50:59.025Z</time></trkpt><trkpt lat="45.9608243" lon="11.751162"><ele>478.1666666666667</ele><time>2026-04-18T15:51:00.014Z</time></trkpt><trkpt lat="45.9608669" lon="11.7512552"><ele>478.33333333333337</ele><time>2026-04-18T15:51:01.052Z</time></trkpt><trkpt lat="45.9609139" lon="11.7513387"><ele>478.5</ele><time>2026-04-18T15:51:02.024Z</time></trkpt><trkpt lat="45.9609679" lon="11.7514203"><ele>478.66666666666663</ele><time>2026-04-18T15:51:03.011Z</time></trkpt><trkpt lat="45.9610064" lon="11.7514994"><ele>478.8333333333333</ele><time>2026-04-18T15:51:04.023Z</time></trkpt><trkpt lat="45.9610663" lon="11.7516486"><ele>479.0</ele><time>2026-04-18T15:51:06.019Z</time></trkpt><trkpt lat="45.9611029" lon="11.7517267"><ele>478.99999999999994</ele><time>2026-04-18T15:51:07.002Z</time></trkpt><trkpt lat="45.9611521" lon="11.7518061"><ele>479.0</ele><time>2026-04-18T15:51:08.02Z</time></trkpt><trkpt lat="45.9612026" lon="11.7518782"><ele>479.0</ele><time>2026-04-18T15:51:09.027Z</time></trkpt><trkpt lat="45.9612471" lon="11.7519686"><ele>479.0</ele><time>2026-04-18T15:51:10.024Z</time></trkpt><trkpt lat="45.9612845" lon="11.7520542"><ele>478.99999999999994</ele><time>2026-04-18T15:51:10.994Z</time></trkpt><trkpt lat="45.9613298" lon="11.7521527"><ele>479.0</ele><time>2026-04-18T15:51:12.018Z</time></trkpt><trkpt lat="45.9613721" lon="11.752243"><ele>470.79999999999995</ele><time>2026-04-18T15:51:12.959Z</time></trkpt><trkpt lat="45.9614237" lon="11.7523876"><ele>462.59999999999997</ele><time>2026-04-18T15:51:14.979Z</time></trkpt><trkpt lat="45.961492" lon="11.7525264"><ele>454.4</ele><time>2026-04-18T15:51:16.976Z</time></trkpt><trkpt lat="45.9615463" lon="11.7526846"><ele>446.2</ele><time>2026-04-18T15:51:18.971Z</time></trkpt><trkpt lat="45.9615895" lon="11.7527807"><ele>438.0</ele><time>2026-04-18T15:51:19.976Z</time></trkpt><trkpt lat="45.961632" lon="11.7528863"><ele>437.2</ele><time>2026-04-18T15:51:20.963Z</time></trkpt><trkpt lat="45.9616936" lon="11.7529729"><ele>436.4</ele><time>2026-04-18T15:51:21.949Z</time></trkpt><trkpt lat="45.961755" lon="11.7530762"><ele>435.59999999999997</ele><time>2026-04-18T15:51:22.967Z</time></trkpt><trkpt lat="45.9618329" lon="11.7531958"><ele>434.79999999999995</ele><time>2026-04-18T15:51:23.963Z</time></trkpt><trkpt lat="45.9619167" lon="11.7533224"><ele>434.0</ele><time>2026-04-18T15:51:24.968Z</time></trkpt><trkpt lat="45.9619911" lon="11.7534401"><ele>424.6</ele><time>2026-04-18T15:51:25.969Z</time></trkpt><trkpt lat="45.9620598" lon="11.7535617"><ele>415.2</ele><time>2026-04-18T15:51:26.976Z</time></trkpt><trkpt lat="45.9621191" lon="11.7536741"><ele>405.8</ele><time>2026-04-18T15:51:27.965Z</time></trkpt><trkpt lat="45.9621793" lon="11.7537916"><ele>396.40000000000003</ele><time>2026-04-18T15:51:28.967Z</time></trkpt><trkpt lat="45.9622307" lon="11.7539062"><ele>387.0</ele><time>2026-04-18T15:51:29.977Z</time></trkpt><trkpt lat="45.9622684" lon="11.7539979"><ele>387.0</ele><time>2026-04-18T15:51:30.961Z</time></trkpt><trkpt lat="45.962307" lon="11.7540832"><ele>387.0</ele><time>2026-04-18T15:51:31.975Z</time></trkpt><trkpt lat="45.9623374" lon="11.7541723"><ele>387.0</ele><time>2026-04-18T15:51:32.967Z</time></trkpt><trkpt lat="45.9623742" lon="11.754269"><ele>387.0</ele><time>2026-04-18T15:51:33.973Z</time></trkpt><trkpt lat="45.9624197" lon="11.7543465"><ele>387.0</ele><time>2026-04-18T15:51:34.977Z</time></trkpt><trkpt lat="45.9624588" lon="11.7544296"><ele>387.0</ele><time>2026-04-18T15:51:35.967Z</time></trkpt><trkpt lat="45.9625107" lon="11.754521"><ele>387.0</ele><time>2026-04-18T15:51:36.943Z</time></trkpt><trkpt lat="45.9625471" lon="11.7546113"><ele>381.8333333333333</ele><time>2026-04-18T15:51:37.959Z</time></trkpt><trkpt lat="45.9625704" lon="11.7546979"><ele>376.6666666666667</ele><time>2026-04-18T15:51:38.937Z</time></trkpt><trkpt lat="45.9625985" lon="11.7547839"><ele>371.5</ele><time>2026-04-18T15:51:39.962Z</time></trkpt><trkpt lat="45.9626352" lon="11.7548728"><ele>366.33333333333337</ele><time>2026-04-18T15:51:40.956Z</time></trkpt><trkpt lat="45.9627139" lon="11.7549754"><ele>361.1666666666667</ele><time>2026-04-18T15:51:41.951Z</time></trkpt><trkpt lat="45.962783" lon="11.7550634"><ele>356.0</ele><time>2026-04-18T15:51:42.985Z</time></trkpt><trkpt lat="45.9628495" lon="11.7551401"><ele>346.1666666666667</ele><time>2026-04-18T15:51:43.962Z</time></trkpt><trkpt lat="45.962919" lon="11.7552143"><ele>336.33333333333337</ele><time>2026-04-18T15:51:44.968Z</time></trkpt><trkpt lat="45.9629788" lon="11.7552873"><ele>326.5</ele><time>2026-04-18T15:51:45.963Z</time></trkpt><trkpt lat="45.9630674" lon="11.7553652"><ele>316.6666666666667</ele><time>2026-04-18T15:51:46.969Z</time></trkpt><trkpt lat="45.9631361" lon="11.7554373"><ele>306.8333333333333</ele><time>2026-04-18T15:51:47.964Z</time></trkpt><trkpt lat="45.9631962" lon="11.7554993"><ele>297.0</ele><time>2026-04-18T15:51:48.972Z</time></trkpt><trkpt lat="45.9632664" lon="11.7555739"><ele>297.0</ele><time>2026-04-18T15:51:49.968Z</time></trkpt><trkpt lat="45.9633505" lon="11.7556687"><ele>297.0</ele><time>2026-04-18T15:51:50.969Z</time></trkpt><trkpt lat="45.9634162" lon="11.7557587"><ele>297.0</ele><time>2026-04-18T15:51:51.97Z</time></trkpt><trkpt lat="45.9635046" lon="11.7558647"><ele>297.0</ele><time>2026-04-18T15:51:52.965Z</time></trkpt><trkpt lat="45.96357" lon="11.7559633"><ele>297.0</ele><time>2026-04-18T15:51:53.977Z</time></trkpt><trkpt lat="45.9636346" lon="11.7560581"><ele>297.3333333333333</ele><time>2026-04-18T15:51:54.975Z</time></trkpt><trkpt lat="45.9636922" lon="11.7561509"><ele>297.6666666666667</ele><time>2026-04-18T15:51:57.958Z</time></trkpt><trkpt lat="45.9637367" lon="11.7560858"><ele>298.0</ele><time>2026-04-18T15:52:03.98Z</time></trkpt><trkpt lat="45.9636923" lon="11.7559909"><ele>298.33333333333337</ele><time>2026-04-18T15:52:05.963Z</time></trkpt><trkpt lat="45.9635965" lon="11.7558594"><ele>298.6666666666667</ele><time>2026-04-18T15:52:07.958Z</time></trkpt><trkpt lat="45.963514" lon="11.7558392"><ele>299.0</ele><time>2026-04-18T15:52:08.968Z</time></trkpt><trkpt lat="45.9634001" lon="11.7558515"><ele>298.6666666666667</ele><time>2026-04-18T15:52:10.97Z</time></trkpt><trkpt lat="45.9633349" lon="11.7558769"><ele>298.33333333333337</ele><time>2026-04-18T15:52:12.996Z</time></trkpt><trkpt lat="45.9632567" lon="11.7558536"><ele>298.0</ele><time>2026-04-18T15:52:15.999Z</time></trkpt><trkpt lat="45.9631624" lon="11.7558558"><ele>297.6666666666667</ele><time>2026-04-18T15:52:23.963Z</time></trkpt><trkpt lat="45.9632104" lon="11.755762"><ele>297.3333333333333</ele><time>2026-04-18T15:52:39.971Z</time></trkpt><trkpt lat="45.9631472" lon="11.7557687"><ele>297.0</ele><time>2026-04-18T15:52:51.959Z</time></trkpt><trkpt lat="45.9630867" lon="11.755734"><ele>297.0</ele><time>2026-04-18T15:53:55.02Z</time></trkpt><trkpt lat="45.9630146" lon="11.7558098"><ele>297.0</ele><time>2026-04-18T15:53:56.029Z</time></trkpt><trkpt lat="45.9629515" lon="11.7559323"><ele>297.0</ele><time>2026-04-18T15:53:58.029Z</time></trkpt><trkpt lat="45.9630362" lon="11.7559524"><ele>297.0</ele><time>2026-04-18T15:54:21.981Z</time></trkpt><trkpt lat="45.9630608" lon="11.7557951"><ele>297.0</ele><time>2026-04-18T15:54:43.012Z</time></trkpt><trkpt lat="45.9630038" lon="11.7557156"><ele>297.0</ele><time>2026-04-18T15:54:43.991Z</time></trkpt><trkpt lat="45.9629602" lon="11.7556478"><ele>297.0</ele><time>2026-04-18T15:54:45.022Z</time></trkpt><trkpt lat="45.9628412" lon="11.7555377"><ele>297.0</ele><time>2026-04-18T15:54:47.008Z</time></trkpt><trkpt lat="45.9627718" lon="11.7554838"><ele>297.0</ele><time>2026-04-18T15:54:48.024Z</time></trkpt><trkpt lat="45.9627052" lon="11.7554329"><ele>297.0</ele><time>2026-04-18T15:54:48.995Z</time></trkpt><trkpt lat="45.9626365" lon="11.7553792"><ele>297.0</ele><time>2026-04-18T15:54:50.015Z</time></trkpt><trkpt lat="45.9625055" lon="11.7554009"><ele>295.4</ele><time>2026-04-18T15:54:50.98Z</time></trkpt><trkpt lat="45.9623686" lon="11.7554277"><ele>293.79999999999995</ele><time>2026-04-18T15:54:52.007Z</time></trkpt><trkpt lat="45.9622637" lon="11.7553877"><ele>292.2</ele><time>2026-04-18T15:54:53.02Z</time></trkpt><trkpt lat="45.9621947" lon="11.7553156"><ele>290.59999999999997</ele><time>2026-04-18T15:54:54.033Z</time></trkpt><trkpt lat="45.9621084" lon="11.7552243"><ele>289.0</ele><time>2026-04-18T15:54:56.017Z</time></trkpt><trkpt lat="45.9620279" lon="11.7551225"><ele>298.0</ele><time>2026-04-18T15:54:58.019Z</time></trkpt><trkpt lat="45.961962" lon="11.7549766"><ele>307.0</ele><time>2026-04-18T15:55:00.025Z</time></trkpt><trkpt lat="45.9619036" lon="11.7549259"><ele>316.0</ele><time>2026-04-18T15:55:01.029Z</time></trkpt><trkpt lat="45.9618251" lon="11.7548107"><ele>325.0</ele><time>2026-04-18T15:55:03.027Z</time></trkpt><trkpt lat="45.961771" lon="11.754686"><ele>334.0</ele><time>2026-04-18T15:55:04.989Z</time></trkpt><trkpt lat="45.9617099" lon="11.7546082"><ele>334.0</ele><time>2026-04-18T15:55:07.02Z</time></trkpt><trkpt lat="45.9616891" lon="11.7545066"><ele>334.0</ele><time>2026-04-18T15:55:09.99Z</time></trkpt><trkpt lat="45.9616723" lon="11.75462"><ele>334.0</ele><time>2026-04-18T15:55:14.028Z</time></trkpt><trkpt lat="45.9616273" lon="11.7547349"><ele>334.0</ele><time>2026-04-18T15:55:16.028Z</time></trkpt><trkpt lat="45.9616317" lon="11.7548824"><ele>334.0</ele><time>2026-04-18T15:55:17.989Z</time></trkpt><trkpt lat="45.9616946" lon="11.7549711"><ele>334.0</ele><time>2026-04-18T15:55:19.018Z</time></trkpt><trkpt lat="45.96178" lon="11.7550781"><ele>334.0</ele><time>2026-04-18T15:55:20.048Z</time></trkpt><trkpt lat="45.9618327" lon="11.7551765"><ele>334.0</ele><time>2026-04-18T15:55:21.028Z</time></trkpt><trkpt lat="45.9618871" lon="11.7552757"><ele>334.0</ele><time>2026-04-18T15:55:22.03Z</time></trkpt><trkpt lat="45.9619536" lon="11.7553812"><ele>334.0</ele><time>2026-04-18T15:55:23.04Z</time></trkpt><trkpt lat="45.9620232" lon="11.7554776"><ele>334.0</ele><time>2026-04-18T15:55:24.023Z</time></trkpt><trkpt lat="45.9620988" lon="11.755578"><ele>325.0</ele><time>2026-04-18T15:55:25.016Z</time></trkpt><trkpt lat="45.962184" lon="11.7556679"><ele>316.0</ele><time>2026-04-18T15:55:26.045Z</time></trkpt><trkpt lat="45.9622656" lon="11.7557469"><ele>307.0</ele><time>2026-04-18T15:55:27.034Z</time></trkpt><trkpt lat="45.962337" lon="11.7558228"><ele>298.0</ele><time>2026-04-18T15:55:28.016Z</time></trkpt><trkpt lat="45.9624243" lon="11.7558804"><ele>289.0</ele><time>2026-04-18T15:55:29.03Z</time></trkpt><trkpt lat="45.9624925" lon="11.7559273"><ele>290.3333333333333</ele><time>2026-04-18T15:55:30.025Z</time></trkpt><trkpt lat="45.9625775" lon="11.7559653"><ele>291.66666666666663</ele><time>2026-04-18T15:55:31.023Z</time></trkpt><trkpt lat="45.9626746" lon="11.7559864"><ele>293.0</ele><time>2026-04-18T15:55:32.026Z</time></trkpt><trkpt lat="45.9627636" lon="11.756009"><ele>294.3333333333333</ele><time>2026-04-18T15:55:33.035Z</time></trkpt><trkpt lat="45.9628467" lon="11.7560291"><ele>295.6666666666667</ele><time>2026-04-18T15:55:34.016Z</time></trkpt><trkpt lat="45.9629318" lon="11.7560551"><ele>297.0</ele><time>2026-04-18T15:55:35.031Z</time></trkpt><trkpt lat="45.9630045" lon="11.756079"><ele>291.6</ele><time>2026-04-18T15:55:36.04Z</time></trkpt><trkpt lat="45.9630978" lon="11.7561053"><ele>286.2</ele><time>2026-04-18T15:55:37.024Z</time></trkpt><trkpt lat="45.9631652" lon="11.7561323"><ele>280.8</ele><time>2026-04-18T15:55:38.018Z</time></trkpt><trkpt lat="45.9632587" lon="11.7561636"><ele>275.4</ele><time>2026-04-18T15:55:39.036Z</time></trkpt><trkpt lat="45.9633613" lon="11.7562132"><ele>270.0</ele><time>2026-04-18T15:55:40.031Z</time></trkpt><trkpt lat="45.9634625" lon="11.7563077"><ele>270.0</ele><time>2026-04-18T15:55:41.999Z</time></trkpt><trkpt lat="45.9635157" lon="11.7563588"><ele>270.0</ele><time>2026-04-18T15:55:43.02Z</time></trkpt><trkpt lat="45.9635726" lon="11.7564095"><ele>270.0</ele><time>2026-04-18T15:55:44.023Z</time></trkpt><trkpt lat="45.9636751" lon="11.756498"><ele>270.0</ele><time>2026-04-18T15:55:46.022Z</time></trkpt><trkpt lat="45.9637676" lon="11.7565629"><ele>270.0</ele><time>2026-04-18T15:55:48.03Z</time></trkpt><trkpt lat="45.9638637" lon="11.7566228"><ele>270.0</ele><time>2026-04-18T15:55:50.018Z</time></trkpt><trkpt lat="45.9637954" lon="11.7565453"><ele>270.0</ele><time>2026-04-18T15:55:54.02Z</time></trkpt><trkpt lat="45.9637184" lon="11.756463"><ele>270.0</ele><time>2026-04-18T15:55:56.041Z</time></trkpt><trkpt lat="45.963587" lon="11.7564882"><ele>270.0</ele><time>2026-04-18T15:55:58.036Z</time></trkpt><trkpt lat="45.9635227" lon="11.7565642"><ele>270.0</ele><time>2026-04-18T15:56:00.012Z</time></trkpt><trkpt lat="45.9634763" lon="11.75663"><ele>270.0</ele><time>2026-04-18T15:56:03.018Z</time></trkpt><trkpt lat="45.9633951" lon="11.7565718"><ele>270.0</ele><time>2026-04-18T15:56:06.019Z</time></trkpt><trkpt lat="45.9632676" lon="11.7565534"><ele>270.0</ele><time>2026-04-18T15:56:07.041Z</time></trkpt><trkpt lat="45.9631869" lon="11.7565507"><ele>270.0</ele><time>2026-04-18T15:56:08.017Z</time></trkpt><trkpt lat="45.9630918" lon="11.7565674"><ele>270.0</ele><time>2026-04-18T15:56:10.028Z</time></trkpt><trkpt lat="45.9630103" lon="11.756615"><ele>270.0</ele><time>2026-04-18T15:56:11.013Z</time></trkpt><trkpt lat="45.9629493" lon="11.756658"><ele>270.0</ele><time>2026-04-18T15:56:12.017Z</time></trkpt><trkpt lat="45.9628848" lon="11.75665"><ele>270.0</ele><time>2026-04-18T15:56:23.034Z</time></trkpt><trkpt lat="45.9628068" lon="11.7566644"><ele>270.0</ele><time>2026-04-18T15:56:26.017Z</time></trkpt><trkpt lat="45.962739" lon="11.7566468"><ele>270.0</ele><time>2026-04-18T15:56:34.019Z</time></trkpt><trkpt lat="45.9626342" lon="11.7566348"><ele>270.0</ele><time>2026-04-18T15:56:37.033Z</time></trkpt><trkpt lat="45.9625364" lon="11.7565726"><ele>269.6</ele><time>2026-04-18T15:56:39.018Z</time></trkpt><trkpt lat="45.9624543" lon="11.7565838"><ele>269.2</ele><time>2026-04-18T15:56:40.022Z</time></trkpt><trkpt lat="45.9623698" lon="11.7565622"><ele>268.8</ele><time>2026-04-18T15:56:41.023Z</time></trkpt><trkpt lat="45.9622845" lon="11.7565816"><ele>268.4</ele><time>2026-04-18T15:56:42.019Z</time></trkpt><trkpt lat="45.9621734" lon="11.756512"><ele>268.0</ele><time>2026-04-18T15:56:43.992Z</time></trkpt><trkpt lat="45.9620917" lon="11.7564836"><ele>268.0</ele><time>2026-04-18T15:56:45.034Z</time></trkpt><trkpt lat="45.9619787" lon="11.7563599"><ele>268.0</ele><time>2026-04-18T15:56:47.024Z</time></trkpt><trkpt lat="45.9618465" lon="11.7562439"><ele>268.0</ele><time>2026-04-18T15:56:48.019Z</time></trkpt><trkpt lat="45.9617752" lon="11.7562643"><ele>268.0</ele><time>2026-04-18T15:56:49.011Z</time></trkpt><trkpt lat="45.9617067" lon="11.7562663"><ele>268.0</ele><time>2026-04-18T15:56:51.027Z</time></trkpt><trkpt lat="45.9617841" lon="11.7563122"><ele>268.0</ele><time>2026-04-18T15:57:08.012Z</time></trkpt><trkpt lat="45.9617213" lon="11.7563937"><ele>268.0</ele><time>2026-04-18T15:57:18.009Z</time></trkpt><trkpt lat="45.9617968" lon="11.7563129"><ele>268.0</ele><time>2026-04-18T15:57:27.03Z</time></trkpt><trkpt lat="45.9617379" lon="11.7563953"><ele>268.0</ele><time>2026-04-18T15:57:29.988Z</time></trkpt><trkpt lat="45.96178" lon="11.756501"><ele>268.0</ele><time>2026-04-18T15:57:42.038Z</time></trkpt><trkpt lat="45.9618788" lon="11.7564611"><ele>268.0</ele><time>2026-04-18T15:57:55.023Z</time></trkpt><trkpt lat="45.96196" lon="11.7563584"><ele>268.0</ele><time>2026-04-18T15:58:00.026Z</time></trkpt><trkpt lat="45.9620396" lon="11.7563281"><ele>268.0</ele><time>2026-04-18T15:58:02.008Z</time></trkpt><trkpt lat="45.9618017" lon="11.7564876"><ele>268.0</ele><time>2026-04-18T15:58:17.383Z</time></trkpt><trkpt lat="45.9617004" lon="11.7563739"><ele>268.0</ele><time>2026-04-18T15:59:47.811Z</time></trkpt><trkpt lat="45.9617733" lon="11.7563474"><ele>268.0</ele><time>2026-04-18T15:59:58.03Z</time></trkpt><trkpt lat="45.9618219" lon="11.7564086"><ele>268.0</ele><time>2026-04-18T16:00:00.018Z</time></trkpt><trkpt lat="45.9618141" lon="11.7565048"><ele>268.0</ele><time>2026-04-18T16:00:16.983Z</time></trkpt><trkpt lat="45.9617573" lon="11.7563008"><ele>268.0</ele><time>2026-04-18T16:00:56.018Z</time></trkpt><trkpt lat="45.9618281" lon="11.7562244"><ele>268.0</ele><time>2026-04-18T16:14:36.983Z</time></trkpt><trkpt lat="45.961945" lon="11.756171"><ele>268.0</ele><time>2026-04-18T16:14:38.989Z</time></trkpt><trkpt lat="45.9620087" lon="11.7561279"><ele>268.0</ele><time>2026-04-18T16:14:39.989Z</time></trkpt><trkpt lat="45.9620764" lon="11.7561131"><ele>268.0</ele><time>2026-04-18T16:14:40.989Z</time></trkpt><trkpt lat="45.9621717" lon="11.7561257"><ele>268.0</ele><time>2026-04-18T16:14:42Z</time></trkpt><trkpt lat="45.962276" lon="11.7561445"><ele>268.0</ele><time>2026-04-18T16:14:42.987Z</time></trkpt><trkpt lat="45.9623725" lon="11.7561585"><ele>268.0</ele><time>2026-04-18T16:14:44.007Z</time></trkpt><trkpt lat="45.96246" lon="11.7561748"><ele>268.3333333333333</ele><time>2026-04-18T16:14:44.995Z</time></trkpt><trkpt lat="45.9625435" lon="11.7561952"><ele>268.66666666666663</ele><time>2026-04-18T16:14:45.988Z</time></trkpt><trkpt lat="45.9626277" lon="11.7562184"><ele>269.0</ele><time>2026-04-18T16:14:46.987Z</time></trkpt><trkpt lat="45.9627148" lon="11.7562424"><ele>269.3333333333333</ele><time>2026-04-18T16:14:47.993Z</time></trkpt><trkpt lat="45.9628021" lon="11.7562646"><ele>269.6666666666667</ele><time>2026-04-18T16:14:48.991Z</time></trkpt><trkpt lat="45.9628979" lon="11.7562806"><ele>270.0</ele><time>2026-04-18T16:14:50.019Z</time></trkpt><trkpt lat="45.9629861" lon="11.7562874"><ele>270.0</ele><time>2026-04-18T16:14:50.974Z</time></trkpt><trkpt lat="45.9630746" lon="11.7562888"><ele>270.0</ele><time>2026-04-18T16:14:51.992Z</time></trkpt><trkpt lat="45.9631607" lon="11.756289"><ele>270.0</ele><time>2026-04-18T16:14:52.987Z</time></trkpt><trkpt lat="45.9632572" lon="11.756286"><ele>270.0</ele><time>2026-04-18T16:14:54.03Z</time></trkpt><trkpt lat="45.9633461" lon="11.7562852"><ele>270.0</ele><time>2026-04-18T16:14:55.038Z</time></trkpt><trkpt lat="45.9634258" lon="11.7562861"><ele>270.0</ele><time>2026-04-18T16:14:55.999Z</time></trkpt><trkpt lat="45.9635092" lon="11.7562851"><ele>270.0</ele><time>2026-04-18T16:14:57.006Z</time></trkpt><trkpt lat="45.9635921" lon="11.7562869"><ele>270.0</ele><time>2026-04-18T16:14:57.995Z</time></trkpt><trkpt lat="45.9636753" lon="11.7562825"><ele>270.0</ele><time>2026-04-18T16:14:58.966Z</time></trkpt><trkpt lat="45.9637625" lon="11.7562726"><ele>270.0</ele><time>2026-04-18T16:14:59.995Z</time></trkpt><trkpt lat="45.9638388" lon="11.7562619"><ele>270.0</ele><time>2026-04-18T16:15:00.992Z</time></trkpt><trkpt lat="45.9639125" lon="11.7562482"><ele>270.0</ele><time>2026-04-18T16:15:01.959Z</time></trkpt><trkpt lat="45.9639989" lon="11.7562234"><ele>270.0</ele><time>2026-04-18T16:15:03.008Z</time></trkpt><trkpt lat="45.9640824" lon="11.7561913"><ele>270.0</ele><time>2026-04-18T16:15:03.997Z</time></trkpt><trkpt lat="45.9641661" lon="11.7561541"><ele>270.0</ele><time>2026-04-18T16:15:04.981Z</time></trkpt><trkpt lat="45.9642514" lon="11.7561119"><ele>270.0</ele><time>2026-04-18T16:15:05.991Z</time></trkpt><trkpt lat="45.9643331" lon="11.7560741"><ele>270.0</ele><time>2026-04-18T16:15:06.944Z</time></trkpt><trkpt lat="45.9644181" lon="11.7560331"><ele>270.0</ele><time>2026-04-18T16:15:07.971Z</time></trkpt><trkpt lat="45.9645025" lon="11.7559968"><ele>271.8333333333333</ele><time>2026-04-18T16:15:09.003Z</time></trkpt><trkpt lat="45.9645791" lon="11.7559722"><ele>273.6666666666667</ele><time>2026-04-18T16:15:09.986Z</time></trkpt><trkpt lat="45.9646547" lon="11.7559635"><ele>275.5</ele><time>2026-04-18T16:15:10.986Z</time></trkpt><trkpt lat="45.9647351" lon="11.7559778"><ele>277.33333333333337</ele><time>2026-04-18T16:15:12.001Z</time></trkpt><trkpt lat="45.9648135" lon="11.7560101"><ele>279.1666666666667</ele><time>2026-04-18T16:15:12.988Z</time></trkpt><trkpt lat="45.9648837" lon="11.756068"><ele>281.0</ele><time>2026-04-18T16:15:13.988Z</time></trkpt><trkpt lat="45.9649511" lon="11.756153"><ele>281.0</ele><time>2026-04-18T16:15:15.001Z</time></trkpt><trkpt lat="45.9650174" lon="11.7562598"><ele>281.0</ele><time>2026-04-18T16:15:16.001Z</time></trkpt><trkpt lat="45.9650854" lon="11.7563576"><ele>281.0</ele><time>2026-04-18T16:15:16.962Z</time></trkpt><trkpt lat="45.9651583" lon="11.7564514"><ele>281.0</ele><time>2026-04-18T16:15:17.991Z</time></trkpt><trkpt lat="45.9652272" lon="11.7565382"><ele>281.0</ele><time>2026-04-18T16:15:18.983Z</time></trkpt><trkpt lat="45.9652954" lon="11.7566242"><ele>282.2</ele><time>2026-04-18T16:15:19.991Z</time></trkpt><trkpt lat="45.9653624" lon="11.7567136"><ele>283.40000000000003</ele><time>2026-04-18T16:15:21Z</time></trkpt><trkpt lat="45.96543" lon="11.756803"><ele>284.6</ele><time>2026-04-18T16:15:21.993Z</time></trkpt><trkpt lat="45.965499" lon="11.7568946"><ele>285.8</ele><time>2026-04-18T16:15:22.985Z</time></trkpt><trkpt lat="45.9655672" lon="11.7569821"><ele>287.0</ele><time>2026-04-18T16:15:23.994Z</time></trkpt><trkpt lat="45.9656327" lon="11.757066"><ele>287.0</ele><time>2026-04-18T16:15:24.976Z</time></trkpt><trkpt lat="45.9657007" lon="11.7571503"><ele>287.0</ele><time>2026-04-18T16:15:26.011Z</time></trkpt><trkpt lat="45.965766" lon="11.7572301"><ele>287.0</ele><time>2026-04-18T16:15:27.004Z</time></trkpt><trkpt lat="45.9658316" lon="11.7573129"><ele>287.0</ele><time>2026-04-18T16:15:27.997Z</time></trkpt><trkpt lat="45.9658957" lon="11.7573967"><ele>287.0</ele><time>2026-04-18T16:15:28.98Z</time></trkpt><trkpt lat="45.9659542" lon="11.7574847"><ele>287.0</ele><time>2026-04-18T16:15:29.987Z</time></trkpt><trkpt lat="45.9660022" lon="11.7575696"><ele>286.6666666666667</ele><time>2026-04-18T16:15:30.977Z</time></trkpt><trkpt lat="45.9660467" lon="11.7576616"><ele>286.33333333333337</ele><time>2026-04-18T16:15:32.001Z</time></trkpt><trkpt lat="45.9660909" lon="11.7577528"><ele>286.0</ele><time>2026-04-18T16:15:32.993Z</time></trkpt><trkpt lat="45.9661381" lon="11.7578317"><ele>285.6666666666667</ele><time>2026-04-18T16:15:33.996Z</time></trkpt><trkpt lat="45.9661915" lon="11.7578998"><ele>285.3333333333333</ele><time>2026-04-18T16:15:35.007Z</time></trkpt><trkpt lat="45.9662558" lon="11.7579445"><ele>285.0</ele><time>2026-04-18T16:15:35.988Z</time></trkpt><trkpt lat="45.9663368" lon="11.7579712"><ele>285.0</ele><time>2026-04-18T16:15:36.993Z</time></trkpt><trkpt lat="45.9664265" lon="11.7579853"><ele>285.0</ele><time>2026-04-18T16:15:38.003Z</time></trkpt><trkpt lat="45.9665073" lon="11.7579885"><ele>285.0</ele><time>2026-04-18T16:15:38.989Z</time></trkpt><trkpt lat="45.9665842" lon="11.7579891"><ele>285.0</ele><time>2026-04-18T16:15:39.997Z</time></trkpt><trkpt lat="45.9666617" lon="11.7579925"><ele>285.0</ele><time>2026-04-18T16:15:40.997Z</time></trkpt><trkpt lat="45.9667416" lon="11.7579984"><ele>285.0</ele><time>2026-04-18T16:15:41.994Z</time></trkpt><trkpt lat="45.9668225" lon="11.7580087"><ele>286.6666666666667</ele><time>2026-04-18T16:15:42.996Z</time></trkpt><trkpt lat="45.9669011" lon="11.7580273"><ele>288.3333333333333</ele><time>2026-04-18T16:15:43.989Z</time></trkpt><trkpt lat="45.9669764" lon="11.7580576"><ele>290.0</ele><time>2026-04-18T16:15:44.948Z</time></trkpt><trkpt lat="45.9670553" lon="11.7581087"><ele>291.66666666666663</ele><time>2026-04-18T16:15:45.995Z</time></trkpt><trkpt lat="45.9671268" lon="11.7581692"><ele>293.3333333333333</ele><time>2026-04-18T16:15:46.986Z</time></trkpt><trkpt lat="45.9672011" lon="11.7582389"><ele>295.0</ele><time>2026-04-18T16:15:47.991Z</time></trkpt><trkpt lat="45.9672823" lon="11.7583142"><ele>295.0</ele><time>2026-04-18T16:15:48.995Z</time></trkpt><trkpt lat="45.9673714" lon="11.7583897"><ele>295.0</ele><time>2026-04-18T16:15:50.001Z</time></trkpt><trkpt lat="45.9674597" lon="11.7584616"><ele>295.0</ele><time>2026-04-18T16:15:50.961Z</time></trkpt><trkpt lat="45.9675436" lon="11.7585426"><ele>295.0</ele><time>2026-04-18T16:15:51.979Z</time></trkpt><trkpt lat="45.9676243" lon="11.7586208"><ele>295.0</ele><time>2026-04-18T16:15:52.979Z</time></trkpt><trkpt lat="45.9677069" lon="11.7586915"><ele>295.6</ele><time>2026-04-18T16:15:53.973Z</time></trkpt><trkpt lat="45.9677894" lon="11.758761"><ele>296.2</ele><time>2026-04-18T16:15:54.991Z</time></trkpt><trkpt lat="45.9678682" lon="11.758832"><ele>296.8</ele><time>2026-04-18T16:15:55.988Z</time></trkpt><trkpt lat="45.9679493" lon="11.7589046"><ele>297.4</ele><time>2026-04-18T16:15:56.981Z</time></trkpt><trkpt lat="45.9680291" lon="11.7589752"><ele>298.0</ele><time>2026-04-18T16:15:57.991Z</time></trkpt><trkpt lat="45.9681054" lon="11.7590384"><ele>298.0</ele><time>2026-04-18T16:15:58.993Z</time></trkpt><trkpt lat="45.96818" lon="11.7590925"><ele>298.0</ele><time>2026-04-18T16:16:00.002Z</time></trkpt><trkpt lat="45.9682494" lon="11.7591313"><ele>298.0</ele><time>2026-04-18T16:16:00.984Z</time></trkpt><trkpt lat="45.9683214" lon="11.759159"><ele>298.0</ele><time>2026-04-18T16:16:01.969Z</time></trkpt><trkpt lat="45.9684033" lon="11.7591734"><ele>298.0</ele><time>2026-04-18T16:16:02.984Z</time></trkpt><trkpt lat="45.9684898" lon="11.7591662"><ele>298.0</ele><time>2026-04-18T16:16:03.992Z</time></trkpt><trkpt lat="45.9685791" lon="11.7591461"><ele>298.4</ele><time>2026-04-18T16:16:04.982Z</time></trkpt><trkpt lat="45.968672" lon="11.7591148"><ele>298.8</ele><time>2026-04-18T16:16:05.99Z</time></trkpt><trkpt lat="45.968762" lon="11.7590681"><ele>299.2</ele><time>2026-04-18T16:16:06.956Z</time></trkpt><trkpt lat="45.9688584" lon="11.759001"><ele>299.6</ele><time>2026-04-18T16:16:07.972Z</time></trkpt><trkpt lat="45.9689542" lon="11.7589335"><ele>300.0</ele><time>2026-04-18T16:16:08.986Z</time></trkpt><trkpt lat="45.9690477" lon="11.7588627"><ele>300.0</ele><time>2026-04-18T16:16:09.989Z</time></trkpt><trkpt lat="45.9691387" lon="11.7587915"><ele>300.0</ele><time>2026-04-18T16:16:10.988Z</time></trkpt><trkpt lat="45.969219" lon="11.7587243"><ele>300.0</ele><time>2026-04-18T16:16:11.989Z</time></trkpt><trkpt lat="45.9692913" lon="11.7586525"><ele>300.0</ele><time>2026-04-18T16:16:12.992Z</time></trkpt><trkpt lat="45.9693543" lon="11.7585897"><ele>300.0</ele><time>2026-04-18T16:16:13.991Z</time></trkpt><trkpt lat="45.9694545" lon="11.7584991"><ele>298.6</ele><time>2026-04-18T16:16:15.995Z</time></trkpt><trkpt lat="45.9695403" lon="11.7584415"><ele>297.2</ele><time>2026-04-18T16:16:17.996Z</time></trkpt><trkpt lat="45.9695991" lon="11.7583772"><ele>295.8</ele><time>2026-04-18T16:16:19.962Z</time></trkpt><trkpt lat="45.9696666" lon="11.758315"><ele>294.4</ele><time>2026-04-18T16:16:21.986Z</time></trkpt><trkpt lat="45.9697817" lon="11.7582787"><ele>293.0</ele><time>2026-04-18T16:16:23.994Z</time></trkpt><trkpt lat="45.9698652" lon="11.7582673"><ele>293.0</ele><time>2026-04-18T16:16:24.982Z</time></trkpt><trkpt lat="45.9699608" lon="11.7582559"><ele>293.0</ele><time>2026-04-18T16:16:25.994Z</time></trkpt><trkpt lat="45.9700609" lon="11.7582792"><ele>293.0</ele><time>2026-04-18T16:16:26.987Z</time></trkpt><trkpt lat="45.9701516" lon="11.758313"><ele>293.0</ele><time>2026-04-18T16:16:27.991Z</time></trkpt><trkpt lat="45.9702202" lon="11.7583363"><ele>293.0</ele><time>2026-04-18T16:16:28.952Z</time></trkpt><trkpt lat="45.9702837" lon="11.7583623"><ele>293.0</ele><time>2026-04-18T16:16:29.999Z</time></trkpt><trkpt lat="45.9703615" lon="11.7583833"><ele>292.2</ele><time>2026-04-18T16:16:32.008Z</time></trkpt><trkpt lat="45.9703998" lon="11.7582616"><ele>291.4</ele><time>2026-04-18T16:16:33.995Z</time></trkpt><trkpt lat="45.9704424" lon="11.7581684"><ele>290.59999999999997</ele><time>2026-04-18T16:16:34.944Z</time></trkpt><trkpt lat="45.9705136" lon="11.7580627"><ele>289.8</ele><time>2026-04-18T16:16:35.991Z</time></trkpt><trkpt lat="45.9705843" lon="11.7579449"><ele>289.0</ele><time>2026-04-18T16:16:36.986Z</time></trkpt><trkpt lat="45.9706503" lon="11.7578338"><ele>289.0</ele><time>2026-04-18T16:16:37.99Z</time></trkpt><trkpt lat="45.9707169" lon="11.7577221"><ele>289.0</ele><time>2026-04-18T16:16:39.038Z</time></trkpt><trkpt lat="45.9707828" lon="11.7576121"><ele>289.0</ele><time>2026-04-18T16:16:40.015Z</time></trkpt><trkpt lat="45.9708308" lon="11.7575398"><ele>289.0</ele><time>2026-04-18T16:16:40.984Z</time></trkpt><trkpt lat="45.970904" lon="11.7575007"><ele>289.0</ele><time>2026-04-18T16:16:43.965Z</time></trkpt><trkpt lat="45.9709963" lon="11.757555"><ele>289.2</ele><time>2026-04-18T16:16:46Z</time></trkpt><trkpt lat="45.9710663" lon="11.7576291"><ele>289.4</ele><time>2026-04-18T16:16:46.998Z</time></trkpt><trkpt lat="45.971151" lon="11.7577241"><ele>289.6</ele><time>2026-04-18T16:16:47.996Z</time></trkpt><trkpt lat="45.9712336" lon="11.7578164"><ele>289.8</ele><time>2026-04-18T16:16:48.97Z</time></trkpt><trkpt lat="45.9713189" lon="11.7579064"><ele>290.0</ele><time>2026-04-18T16:16:50.001Z</time></trkpt><trkpt lat="45.9713974" lon="11.7579952"><ele>290.0</ele><time>2026-04-18T16:16:50.983Z</time></trkpt><trkpt lat="45.9714776" lon="11.7580767"><ele>290.0</ele><time>2026-04-18T16:16:51.983Z</time></trkpt><trkpt lat="45.9715583" lon="11.7581371"><ele>290.0</ele><time>2026-04-18T16:16:52.997Z</time></trkpt><trkpt lat="45.9716461" lon="11.7581764"><ele>290.0</ele><time>2026-04-18T16:16:53.98Z</time></trkpt><trkpt lat="45.9717494" lon="11.7581967"><ele>290.0</ele><time>2026-04-18T16:16:54.99Z</time></trkpt><trkpt lat="45.9718461" lon="11.7582363"><ele>289.0</ele><time>2026-04-18T16:16:55.982Z</time></trkpt><trkpt lat="45.9719405" lon="11.7582955"><ele>288.0</ele><time>2026-04-18T16:16:56.976Z</time></trkpt><trkpt lat="45.9720392" lon="11.7583529"><ele>287.0</ele><time>2026-04-18T16:16:57.997Z</time></trkpt><trkpt lat="45.9721359" lon="11.7584037"><ele>286.0</ele><time>2026-04-18T16:16:58.968Z</time></trkpt><trkpt lat="45.9722457" lon="11.7584429"><ele>285.0</ele><time>2026-04-18T16:16:59.997Z</time></trkpt><trkpt lat="45.9723547" lon="11.7584729"><ele>285.0</ele><time>2026-04-18T16:17:00.994Z</time></trkpt><trkpt lat="45.972455" lon="11.758505"><ele>285.0</ele><time>2026-04-18T16:17:01.958Z</time></trkpt><trkpt lat="45.9725587" lon="11.7585321"><ele>285.0</ele><time>2026-04-18T16:17:02.984Z</time></trkpt><trkpt lat="45.9726523" lon="11.7585492"><ele>285.0</ele><time>2026-04-18T16:17:03.989Z</time></trkpt><trkpt lat="45.9727342" lon="11.758557"><ele>285.0</ele><time>2026-04-18T16:17:04.992Z</time></trkpt><trkpt lat="45.9728138" lon="11.7585618"><ele>286.6666666666667</ele><time>2026-04-18T16:17:05.997Z</time></trkpt><trkpt lat="45.9728887" lon="11.7585688"><ele>288.3333333333333</ele><time>2026-04-18T16:17:06.985Z</time></trkpt><trkpt lat="45.9729714" lon="11.7585747"><ele>290.0</ele><time>2026-04-18T16:17:08.025Z</time></trkpt><trkpt lat="45.9730495" lon="11.7585897"><ele>291.66666666666663</ele><time>2026-04-18T16:17:08.995Z</time></trkpt><trkpt lat="45.9731321" lon="11.7585984"><ele>293.3333333333333</ele><time>2026-04-18T16:17:09.983Z</time></trkpt><trkpt lat="45.9732113" lon="11.7586078"><ele>295.0</ele><time>2026-04-18T16:17:10.997Z</time></trkpt><trkpt lat="45.9732899" lon="11.7586133"><ele>295.8333333333333</ele><time>2026-04-18T16:17:11.998Z</time></trkpt><trkpt lat="45.9733795" lon="11.7586216"><ele>296.66666666666663</ele><time>2026-04-18T16:17:12.994Z</time></trkpt><trkpt lat="45.9734687" lon="11.7586344"><ele>297.5</ele><time>2026-04-18T16:17:13.989Z</time></trkpt><trkpt lat="45.9735497" lon="11.7586468"><ele>298.3333333333333</ele><time>2026-04-18T16:17:14.975Z</time></trkpt><trkpt lat="45.9736308" lon="11.758659"><ele>299.1666666666667</ele><time>2026-04-18T16:17:15.992Z</time></trkpt><trkpt lat="45.973718" lon="11.7586718"><ele>300.0</ele><time>2026-04-18T16:17:16.995Z</time></trkpt><trkpt lat="45.97381" lon="11.7586853"><ele>300.0</ele><time>2026-04-18T16:17:17.995Z</time></trkpt><trkpt lat="45.9738999" lon="11.7586958"><ele>300.0</ele><time>2026-04-18T16:17:19.002Z</time></trkpt><trkpt lat="45.9739872" lon="11.7587043"><ele>300.0</ele><time>2026-04-18T16:17:19.988Z</time></trkpt><trkpt lat="45.9740784" lon="11.7587092"><ele>300.0</ele><time>2026-04-18T16:17:20.987Z</time></trkpt><trkpt lat="45.9741727" lon="11.7587154"><ele>300.0</ele><time>2026-04-18T16:17:21.992Z</time></trkpt><trkpt lat="45.9742657" lon="11.7587219"><ele>298.8</ele><time>2026-04-18T16:17:22.999Z</time></trkpt><trkpt lat="45.9743527" lon="11.7587322"><ele>297.6</ele><time>2026-04-18T16:17:24.009Z</time></trkpt><trkpt lat="45.9744397" lon="11.7587483"><ele>296.4</ele><time>2026-04-18T16:17:24.974Z</time></trkpt><trkpt lat="45.974542" lon="11.758768"><ele>295.2</ele><time>2026-04-18T16:17:25.995Z</time></trkpt><trkpt lat="45.9746508" lon="11.758787"><ele>294.0</ele><time>2026-04-18T16:17:26.987Z</time></trkpt><trkpt lat="45.974761" lon="11.758803"><ele>294.0</ele><time>2026-04-18T16:17:27.988Z</time></trkpt><trkpt lat="45.9748542" lon="11.7588133"><ele>294.0</ele><time>2026-04-18T16:17:28.971Z</time></trkpt><trkpt lat="45.9749374" lon="11.7588272"><ele>294.0</ele><time>2026-04-18T16:17:29.987Z</time></trkpt><trkpt lat="45.9750231" lon="11.7588404"><ele>294.0</ele><time>2026-04-18T16:17:30.978Z</time></trkpt><trkpt lat="45.9751226" lon="11.7588551"><ele>294.0</ele><time>2026-04-18T16:17:31.988Z</time></trkpt><trkpt lat="45.975221" lon="11.7588718"><ele>293.59999999999997</ele><time>2026-04-18T16:17:32.982Z</time></trkpt><trkpt lat="45.9753198" lon="11.7588889"><ele>293.2</ele><time>2026-04-18T16:17:33.994Z</time></trkpt><trkpt lat="45.9754175" lon="11.7589032"><ele>292.79999999999995</ele><time>2026-04-18T16:17:34.999Z</time></trkpt><trkpt lat="45.9755095" lon="11.7589141"><ele>292.4</ele><time>2026-04-18T16:17:35.99Z</time></trkpt><trkpt lat="45.9755978" lon="11.7589257"><ele>292.0</ele><time>2026-04-18T16:17:36.962Z</time></trkpt><trkpt lat="45.9756911" lon="11.7589463"><ele>292.0</ele><time>2026-04-18T16:17:37.987Z</time></trkpt><trkpt lat="45.9757801" lon="11.7589674"><ele>292.0</ele><time>2026-04-18T16:17:38.997Z</time></trkpt><trkpt lat="45.9758688" lon="11.7589821"><ele>292.0</ele><time>2026-04-18T16:17:39.994Z</time></trkpt><trkpt lat="45.9759677" lon="11.7589906"><ele>292.0</ele><time>2026-04-18T16:17:41.019Z</time></trkpt><trkpt lat="45.9760541" lon="11.7589966"><ele>292.0</ele><time>2026-04-18T16:17:41.969Z</time></trkpt><trkpt lat="45.976145" lon="11.7589938"><ele>292.0</ele><time>2026-04-18T16:17:43.031Z</time></trkpt><trkpt lat="45.9762294" lon="11.7589813"><ele>292.0</ele><time>2026-04-18T16:17:43.993Z</time></trkpt><trkpt lat="45.9763113" lon="11.7589461"><ele>292.0</ele><time>2026-04-18T16:17:45Z</time></trkpt><trkpt lat="45.9763997" lon="11.7589125"><ele>292.0</ele><time>2026-04-18T16:17:45.989Z</time></trkpt><trkpt lat="45.9764894" lon="11.7588733"><ele>292.0</ele><time>2026-04-18T16:17:46.977Z</time></trkpt><trkpt lat="45.9765821" lon="11.7588369"><ele>292.0</ele><time>2026-04-18T16:17:47.991Z</time></trkpt><trkpt lat="45.9766723" lon="11.7588063"><ele>292.0</ele><time>2026-04-18T16:17:48.987Z</time></trkpt><trkpt lat="45.9767681" lon="11.7587741"><ele>292.0</ele><time>2026-04-18T16:17:49.979Z</time></trkpt><trkpt lat="45.9768655" lon="11.7587441"><ele>292.0</ele><time>2026-04-18T16:17:50.981Z</time></trkpt><trkpt lat="45.9769576" lon="11.7587129"><ele>292.0</ele><time>2026-04-18T16:17:51.998Z</time></trkpt><trkpt lat="45.9770431" lon="11.7586835"><ele>292.0</ele><time>2026-04-18T16:17:52.994Z</time></trkpt><trkpt lat="45.9771291" lon="11.7586621"><ele>292.0</ele><time>2026-04-18T16:17:54Z</time></trkpt><trkpt lat="45.9772149" lon="11.7586518"><ele>292.0</ele><time>2026-04-18T16:17:54.992Z</time></trkpt><trkpt lat="45.9773009" lon="11.7586398"><ele>292.0</ele><time>2026-04-18T16:17:56Z</time></trkpt><trkpt lat="45.9773813" lon="11.7586376"><ele>292.0</ele><time>2026-04-18T16:17:56.996Z</time></trkpt><trkpt lat="45.9774575" lon="11.7586359"><ele>292.0</ele><time>2026-04-18T16:17:57.998Z</time></trkpt><trkpt lat="45.977532" lon="11.7586327"><ele>292.0</ele><time>2026-04-18T16:17:58.983Z</time></trkpt><trkpt lat="45.9775983" lon="11.7586304"><ele>292.0</ele><time>2026-04-18T16:17:59.964Z</time></trkpt><trkpt lat="45.9777023" lon="11.7586242"><ele>292.0</ele><time>2026-04-18T16:18:02.002Z</time></trkpt><trkpt lat="45.9777836" lon="11.7585919"><ele>292.0</ele><time>2026-04-18T16:18:05Z</time></trkpt><trkpt lat="45.9778918" lon="11.7585525"><ele>292.0</ele><time>2026-04-18T16:18:08.002Z</time></trkpt><trkpt lat="45.9779885" lon="11.7584802"><ele>292.0</ele><time>2026-04-18T16:18:09.956Z</time></trkpt><trkpt lat="45.9780389" lon="11.7584221"><ele>292.0</ele><time>2026-04-18T16:18:10.969Z</time></trkpt><trkpt lat="45.9780985" lon="11.7583686"><ele>292.0</ele><time>2026-04-18T16:18:12.001Z</time></trkpt><trkpt lat="45.9781608" lon="11.7583303"><ele>292.0</ele><time>2026-04-18T16:18:12.999Z</time></trkpt><trkpt lat="45.9782357" lon="11.7582979"><ele>292.0</ele><time>2026-04-18T16:18:13.997Z</time></trkpt><trkpt lat="45.9783188" lon="11.7583009"><ele>292.0</ele><time>2026-04-18T16:18:14.992Z</time></trkpt><trkpt lat="45.9783966" lon="11.7583365"><ele>292.0</ele><time>2026-04-18T16:18:15.99Z</time></trkpt><trkpt lat="45.9784658" lon="11.758422"><ele>292.4</ele><time>2026-04-18T16:18:16.997Z</time></trkpt><trkpt lat="45.9785213" lon="11.7585273"><ele>292.79999999999995</ele><time>2026-04-18T16:18:17.984Z</time></trkpt><trkpt lat="45.9785575" lon="11.7586492"><ele>293.2</ele><time>2026-04-18T16:18:19.002Z</time></trkpt><trkpt lat="45.9785847" lon="11.7587891"><ele>293.59999999999997</ele><time>2026-04-18T16:18:19.99Z</time></trkpt><trkpt lat="45.9786191" lon="11.7589192"><ele>294.0</ele><time>2026-04-18T16:18:21.005Z</time></trkpt><trkpt lat="45.9786575" lon="11.7590416"><ele>294.5</ele><time>2026-04-18T16:18:21.993Z</time></trkpt><trkpt lat="45.9786992" lon="11.7591619"><ele>295.0</ele><time>2026-04-18T16:18:22.99Z</time></trkpt><trkpt lat="45.9787421" lon="11.7592838"><ele>295.5</ele><time>2026-04-18T16:18:23.992Z</time></trkpt><trkpt lat="45.9787844" lon="11.7594054"><ele>296.0</ele><time>2026-04-18T16:18:24.985Z</time></trkpt><trkpt lat="45.9788237" lon="11.7595197"><ele>296.5</ele><time>2026-04-18T16:18:25.993Z</time></trkpt><trkpt lat="45.97886" lon="11.7596188"><ele>297.0</ele><time>2026-04-18T16:18:26.978Z</time></trkpt><trkpt lat="45.9789021" lon="11.7597253"><ele>297.3333333333333</ele><time>2026-04-18T16:18:27.995Z</time></trkpt><trkpt lat="45.978936" lon="11.7598336"><ele>297.6666666666667</ele><time>2026-04-18T16:18:28.988Z</time></trkpt><trkpt lat="45.9789753" lon="11.7599467"><ele>298.0</ele><time>2026-04-18T16:18:29.994Z</time></trkpt><trkpt lat="45.9790141" lon="11.760059"><ele>298.33333333333337</ele><time>2026-04-18T16:18:30.981Z</time></trkpt><trkpt lat="45.9790533" lon="11.7601785"><ele>298.6666666666667</ele><time>2026-04-18T16:18:31.993Z</time></trkpt><trkpt lat="45.9790889" lon="11.7603037"><ele>299.0</ele><time>2026-04-18T16:18:33.008Z</time></trkpt><trkpt lat="45.9791198" lon="11.7604199"><ele>299.2</ele><time>2026-04-18T16:18:34.004Z</time></trkpt><trkpt lat="45.9791529" lon="11.7605359"><ele>299.4</ele><time>2026-04-18T16:18:34.981Z</time></trkpt><trkpt lat="45.9791906" lon="11.7606561"><ele>299.6</ele><time>2026-04-18T16:18:35.988Z</time></trkpt><trkpt lat="45.9792314" lon="11.7607789"><ele>299.8</ele><time>2026-04-18T16:18:37Z</time></trkpt><trkpt lat="45.9792757" lon="11.760905"><ele>300.0</ele><time>2026-04-18T16:18:38.001Z</time></trkpt><trkpt lat="45.9793205" lon="11.7610244"><ele>300.3333333333333</ele><time>2026-04-18T16:18:39.003Z</time></trkpt><trkpt lat="45.9793687" lon="11.7611386"><ele>300.6666666666667</ele><time>2026-04-18T16:18:39.994Z</time></trkpt><trkpt lat="45.9794187" lon="11.7612464"><ele>301.0</ele><time>2026-04-18T16:18:40.981Z</time></trkpt><trkpt lat="45.979471" lon="11.7613514"><ele>301.33333333333337</ele><time>2026-04-18T16:18:41.996Z</time></trkpt><trkpt lat="45.979525" lon="11.7614479"><ele>301.6666666666667</ele><time>2026-04-18T16:18:43.011Z</time></trkpt><trkpt lat="45.9795738" lon="11.7615376"><ele>302.0</ele><time>2026-04-18T16:18:43.997Z</time></trkpt><trkpt lat="45.9796191" lon="11.7616271"><ele>302.0</ele><time>2026-04-18T16:18:45.003Z</time></trkpt><trkpt lat="45.9796589" lon="11.7617072"><ele>302.0</ele><time>2026-04-18T16:18:45.989Z</time></trkpt><trkpt lat="45.97972" lon="11.7618157"><ele>302.0</ele><time>2026-04-18T16:18:47.991Z</time></trkpt><trkpt lat="45.9798115" lon="11.7618016"><ele>302.0</ele><time>2026-04-18T16:18:49.977Z</time></trkpt><trkpt lat="45.9798976" lon="11.7617475"><ele>302.0</ele><time>2026-04-18T16:18:50.995Z</time></trkpt><trkpt lat="45.9799857" lon="11.7616641"><ele>302.0</ele><time>2026-04-18T16:18:51.984Z</time></trkpt><trkpt lat="45.9800665" lon="11.761594"><ele>302.0</ele><time>2026-04-18T16:18:53.004Z</time></trkpt><trkpt lat="45.9801297" lon="11.761527"><ele>302.0</ele><time>2026-04-18T16:18:53.984Z</time></trkpt><trkpt lat="45.9801824" lon="11.7614663"><ele>302.0</ele><time>2026-04-18T16:18:54.996Z</time></trkpt><trkpt lat="45.9802386" lon="11.7614095"><ele>302.0</ele><time>2026-04-18T16:18:56.013Z</time></trkpt><trkpt lat="45.9803428" lon="11.7612987"><ele>302.0</ele><time>2026-04-18T16:18:57.985Z</time></trkpt><trkpt lat="45.9804046" lon="11.761224"><ele>302.0</ele><time>2026-04-18T16:18:58.993Z</time></trkpt><trkpt lat="45.9804978" lon="11.7611156"><ele>302.0</ele><time>2026-04-18T16:19:00.993Z</time></trkpt><trkpt lat="45.9805769" lon="11.761018"><ele>302.0</ele><time>2026-04-18T16:19:02.997Z</time></trkpt><trkpt lat="45.9806215" lon="11.7609536"><ele>302.0</ele><time>2026-04-18T16:19:03.994Z</time></trkpt><trkpt lat="45.9806697" lon="11.7608951"><ele>302.0</ele><time>2026-04-18T16:19:04.993Z</time></trkpt><trkpt lat="45.9807556" lon="11.7607966"><ele>301.83333333333337</ele><time>2026-04-18T16:19:06.991Z</time></trkpt><trkpt lat="45.9808468" lon="11.760685"><ele>301.6666666666667</ele><time>2026-04-18T16:19:09.018Z</time></trkpt><trkpt lat="45.9808915" lon="11.7606136"><ele>301.5</ele><time>2026-04-18T16:19:09.988Z</time></trkpt><trkpt lat="45.9809513" lon="11.7605261"><ele>301.3333333333333</ele><time>2026-04-18T16:19:10.974Z</time></trkpt><trkpt lat="45.9809963" lon="11.7604357"><ele>301.16666666666663</ele><time>2026-04-18T16:19:11.986Z</time></trkpt><trkpt lat="45.9810471" lon="11.7603375"><ele>301.0</ele><time>2026-04-18T16:19:13.002Z</time></trkpt><trkpt lat="45.9811014" lon="11.7602491"><ele>301.66666666666663</ele><time>2026-04-18T16:19:13.992Z</time></trkpt><trkpt lat="45.981156" lon="11.7601652"><ele>302.3333333333333</ele><time>2026-04-18T16:19:14.994Z</time></trkpt><trkpt lat="45.9812113" lon="11.7600898"><ele>303.0</ele><time>2026-04-18T16:19:15.999Z</time></trkpt><trkpt lat="45.9812637" lon="11.7600025"><ele>303.6666666666667</ele><time>2026-04-18T16:19:16.99Z</time></trkpt><trkpt lat="45.981359" lon="11.759876"><ele>304.33333333333337</ele><time>2026-04-18T16:19:18.987Z</time></trkpt><trkpt lat="45.9814072" lon="11.7598011"><ele>305.0</ele><time>2026-04-18T16:19:19.995Z</time></trkpt><trkpt lat="45.9814598" lon="11.7597207"><ele>305.0</ele><time>2026-04-18T16:19:21.002Z</time></trkpt><trkpt lat="45.9815029" lon="11.7596536"><ele>305.0</ele><time>2026-04-18T16:19:21.996Z</time></trkpt><trkpt lat="45.9815569" lon="11.7595857"><ele>305.0</ele><time>2026-04-18T16:19:23.006Z</time></trkpt><trkpt lat="45.9816005" lon="11.7595194"><ele>305.0</ele><time>2026-04-18T16:19:23.991Z</time></trkpt><trkpt lat="45.9816522" lon="11.7594498"><ele>305.0</ele><time>2026-04-18T16:19:24.988Z</time></trkpt><trkpt lat="45.9817021" lon="11.7593763"><ele>305.0</ele><time>2026-04-18T16:19:26.005Z</time></trkpt><trkpt lat="45.9817512" lon="11.7593"><ele>305.0</ele><time>2026-04-18T16:19:26.962Z</time></trkpt><trkpt lat="45.9818382" lon="11.7591897"><ele>306.0</ele><time>2026-04-18T16:19:28.982Z</time></trkpt><trkpt lat="45.9818793" lon="11.7590665"><ele>307.0</ele><time>2026-04-18T16:19:31.035Z</time></trkpt><trkpt lat="45.9819589" lon="11.7589861"><ele>308.0</ele><time>2026-04-18T16:19:32.989Z</time></trkpt><trkpt lat="45.9820383" lon="11.7588916"><ele>309.0</ele><time>2026-04-18T16:19:35.006Z</time></trkpt><trkpt lat="45.9820459" lon="11.7587897"><ele>310.0</ele><time>2026-04-18T16:19:36.993Z</time></trkpt><trkpt lat="45.9821237" lon="11.758722"><ele>310.0</ele><time>2026-04-18T16:19:39.967Z</time></trkpt><trkpt lat="45.9821887" lon="11.7586764"><ele>310.0</ele><time>2026-04-18T16:19:42.999Z</time></trkpt><trkpt lat="45.9822288" lon="11.7585766"><ele>310.0</ele><time>2026-04-18T16:19:44.992Z</time></trkpt><trkpt lat="45.9823002" lon="11.7584939"><ele>310.0</ele><time>2026-04-18T16:19:46.992Z</time></trkpt><trkpt lat="45.9823469" lon="11.7584219"><ele>310.0</ele><time>2026-04-18T16:19:48.998Z</time></trkpt><trkpt lat="45.9823791" lon="11.7583182"><ele>310.0</ele><time>2026-04-18T16:19:51.024Z</time></trkpt><trkpt lat="45.9824173" lon="11.7582089"><ele>310.5</ele><time>2026-04-18T16:19:53.004Z</time></trkpt><trkpt lat="45.982486" lon="11.7581344"><ele>311.0</ele><time>2026-04-18T16:19:56.998Z</time></trkpt><trkpt lat="45.982548" lon="11.7581723"><ele>311.5</ele><time>2026-04-18T16:19:59.029Z</time></trkpt><trkpt lat="45.9827659" lon="11.7581649"><ele>312.0</ele><time>2026-04-18T16:20:07.969Z</time></trkpt><trkpt lat="45.9828484" lon="11.7581073"><ele>313.0</ele><time>2026-04-18T16:20:10.341Z</time></trkpt><trkpt lat="45.9828788" lon="11.7580277"><ele>314.0</ele><time>2026-04-18T16:20:12.059Z</time></trkpt><trkpt lat="45.9829499" lon="11.757979"><ele>315.0</ele><time>2026-04-18T16:20:14.044Z</time></trkpt><trkpt lat="45.9831484" lon="11.7578765"><ele>316.0</ele><time>2026-04-18T16:20:18.058Z</time></trkpt><trkpt lat="45.9831959" lon="11.7578056"><ele>317.0</ele><time>2026-04-18T16:20:21.054Z</time></trkpt><trkpt lat="45.9832622" lon="11.7577404"><ele>317.0</ele><time>2026-04-18T16:20:23.051Z</time></trkpt><trkpt lat="45.983342" lon="11.7577001"><ele>317.0</ele><time>2026-04-18T16:20:25.051Z</time></trkpt><trkpt lat="45.9834063" lon="11.7576962"><ele>317.0</ele><time>2026-04-18T16:20:28.052Z</time></trkpt><trkpt lat="45.9834811" lon="11.7577214"><ele>317.0</ele><time>2026-04-18T16:20:31.024Z</time></trkpt><trkpt lat="45.9835507" lon="11.7577413"><ele>317.0</ele><time>2026-04-18T16:20:34.065Z</time></trkpt><trkpt lat="45.9836169" lon="11.757697"><ele>317.0</ele><time>2026-04-18T16:20:37.05Z</time></trkpt><trkpt lat="45.9836646" lon="11.7576361"><ele>317.0</ele><time>2026-04-18T16:20:40.055Z</time></trkpt><trkpt lat="45.9836951" lon="11.7575415"><ele>319.0</ele><time>2026-04-18T16:20:42.06Z</time></trkpt><trkpt lat="45.9836904" lon="11.7574474"><ele>319.0</ele><time>2026-04-18T16:20:59.046Z</time></trkpt><trkpt lat="45.9837396" lon="11.7575136"><ele>319.0</ele><time>2026-04-18T16:21:04.047Z</time></trkpt><trkpt lat="45.9836716" lon="11.7575293"><ele>319.0</ele><time>2026-04-18T16:21:09.03Z</time></trkpt><trkpt lat="45.9835819" lon="11.7574631"><ele>319.0</ele><time>2026-04-18T16:21:31.06Z</time></trkpt><trkpt lat="45.9835819" lon="11.7574631"><ele>319.0</ele><time>2026-04-18T16:21:31.06Z</time></trkpt></trkseg></trk></gpx>